<?xml version="1.0" encoding="UTF-8" standalone="no" ?>
<gpx xmlns="http://www.topografix.com/GPX/1/1" xmlns:xsi="http://www.w3.org/2001/XMLSchema-instance" xsi:schemaLocation="http://www.topografix.com/GPX/1/1 http://www.topografix.com/GPX/1/1/gpx.xsd" version="1.1" creator="VisuGPX - https://www.visugpx.com">
  <metadata>
    <name>balade pres d\\\'evreux</name>
    <desc><![CDATA[balade proche d\'evreux]]></desc>
  </metadata>
  <trk>
    <name><![CDATA[balade pres d\\\'evreux_1]]></name>
    <trkseg>
      <trkpt lat="49.01604" lon="1.0905">
        <ele>145</ele>
        <time>2014-09-27T12:56:39.000Z</time>
      </trkpt>
      <trkpt lat="49.01613" lon="1.09012">
        <ele>163</ele>
        <time>2014-09-27T12:57:19.000Z</time>
      </trkpt>
      <trkpt lat="49.01615" lon="1.08945">
        <ele>167</ele>
        <time>2014-09-27T12:57:25.000Z</time>
      </trkpt>
      <trkpt lat="49.01615" lon="1.08945">
        <ele>167</ele>
        <time>2014-09-27T12:57:27.000Z</time>
      </trkpt>
      <trkpt lat="49.01617" lon="1.08913">
        <ele>162</ele>
        <time>2014-09-27T12:57:29.000Z</time>
      </trkpt>
      <trkpt lat="49.01617" lon="1.08913">
        <ele>162</ele>
        <time>2014-09-27T12:57:31.000Z</time>
      </trkpt>
      <trkpt lat="49.01617" lon="1.08913">
        <ele>162</ele>
        <time>2014-09-27T12:57:33.000Z</time>
      </trkpt>
      <trkpt lat="49.01617" lon="1.08913">
        <ele>162</ele>
        <time>2014-09-27T12:57:35.000Z</time>
      </trkpt>
      <trkpt lat="49.01617" lon="1.08913">
        <ele>162</ele>
        <time>2014-09-27T12:57:37.000Z</time>
      </trkpt>
      <trkpt lat="49.01611" lon="1.08888">
        <ele>163</ele>
        <time>2014-09-27T12:57:42.000Z</time>
      </trkpt>
      <trkpt lat="49.01604" lon="1.08869">
        <ele>164</ele>
        <time>2014-09-27T12:57:46.000Z</time>
      </trkpt>
      <trkpt lat="49.01591" lon="1.0885">
        <ele>165</ele>
        <time>2014-09-27T12:57:50.000Z</time>
      </trkpt>
      <trkpt lat="49.01577" lon="1.08824">
        <ele>167</ele>
        <time>2014-09-27T12:57:54.000Z</time>
      </trkpt>
      <trkpt lat="49.01565" lon="1.08801">
        <ele>169</ele>
        <time>2014-09-27T12:57:58.000Z</time>
      </trkpt>
      <trkpt lat="49.01553" lon="1.08779">
        <ele>171</ele>
        <time>2014-09-27T12:58:02.000Z</time>
      </trkpt>
      <trkpt lat="49.01545" lon="1.08755">
        <ele>172</ele>
        <time>2014-09-27T12:58:06.000Z</time>
      </trkpt>
      <trkpt lat="49.0154" lon="1.08734">
        <ele>174</ele>
        <time>2014-09-27T12:58:10.000Z</time>
      </trkpt>
      <trkpt lat="49.01535" lon="1.08722">
        <ele>174</ele>
        <time>2014-09-27T12:58:12.000Z</time>
      </trkpt>
      <trkpt lat="49.01535" lon="1.08722">
        <ele>174</ele>
        <time>2014-09-27T12:58:14.000Z</time>
      </trkpt>
      <trkpt lat="49.01527" lon="1.08698">
        <ele>173</ele>
        <time>2014-09-27T12:58:16.000Z</time>
      </trkpt>
      <trkpt lat="49.01521" lon="1.08674">
        <ele>171</ele>
        <time>2014-09-27T12:58:20.000Z</time>
      </trkpt>
      <trkpt lat="49.01521" lon="1.08674">
        <ele>171</ele>
        <time>2014-09-27T12:58:22.000Z</time>
      </trkpt>
      <trkpt lat="49.01521" lon="1.08674">
        <ele>171</ele>
        <time>2014-09-27T12:58:24.000Z</time>
      </trkpt>
      <trkpt lat="49.01521" lon="1.08674">
        <ele>171</ele>
        <time>2014-09-27T12:58:26.000Z</time>
      </trkpt>
      <trkpt lat="49.01521" lon="1.08674">
        <ele>171</ele>
        <time>2014-09-27T12:58:28.000Z</time>
      </trkpt>
      <trkpt lat="49.01521" lon="1.08674">
        <ele>171</ele>
        <time>2014-09-27T12:58:30.000Z</time>
      </trkpt>
      <trkpt lat="49.01521" lon="1.08674">
        <ele>171</ele>
        <time>2014-09-27T12:58:36.000Z</time>
      </trkpt>
      <trkpt lat="49.01521" lon="1.08674">
        <ele>171</ele>
        <time>2014-09-27T12:58:38.000Z</time>
      </trkpt>
      <trkpt lat="49.015" lon="1.08553">
        <ele>164</ele>
        <time>2014-09-27T12:58:42.000Z</time>
      </trkpt>
      <trkpt lat="49.015" lon="1.08553">
        <ele>164</ele>
        <time>2014-09-27T12:58:46.000Z</time>
      </trkpt>
      <trkpt lat="49.015" lon="1.08553">
        <ele>164</ele>
        <time>2014-09-27T12:58:48.000Z</time>
      </trkpt>
      <trkpt lat="49.015" lon="1.08553">
        <ele>164</ele>
        <time>2014-09-27T12:58:50.000Z</time>
      </trkpt>
      <trkpt lat="49.015" lon="1.08553">
        <ele>164</ele>
        <time>2014-09-27T12:58:52.000Z</time>
      </trkpt>
      <trkpt lat="49.015" lon="1.08553">
        <ele>164</ele>
        <time>2014-09-27T12:58:54.000Z</time>
      </trkpt>
      <trkpt lat="49.01488" lon="1.08514">
        <ele>157</ele>
        <time>2014-09-27T12:58:58.000Z</time>
      </trkpt>
      <trkpt lat="49.01481" lon="1.08489">
        <ele>157</ele>
        <time>2014-09-27T12:59:00.000Z</time>
      </trkpt>
      <trkpt lat="49.01481" lon="1.08489">
        <ele>157</ele>
        <time>2014-09-27T12:59:02.000Z</time>
      </trkpt>
      <trkpt lat="49.01481" lon="1.08489">
        <ele>157</ele>
        <time>2014-09-27T12:59:04.000Z</time>
      </trkpt>
      <trkpt lat="49.01481" lon="1.08489">
        <ele>157</ele>
        <time>2014-09-27T12:59:06.000Z</time>
      </trkpt>
      <trkpt lat="49.01481" lon="1.08489">
        <ele>157</ele>
        <time>2014-09-27T12:59:08.000Z</time>
      </trkpt>
      <trkpt lat="49.01471" lon="1.08444">
        <ele>164</ele>
        <time>2014-09-27T12:59:12.000Z</time>
      </trkpt>
      <trkpt lat="49.01464" lon="1.08414">
        <ele>166</ele>
        <time>2014-09-27T12:59:14.000Z</time>
      </trkpt>
      <trkpt lat="49.0146" lon="1.08391">
        <ele>165</ele>
        <time>2014-09-27T12:59:16.000Z</time>
      </trkpt>
      <trkpt lat="49.01457" lon="1.08372">
        <ele>165</ele>
        <time>2014-09-27T12:59:18.000Z</time>
      </trkpt>
      <trkpt lat="49.01454" lon="1.08357">
        <ele>165</ele>
        <time>2014-09-27T12:59:20.000Z</time>
      </trkpt>
      <trkpt lat="49.01449" lon="1.08327">
        <ele>165</ele>
        <time>2014-09-27T12:59:22.000Z</time>
      </trkpt>
      <trkpt lat="49.01443" lon="1.08303">
        <ele>166</ele>
        <time>2014-09-27T12:59:26.000Z</time>
      </trkpt>
      <trkpt lat="49.01443" lon="1.08303">
        <ele>166</ele>
        <time>2014-09-27T12:59:28.000Z</time>
      </trkpt>
      <trkpt lat="49.01443" lon="1.08303">
        <ele>166</ele>
        <time>2014-09-27T12:59:30.000Z</time>
      </trkpt>
      <trkpt lat="49.01443" lon="1.08303">
        <ele>166</ele>
        <time>2014-09-27T12:59:32.000Z</time>
      </trkpt>
      <trkpt lat="49.01443" lon="1.08303">
        <ele>166</ele>
        <time>2014-09-27T12:59:34.000Z</time>
      </trkpt>
      <trkpt lat="49.01443" lon="1.08303">
        <ele>166</ele>
        <time>2014-09-27T12:59:36.000Z</time>
      </trkpt>
      <trkpt lat="49.01443" lon="1.08303">
        <ele>166</ele>
        <time>2014-09-27T12:59:38.000Z</time>
      </trkpt>
      <trkpt lat="49.01443" lon="1.08303">
        <ele>166</ele>
        <time>2014-09-27T12:59:40.000Z</time>
      </trkpt>
      <trkpt lat="49.01443" lon="1.08303">
        <ele>166</ele>
        <time>2014-09-27T12:59:42.000Z</time>
      </trkpt>
      <trkpt lat="49.01443" lon="1.08303">
        <ele>166</ele>
        <time>2014-09-27T12:59:44.000Z</time>
      </trkpt>
      <trkpt lat="49.01443" lon="1.08303">
        <ele>166</ele>
        <time>2014-09-27T12:59:46.000Z</time>
      </trkpt>
      <trkpt lat="49.01443" lon="1.08303">
        <ele>166</ele>
        <time>2014-09-27T12:59:48.000Z</time>
      </trkpt>
      <trkpt lat="49.01443" lon="1.08303">
        <ele>166</ele>
        <time>2014-09-27T12:59:50.000Z</time>
      </trkpt>
      <trkpt lat="49.01443" lon="1.08303">
        <ele>166</ele>
        <time>2014-09-27T12:59:52.000Z</time>
      </trkpt>
      <trkpt lat="49.01443" lon="1.08303">
        <ele>166</ele>
        <time>2014-09-27T12:59:54.000Z</time>
      </trkpt>
      <trkpt lat="49.01443" lon="1.08303">
        <ele>166</ele>
        <time>2014-09-27T12:59:56.000Z</time>
      </trkpt>
      <trkpt lat="49.01443" lon="1.08303">
        <ele>166</ele>
        <time>2014-09-27T12:59:58.000Z</time>
      </trkpt>
      <trkpt lat="49.01443" lon="1.08303">
        <ele>166</ele>
        <time>2014-09-27T13:00:00.000Z</time>
      </trkpt>
      <trkpt lat="49.014" lon="1.08123">
        <ele>169</ele>
        <time>2014-09-27T13:00:04.000Z</time>
      </trkpt>
      <trkpt lat="49.01395" lon="1.081">
        <ele>168</ele>
        <time>2014-09-27T13:00:08.000Z</time>
      </trkpt>
      <trkpt lat="49.01391" lon="1.08078">
        <ele>167</ele>
        <time>2014-09-27T13:00:12.000Z</time>
      </trkpt>
      <trkpt lat="49.01391" lon="1.08078">
        <ele>167</ele>
        <time>2014-09-27T13:00:16.000Z</time>
      </trkpt>
      <trkpt lat="49.01391" lon="1.08078">
        <ele>167</ele>
        <time>2014-09-27T13:00:25.000Z</time>
      </trkpt>
      <trkpt lat="49.01365" lon="1.0801">
        <ele>163</ele>
        <time>2014-09-27T13:00:28.000Z</time>
      </trkpt>
      <trkpt lat="49.01356" lon="1.07985">
        <ele>156</ele>
        <time>2014-09-27T13:00:32.000Z</time>
      </trkpt>
      <trkpt lat="49.01354" lon="1.0797">
        <ele>153</ele>
        <time>2014-09-27T13:00:34.000Z</time>
      </trkpt>
      <trkpt lat="49.01351" lon="1.07943">
        <ele>156</ele>
        <time>2014-09-27T13:00:38.000Z</time>
      </trkpt>
      <trkpt lat="49.0135" lon="1.07917">
        <ele>160</ele>
        <time>2014-09-27T13:00:42.000Z</time>
      </trkpt>
      <trkpt lat="49.01348" lon="1.07891">
        <ele>162</ele>
        <time>2014-09-27T13:00:46.000Z</time>
      </trkpt>
      <trkpt lat="49.01346" lon="1.07877">
        <ele>163</ele>
        <time>2014-09-27T13:00:48.000Z</time>
      </trkpt>
      <trkpt lat="49.01345" lon="1.07859">
        <ele>166</ele>
        <time>2014-09-27T13:00:50.000Z</time>
      </trkpt>
      <trkpt lat="49.01344" lon="1.07842">
        <ele>167</ele>
        <time>2014-09-27T13:00:52.000Z</time>
      </trkpt>
      <trkpt lat="49.0134" lon="1.0781">
        <ele>166</ele>
        <time>2014-09-27T13:00:56.000Z</time>
      </trkpt>
      <trkpt lat="49.01339" lon="1.07792">
        <ele>167</ele>
        <time>2014-09-27T13:01:00.000Z</time>
      </trkpt>
      <trkpt lat="49.01336" lon="1.07773">
        <ele>168</ele>
        <time>2014-09-27T13:01:02.000Z</time>
      </trkpt>
      <trkpt lat="49.01333" lon="1.07754">
        <ele>170</ele>
        <time>2014-09-27T13:01:04.000Z</time>
      </trkpt>
      <trkpt lat="49.01329" lon="1.07735">
        <ele>170</ele>
        <time>2014-09-27T13:01:06.000Z</time>
      </trkpt>
      <trkpt lat="49.01326" lon="1.07718">
        <ele>169</ele>
        <time>2014-09-27T13:01:08.000Z</time>
      </trkpt>
      <trkpt lat="49.0132" lon="1.07682">
        <ele>170</ele>
        <time>2014-09-27T13:01:10.000Z</time>
      </trkpt>
      <trkpt lat="49.0132" lon="1.07682">
        <ele>170</ele>
        <time>2014-09-27T13:01:12.000Z</time>
      </trkpt>
      <trkpt lat="49.01318" lon="1.07645">
        <ele>171</ele>
        <time>2014-09-27T13:01:14.000Z</time>
      </trkpt>
      <trkpt lat="49.01316" lon="1.07624">
        <ele>172</ele>
        <time>2014-09-27T13:01:16.000Z</time>
      </trkpt>
      <trkpt lat="49.01307" lon="1.07588">
        <ele>173</ele>
        <time>2014-09-27T13:01:20.000Z</time>
      </trkpt>
      <trkpt lat="49.01297" lon="1.07557">
        <ele>176</ele>
        <time>2014-09-27T13:01:24.000Z</time>
      </trkpt>
      <trkpt lat="49.01289" lon="1.07538">
        <ele>180</ele>
        <time>2014-09-27T13:01:27.000Z</time>
      </trkpt>
      <trkpt lat="49.01289" lon="1.07538">
        <ele>180</ele>
        <time>2014-09-27T13:01:29.000Z</time>
      </trkpt>
      <trkpt lat="49.01279" lon="1.07509">
        <ele>180</ele>
        <time>2014-09-27T13:01:31.000Z</time>
      </trkpt>
      <trkpt lat="49.01279" lon="1.07509">
        <ele>180</ele>
        <time>2014-09-27T13:01:33.000Z</time>
      </trkpt>
      <trkpt lat="49.01272" lon="1.07478">
        <ele>178</ele>
        <time>2014-09-27T13:01:35.000Z</time>
      </trkpt>
      <trkpt lat="49.01264" lon="1.07437">
        <ele>168</ele>
        <time>2014-09-27T13:01:39.000Z</time>
      </trkpt>
      <trkpt lat="49.0126" lon="1.07416">
        <ele>164</ele>
        <time>2014-09-27T13:01:41.000Z</time>
      </trkpt>
      <trkpt lat="49.01255" lon="1.07396">
        <ele>159</ele>
        <time>2014-09-27T13:01:43.000Z</time>
      </trkpt>
      <trkpt lat="49.01251" lon="1.07376">
        <ele>156</ele>
        <time>2014-09-27T13:01:45.000Z</time>
      </trkpt>
      <trkpt lat="49.01248" lon="1.07357">
        <ele>154</ele>
        <time>2014-09-27T13:01:47.000Z</time>
      </trkpt>
      <trkpt lat="49.01244" lon="1.07337">
        <ele>151</ele>
        <time>2014-09-27T13:01:49.000Z</time>
      </trkpt>
      <trkpt lat="49.01241" lon="1.07319">
        <ele>150</ele>
        <time>2014-09-27T13:01:51.000Z</time>
      </trkpt>
      <trkpt lat="49.01239" lon="1.07299">
        <ele>150</ele>
        <time>2014-09-27T13:01:53.000Z</time>
      </trkpt>
      <trkpt lat="49.01239" lon="1.07299">
        <ele>150</ele>
        <time>2014-09-27T13:01:55.000Z</time>
      </trkpt>
      <trkpt lat="49.01233" lon="1.07264">
        <ele>149</ele>
        <time>2014-09-27T13:01:57.000Z</time>
      </trkpt>
      <trkpt lat="49.01225" lon="1.07231">
        <ele>149</ele>
        <time>2014-09-27T13:02:01.000Z</time>
      </trkpt>
      <trkpt lat="49.01225" lon="1.07231">
        <ele>149</ele>
        <time>2014-09-27T13:02:03.000Z</time>
      </trkpt>
      <trkpt lat="49.01225" lon="1.07231">
        <ele>149</ele>
        <time>2014-09-27T13:02:05.000Z</time>
      </trkpt>
      <trkpt lat="49.01225" lon="1.07231">
        <ele>149</ele>
        <time>2014-09-27T13:02:11.000Z</time>
      </trkpt>
      <trkpt lat="49.01225" lon="1.07231">
        <ele>149</ele>
        <time>2014-09-27T13:02:13.000Z</time>
      </trkpt>
      <trkpt lat="49.01225" lon="1.07231">
        <ele>149</ele>
        <time>2014-09-27T13:02:15.000Z</time>
      </trkpt>
      <trkpt lat="49.01208" lon="1.07101">
        <ele>151</ele>
        <time>2014-09-27T13:02:19.000Z</time>
      </trkpt>
      <trkpt lat="49.01207" lon="1.07084">
        <ele>153</ele>
        <time>2014-09-27T13:02:21.000Z</time>
      </trkpt>
      <trkpt lat="49.01206" lon="1.07068">
        <ele>154</ele>
        <time>2014-09-27T13:02:23.000Z</time>
      </trkpt>
      <trkpt lat="49.01206" lon="1.07068">
        <ele>154</ele>
        <time>2014-09-27T13:02:25.000Z</time>
      </trkpt>
      <trkpt lat="49.01206" lon="1.07068">
        <ele>154</ele>
        <time>2014-09-27T13:02:27.000Z</time>
      </trkpt>
      <trkpt lat="49.01206" lon="1.07068">
        <ele>154</ele>
        <time>2014-09-27T13:02:29.000Z</time>
      </trkpt>
      <trkpt lat="49.01202" lon="1.07007">
        <ele>156</ele>
        <time>2014-09-27T13:02:31.000Z</time>
      </trkpt>
      <trkpt lat="49.01201" lon="1.06989">
        <ele>156</ele>
        <time>2014-09-27T13:02:33.000Z</time>
      </trkpt>
      <trkpt lat="49.012" lon="1.06973">
        <ele>158</ele>
        <time>2014-09-27T13:02:35.000Z</time>
      </trkpt>
      <trkpt lat="49.01199" lon="1.06958">
        <ele>159</ele>
        <time>2014-09-27T13:02:37.000Z</time>
      </trkpt>
      <trkpt lat="49.01199" lon="1.06958">
        <ele>159</ele>
        <time>2014-09-27T13:02:39.000Z</time>
      </trkpt>
      <trkpt lat="49.01199" lon="1.06958">
        <ele>159</ele>
        <time>2014-09-27T13:02:41.000Z</time>
      </trkpt>
      <trkpt lat="49.01199" lon="1.06958">
        <ele>159</ele>
        <time>2014-09-27T13:02:43.000Z</time>
      </trkpt>
      <trkpt lat="49.01199" lon="1.06958">
        <ele>159</ele>
        <time>2014-09-27T13:02:45.000Z</time>
      </trkpt>
      <trkpt lat="49.01199" lon="1.06958">
        <ele>159</ele>
        <time>2014-09-27T13:02:47.000Z</time>
      </trkpt>
      <trkpt lat="49.01199" lon="1.06958">
        <ele>159</ele>
        <time>2014-09-27T13:02:49.000Z</time>
      </trkpt>
      <trkpt lat="49.01199" lon="1.06958">
        <ele>159</ele>
        <time>2014-09-27T13:02:51.000Z</time>
      </trkpt>
      <trkpt lat="49.01196" lon="1.06845">
        <ele>163</ele>
        <time>2014-09-27T13:03:14.000Z</time>
      </trkpt>
      <trkpt lat="49.01189" lon="1.06791">
        <ele>164</ele>
        <time>2014-09-27T13:03:19.000Z</time>
      </trkpt>
      <trkpt lat="49.01183" lon="1.06771">
        <ele>165</ele>
        <time>2014-09-27T13:03:21.000Z</time>
      </trkpt>
      <trkpt lat="49.01176" lon="1.06749">
        <ele>165</ele>
        <time>2014-09-27T13:03:23.000Z</time>
      </trkpt>
      <trkpt lat="49.01171" lon="1.06731">
        <ele>166</ele>
        <time>2014-09-27T13:03:25.000Z</time>
      </trkpt>
      <trkpt lat="49.01166" lon="1.06715">
        <ele>167</ele>
        <time>2014-09-27T13:03:27.000Z</time>
      </trkpt>
      <trkpt lat="49.01162" lon="1.067">
        <ele>169</ele>
        <time>2014-09-27T13:03:29.000Z</time>
      </trkpt>
      <trkpt lat="49.01162" lon="1.067">
        <ele>169</ele>
        <time>2014-09-27T13:03:31.000Z</time>
      </trkpt>
      <trkpt lat="49.01162" lon="1.067">
        <ele>169</ele>
        <time>2014-09-27T13:03:33.000Z</time>
      </trkpt>
      <trkpt lat="49.01162" lon="1.067">
        <ele>169</ele>
        <time>2014-09-27T13:03:35.000Z</time>
      </trkpt>
      <trkpt lat="49.01162" lon="1.067">
        <ele>169</ele>
        <time>2014-09-27T13:03:37.000Z</time>
      </trkpt>
      <trkpt lat="49.01162" lon="1.067">
        <ele>169</ele>
        <time>2014-09-27T13:03:39.000Z</time>
      </trkpt>
      <trkpt lat="49.01162" lon="1.067">
        <ele>169</ele>
        <time>2014-09-27T13:03:41.000Z</time>
      </trkpt>
      <trkpt lat="49.01163" lon="1.06577">
        <ele>157</ele>
        <time>2014-09-27T13:03:45.000Z</time>
      </trkpt>
      <trkpt lat="49.01162" lon="1.06561">
        <ele>159</ele>
        <time>2014-09-27T13:03:47.000Z</time>
      </trkpt>
      <trkpt lat="49.01164" lon="1.06528">
        <ele>162</ele>
        <time>2014-09-27T13:03:51.000Z</time>
      </trkpt>
      <trkpt lat="49.01165" lon="1.0651">
        <ele>164</ele>
        <time>2014-09-27T13:03:53.000Z</time>
      </trkpt>
      <trkpt lat="49.01167" lon="1.06493">
        <ele>165</ele>
        <time>2014-09-27T13:03:55.000Z</time>
      </trkpt>
      <trkpt lat="49.01164" lon="1.06457">
        <ele>165</ele>
        <time>2014-09-27T13:03:59.000Z</time>
      </trkpt>
      <trkpt lat="49.01159" lon="1.06441">
        <ele>162</ele>
        <time>2014-09-27T13:04:01.000Z</time>
      </trkpt>
      <trkpt lat="49.01152" lon="1.06426">
        <ele>161</ele>
        <time>2014-09-27T13:04:03.000Z</time>
      </trkpt>
      <trkpt lat="49.01144" lon="1.06409">
        <ele>159</ele>
        <time>2014-09-27T13:04:05.000Z</time>
      </trkpt>
      <trkpt lat="49.01136" lon="1.06392">
        <ele>159</ele>
        <time>2014-09-27T13:04:07.000Z</time>
      </trkpt>
      <trkpt lat="49.01128" lon="1.06375">
        <ele>159</ele>
        <time>2014-09-27T13:04:09.000Z</time>
      </trkpt>
      <trkpt lat="49.0112" lon="1.06355">
        <ele>159</ele>
        <time>2014-09-27T13:04:11.000Z</time>
      </trkpt>
      <trkpt lat="49.01111" lon="1.06336">
        <ele>159</ele>
        <time>2014-09-27T13:04:13.000Z</time>
      </trkpt>
      <trkpt lat="49.01104" lon="1.06318">
        <ele>159</ele>
        <time>2014-09-27T13:04:15.000Z</time>
      </trkpt>
      <trkpt lat="49.01096" lon="1.06301">
        <ele>160</ele>
        <time>2014-09-27T13:04:17.000Z</time>
      </trkpt>
      <trkpt lat="49.0109" lon="1.06287">
        <ele>160</ele>
        <time>2014-09-27T13:04:19.000Z</time>
      </trkpt>
      <trkpt lat="49.01084" lon="1.06275">
        <ele>160</ele>
        <time>2014-09-27T13:04:21.000Z</time>
      </trkpt>
      <trkpt lat="49.01084" lon="1.06275">
        <ele>160</ele>
        <time>2014-09-27T13:04:23.000Z</time>
      </trkpt>
      <trkpt lat="49.01084" lon="1.06275">
        <ele>160</ele>
        <time>2014-09-27T13:04:25.000Z</time>
      </trkpt>
      <trkpt lat="49.01084" lon="1.06275">
        <ele>160</ele>
        <time>2014-09-27T13:04:27.000Z</time>
      </trkpt>
      <trkpt lat="49.01084" lon="1.06275">
        <ele>160</ele>
        <time>2014-09-27T13:04:29.000Z</time>
      </trkpt>
      <trkpt lat="49.01084" lon="1.06275">
        <ele>160</ele>
        <time>2014-09-27T13:04:31.000Z</time>
      </trkpt>
      <trkpt lat="49.01084" lon="1.06275">
        <ele>160</ele>
        <time>2014-09-27T13:04:33.000Z</time>
      </trkpt>
      <trkpt lat="49.01081" lon="1.0618">
        <ele>158</ele>
        <time>2014-09-27T13:04:39.000Z</time>
      </trkpt>
      <trkpt lat="49.01091" lon="1.06172">
        <ele>156</ele>
        <time>2014-09-27T13:04:41.000Z</time>
      </trkpt>
      <trkpt lat="49.01103" lon="1.06162">
        <ele>157</ele>
        <time>2014-09-27T13:04:43.000Z</time>
      </trkpt>
      <trkpt lat="49.01123" lon="1.06146">
        <ele>156</ele>
        <time>2014-09-27T13:04:47.000Z</time>
      </trkpt>
      <trkpt lat="49.01135" lon="1.06138">
        <ele>156</ele>
        <time>2014-09-27T13:04:49.000Z</time>
      </trkpt>
      <trkpt lat="49.01146" lon="1.06131">
        <ele>156</ele>
        <time>2014-09-27T13:04:51.000Z</time>
      </trkpt>
      <trkpt lat="49.01156" lon="1.06126">
        <ele>157</ele>
        <time>2014-09-27T13:04:53.000Z</time>
      </trkpt>
      <trkpt lat="49.01168" lon="1.06121">
        <ele>158</ele>
        <time>2014-09-27T13:04:55.000Z</time>
      </trkpt>
      <trkpt lat="49.01178" lon="1.06114">
        <ele>158</ele>
        <time>2014-09-27T13:04:57.000Z</time>
      </trkpt>
      <trkpt lat="49.0119" lon="1.06107">
        <ele>159</ele>
        <time>2014-09-27T13:04:59.000Z</time>
      </trkpt>
      <trkpt lat="49.01201" lon="1.06101">
        <ele>159</ele>
        <time>2014-09-27T13:05:01.000Z</time>
      </trkpt>
      <trkpt lat="49.01201" lon="1.06101">
        <ele>159</ele>
        <time>2014-09-27T13:05:03.000Z</time>
      </trkpt>
      <trkpt lat="49.01223" lon="1.06092">
        <ele>160</ele>
        <time>2014-09-27T13:05:05.000Z</time>
      </trkpt>
      <trkpt lat="49.01236" lon="1.06087">
        <ele>160</ele>
        <time>2014-09-27T13:05:07.000Z</time>
      </trkpt>
      <trkpt lat="49.0126" lon="1.06079">
        <ele>155</ele>
        <time>2014-09-27T13:05:11.000Z</time>
      </trkpt>
      <trkpt lat="49.0126" lon="1.06079">
        <ele>155</ele>
        <time>2014-09-27T13:05:13.000Z</time>
      </trkpt>
      <trkpt lat="49.0126" lon="1.06079">
        <ele>155</ele>
        <time>2014-09-27T13:05:15.000Z</time>
      </trkpt>
      <trkpt lat="49.0126" lon="1.06079">
        <ele>155</ele>
        <time>2014-09-27T13:05:17.000Z</time>
      </trkpt>
      <trkpt lat="49.01318" lon="1.06078">
        <ele>156</ele>
        <time>2014-09-27T13:05:21.000Z</time>
      </trkpt>
      <trkpt lat="49.01332" lon="1.06071">
        <ele>156</ele>
        <time>2014-09-27T13:05:23.000Z</time>
      </trkpt>
      <trkpt lat="49.01345" lon="1.06065">
        <ele>156</ele>
        <time>2014-09-27T13:05:25.000Z</time>
      </trkpt>
      <trkpt lat="49.01358" lon="1.06059">
        <ele>156</ele>
        <time>2014-09-27T13:05:27.000Z</time>
      </trkpt>
      <trkpt lat="49.01368" lon="1.06052">
        <ele>158</ele>
        <time>2014-09-27T13:05:29.000Z</time>
      </trkpt>
      <trkpt lat="49.01377" lon="1.06043">
        <ele>160</ele>
        <time>2014-09-27T13:05:31.000Z</time>
      </trkpt>
      <trkpt lat="49.01384" lon="1.06028">
        <ele>163</ele>
        <time>2014-09-27T13:05:33.000Z</time>
      </trkpt>
      <trkpt lat="49.01389" lon="1.06011">
        <ele>164</ele>
        <time>2014-09-27T13:05:35.000Z</time>
      </trkpt>
      <trkpt lat="49.01393" lon="1.05993">
        <ele>164</ele>
        <time>2014-09-27T13:05:37.000Z</time>
      </trkpt>
      <trkpt lat="49.01394" lon="1.05973">
        <ele>163</ele>
        <time>2014-09-27T13:05:39.000Z</time>
      </trkpt>
      <trkpt lat="49.01394" lon="1.0595">
        <ele>163</ele>
        <time>2014-09-27T13:05:41.000Z</time>
      </trkpt>
      <trkpt lat="49.01394" lon="1.05928">
        <ele>162</ele>
        <time>2014-09-27T13:05:43.000Z</time>
      </trkpt>
      <trkpt lat="49.01394" lon="1.05928">
        <ele>162</ele>
        <time>2014-09-27T13:05:45.000Z</time>
      </trkpt>
      <trkpt lat="49.01401" lon="1.05898">
        <ele>159</ele>
        <time>2014-09-27T13:05:47.000Z</time>
      </trkpt>
      <trkpt lat="49.01401" lon="1.05898">
        <ele>159</ele>
        <time>2014-09-27T13:05:49.000Z</time>
      </trkpt>
      <trkpt lat="49.01401" lon="1.05898">
        <ele>159</ele>
        <time>2014-09-27T13:05:51.000Z</time>
      </trkpt>
      <trkpt lat="49.01448" lon="1.05983">
        <ele>150</ele>
        <time>2014-09-27T13:05:57.000Z</time>
      </trkpt>
      <trkpt lat="49.01457" lon="1.06013">
        <ele>149</ele>
        <time>2014-09-27T13:05:59.000Z</time>
      </trkpt>
      <trkpt lat="49.01467" lon="1.06049">
        <ele>148</ele>
        <time>2014-09-27T13:06:01.000Z</time>
      </trkpt>
      <trkpt lat="49.01475" lon="1.06083">
        <ele>147</ele>
        <time>2014-09-27T13:06:03.000Z</time>
      </trkpt>
      <trkpt lat="49.01484" lon="1.06117">
        <ele>147</ele>
        <time>2014-09-27T13:06:05.000Z</time>
      </trkpt>
      <trkpt lat="49.01494" lon="1.06147">
        <ele>146</ele>
        <time>2014-09-27T13:06:07.000Z</time>
      </trkpt>
      <trkpt lat="49.01503" lon="1.06176">
        <ele>147</ele>
        <time>2014-09-27T13:06:09.000Z</time>
      </trkpt>
      <trkpt lat="49.01512" lon="1.06205">
        <ele>149</ele>
        <time>2014-09-27T13:06:11.000Z</time>
      </trkpt>
      <trkpt lat="49.01521" lon="1.06231">
        <ele>149</ele>
        <time>2014-09-27T13:06:13.000Z</time>
      </trkpt>
      <trkpt lat="49.01521" lon="1.06231">
        <ele>149</ele>
        <time>2014-09-27T13:06:18.000Z</time>
      </trkpt>
      <trkpt lat="49.01521" lon="1.06231">
        <ele>149</ele>
        <time>2014-09-27T13:06:20.000Z</time>
      </trkpt>
      <trkpt lat="49.01521" lon="1.06231">
        <ele>149</ele>
        <time>2014-09-27T13:06:24.000Z</time>
      </trkpt>
      <trkpt lat="49.01521" lon="1.06231">
        <ele>149</ele>
        <time>2014-09-27T13:06:27.000Z</time>
      </trkpt>
      <trkpt lat="49.01521" lon="1.06231">
        <ele>149</ele>
        <time>2014-09-27T13:06:29.000Z</time>
      </trkpt>
      <trkpt lat="49.01521" lon="1.06231">
        <ele>149</ele>
        <time>2014-09-27T13:06:31.000Z</time>
      </trkpt>
      <trkpt lat="49.01521" lon="1.06231">
        <ele>149</ele>
        <time>2014-09-27T13:06:33.000Z</time>
      </trkpt>
      <trkpt lat="49.01521" lon="1.06231">
        <ele>149</ele>
        <time>2014-09-27T13:06:35.000Z</time>
      </trkpt>
      <trkpt lat="49.01575" lon="1.06215">
        <ele>154</ele>
        <time>2014-09-27T13:06:41.000Z</time>
      </trkpt>
      <trkpt lat="49.01605" lon="1.06202">
        <ele>153</ele>
        <time>2014-09-27T13:06:43.000Z</time>
      </trkpt>
      <trkpt lat="49.01605" lon="1.06202">
        <ele>153</ele>
        <time>2014-09-27T13:06:45.000Z</time>
      </trkpt>
      <trkpt lat="49.01605" lon="1.06202">
        <ele>153</ele>
        <time>2014-09-27T13:06:47.000Z</time>
      </trkpt>
      <trkpt lat="49.01605" lon="1.06202">
        <ele>153</ele>
        <time>2014-09-27T13:06:49.000Z</time>
      </trkpt>
      <trkpt lat="49.01605" lon="1.06202">
        <ele>153</ele>
        <time>2014-09-27T13:06:53.000Z</time>
      </trkpt>
      <trkpt lat="49.01635" lon="1.06176">
        <ele>155</ele>
        <time>2014-09-27T13:06:55.000Z</time>
      </trkpt>
      <trkpt lat="49.01635" lon="1.06176">
        <ele>155</ele>
        <time>2014-09-27T13:06:57.000Z</time>
      </trkpt>
      <trkpt lat="49.01635" lon="1.06176">
        <ele>155</ele>
        <time>2014-09-27T13:06:59.000Z</time>
      </trkpt>
      <trkpt lat="49.01635" lon="1.06176">
        <ele>155</ele>
        <time>2014-09-27T13:07:01.000Z</time>
      </trkpt>
      <trkpt lat="49.01635" lon="1.06176">
        <ele>155</ele>
        <time>2014-09-27T13:07:03.000Z</time>
      </trkpt>
      <trkpt lat="49.01635" lon="1.06176">
        <ele>155</ele>
        <time>2014-09-27T13:07:05.000Z</time>
      </trkpt>
      <trkpt lat="49.01635" lon="1.06176">
        <ele>155</ele>
        <time>2014-09-27T13:07:07.000Z</time>
      </trkpt>
      <trkpt lat="49.01635" lon="1.06176">
        <ele>155</ele>
        <time>2014-09-27T13:07:09.000Z</time>
      </trkpt>
      <trkpt lat="49.01635" lon="1.06176">
        <ele>155</ele>
        <time>2014-09-27T13:07:11.000Z</time>
      </trkpt>
      <trkpt lat="49.01635" lon="1.06176">
        <ele>155</ele>
        <time>2014-09-27T13:07:13.000Z</time>
      </trkpt>
      <trkpt lat="49.01673" lon="1.06151">
        <ele>158</ele>
        <time>2014-09-27T13:07:17.000Z</time>
      </trkpt>
      <trkpt lat="49.01707" lon="1.06098">
        <ele>159</ele>
        <time>2014-09-27T13:07:48.000Z</time>
      </trkpt>
      <trkpt lat="49.01706" lon="1.06071">
        <ele>163</ele>
        <time>2014-09-27T13:07:53.000Z</time>
      </trkpt>
      <trkpt lat="49.01705" lon="1.06045">
        <ele>166</ele>
        <time>2014-09-27T13:07:57.000Z</time>
      </trkpt>
      <trkpt lat="49.01705" lon="1.06045">
        <ele>166</ele>
        <time>2014-09-27T13:08:01.000Z</time>
      </trkpt>
      <trkpt lat="49.01705" lon="1.06045">
        <ele>166</ele>
        <time>2014-09-27T13:08:03.000Z</time>
      </trkpt>
      <trkpt lat="49.01705" lon="1.06045">
        <ele>166</ele>
        <time>2014-09-27T13:08:05.000Z</time>
      </trkpt>
      <trkpt lat="49.01698" lon="1.05973">
        <ele>164</ele>
        <time>2014-09-27T13:08:09.000Z</time>
      </trkpt>
      <trkpt lat="49.01695" lon="1.05947">
        <ele>166</ele>
        <time>2014-09-27T13:08:13.000Z</time>
      </trkpt>
      <trkpt lat="49.01692" lon="1.0592">
        <ele>172</ele>
        <time>2014-09-27T13:08:17.000Z</time>
      </trkpt>
      <trkpt lat="49.01688" lon="1.05895">
        <ele>172</ele>
        <time>2014-09-27T13:08:21.000Z</time>
      </trkpt>
      <trkpt lat="49.01688" lon="1.05895">
        <ele>172</ele>
        <time>2014-09-27T13:08:23.000Z</time>
      </trkpt>
      <trkpt lat="49.01688" lon="1.05895">
        <ele>172</ele>
        <time>2014-09-27T13:08:25.000Z</time>
      </trkpt>
      <trkpt lat="49.01688" lon="1.05895">
        <ele>172</ele>
        <time>2014-09-27T13:08:27.000Z</time>
      </trkpt>
      <trkpt lat="49.01688" lon="1.05895">
        <ele>172</ele>
        <time>2014-09-27T13:08:29.000Z</time>
      </trkpt>
      <trkpt lat="49.01688" lon="1.05895">
        <ele>172</ele>
        <time>2014-09-27T13:08:31.000Z</time>
      </trkpt>
      <trkpt lat="49.01688" lon="1.05895">
        <ele>172</ele>
        <time>2014-09-27T13:08:33.000Z</time>
      </trkpt>
      <trkpt lat="49.01688" lon="1.05895">
        <ele>172</ele>
        <time>2014-09-27T13:08:35.000Z</time>
      </trkpt>
      <trkpt lat="49.01688" lon="1.05895">
        <ele>172</ele>
        <time>2014-09-27T13:08:37.000Z</time>
      </trkpt>
      <trkpt lat="49.01688" lon="1.05895">
        <ele>172</ele>
        <time>2014-09-27T13:08:39.000Z</time>
      </trkpt>
      <trkpt lat="49.01688" lon="1.05895">
        <ele>172</ele>
        <time>2014-09-27T13:08:41.000Z</time>
      </trkpt>
      <trkpt lat="49.01687" lon="1.05759">
        <ele>171</ele>
        <time>2014-09-27T13:08:47.000Z</time>
      </trkpt>
      <trkpt lat="49.0169" lon="1.05745">
        <ele>168</ele>
        <time>2014-09-27T13:08:49.000Z</time>
      </trkpt>
      <trkpt lat="49.01694" lon="1.05721">
        <ele>166</ele>
        <time>2014-09-27T13:08:53.000Z</time>
      </trkpt>
      <trkpt lat="49.01694" lon="1.05721">
        <ele>166</ele>
        <time>2014-09-27T13:08:55.000Z</time>
      </trkpt>
      <trkpt lat="49.01706" lon="1.05671">
        <ele>168</ele>
        <time>2014-09-27T13:09:02.000Z</time>
      </trkpt>
      <trkpt lat="49.0171" lon="1.05657">
        <ele>169</ele>
        <time>2014-09-27T13:09:04.000Z</time>
      </trkpt>
      <trkpt lat="49.01714" lon="1.05645">
        <ele>169</ele>
        <time>2014-09-27T13:09:06.000Z</time>
      </trkpt>
      <trkpt lat="49.01723" lon="1.05622">
        <ele>171</ele>
        <time>2014-09-27T13:09:10.000Z</time>
      </trkpt>
      <trkpt lat="49.01738" lon="1.05601">
        <ele>169</ele>
        <time>2014-09-27T13:09:14.000Z</time>
      </trkpt>
      <trkpt lat="49.01753" lon="1.05581">
        <ele>168</ele>
        <time>2014-09-27T13:09:18.000Z</time>
      </trkpt>
      <trkpt lat="49.01761" lon="1.0557">
        <ele>169</ele>
        <time>2014-09-27T13:09:22.000Z</time>
      </trkpt>
      <trkpt lat="49.01761" lon="1.0557">
        <ele>169</ele>
        <time>2014-09-27T13:09:25.000Z</time>
      </trkpt>
      <trkpt lat="49.01776" lon="1.05546">
        <ele>168</ele>
        <time>2014-09-27T13:09:29.000Z</time>
      </trkpt>
      <trkpt lat="49.01787" lon="1.05528">
        <ele>166</ele>
        <time>2014-09-27T13:09:31.000Z</time>
      </trkpt>
      <trkpt lat="49.01796" lon="1.05513">
        <ele>165</ele>
        <time>2014-09-27T13:09:33.000Z</time>
      </trkpt>
      <trkpt lat="49.01804" lon="1.05498">
        <ele>166</ele>
        <time>2014-09-27T13:09:35.000Z</time>
      </trkpt>
      <trkpt lat="49.01811" lon="1.05484">
        <ele>166</ele>
        <time>2014-09-27T13:09:37.000Z</time>
      </trkpt>
      <trkpt lat="49.01824" lon="1.05455">
        <ele>168</ele>
        <time>2014-09-27T13:09:39.000Z</time>
      </trkpt>
      <trkpt lat="49.01836" lon="1.05426">
        <ele>169</ele>
        <time>2014-09-27T13:09:43.000Z</time>
      </trkpt>
      <trkpt lat="49.01846" lon="1.05396">
        <ele>171</ele>
        <time>2014-09-27T13:09:47.000Z</time>
      </trkpt>
      <trkpt lat="49.01858" lon="1.05365">
        <ele>169</ele>
        <time>2014-09-27T13:09:51.000Z</time>
      </trkpt>
      <trkpt lat="49.01858" lon="1.05365">
        <ele>169</ele>
        <time>2014-09-27T13:09:53.000Z</time>
      </trkpt>
      <trkpt lat="49.01871" lon="1.0534">
        <ele>167</ele>
        <time>2014-09-27T13:09:55.000Z</time>
      </trkpt>
      <trkpt lat="49.01871" lon="1.0534">
        <ele>167</ele>
        <time>2014-09-27T13:09:57.000Z</time>
      </trkpt>
      <trkpt lat="49.01871" lon="1.0534">
        <ele>167</ele>
        <time>2014-09-27T13:09:59.000Z</time>
      </trkpt>
      <trkpt lat="49.01871" lon="1.0534">
        <ele>167</ele>
        <time>2014-09-27T13:10:01.000Z</time>
      </trkpt>
      <trkpt lat="49.01871" lon="1.0534">
        <ele>167</ele>
        <time>2014-09-27T13:10:03.000Z</time>
      </trkpt>
      <trkpt lat="49.01871" lon="1.0534">
        <ele>167</ele>
        <time>2014-09-27T13:10:05.000Z</time>
      </trkpt>
      <trkpt lat="49.01871" lon="1.0534">
        <ele>167</ele>
        <time>2014-09-27T13:10:07.000Z</time>
      </trkpt>
      <trkpt lat="49.01871" lon="1.0534">
        <ele>167</ele>
        <time>2014-09-27T13:10:09.000Z</time>
      </trkpt>
      <trkpt lat="49.01871" lon="1.0534">
        <ele>167</ele>
        <time>2014-09-27T13:10:11.000Z</time>
      </trkpt>
      <trkpt lat="49.01871" lon="1.0534">
        <ele>167</ele>
        <time>2014-09-27T13:10:13.000Z</time>
      </trkpt>
      <trkpt lat="49.01871" lon="1.0534">
        <ele>167</ele>
        <time>2014-09-27T13:10:19.000Z</time>
      </trkpt>
      <trkpt lat="49.01972" lon="1.05238">
        <ele>163</ele>
        <time>2014-09-27T13:10:25.000Z</time>
      </trkpt>
      <trkpt lat="49.01987" lon="1.05232">
        <ele>166</ele>
        <time>2014-09-27T13:10:29.000Z</time>
      </trkpt>
      <trkpt lat="49.02002" lon="1.05231">
        <ele>169</ele>
        <time>2014-09-27T13:10:33.000Z</time>
      </trkpt>
      <trkpt lat="49.02002" lon="1.05231">
        <ele>169</ele>
        <time>2014-09-27T13:10:35.000Z</time>
      </trkpt>
      <trkpt lat="49.02002" lon="1.05231">
        <ele>169</ele>
        <time>2014-09-27T13:10:37.000Z</time>
      </trkpt>
      <trkpt lat="49.02002" lon="1.05231">
        <ele>169</ele>
        <time>2014-09-27T13:10:39.000Z</time>
      </trkpt>
      <trkpt lat="49.02024" lon="1.0522">
        <ele>174</ele>
        <time>2014-09-27T13:10:42.000Z</time>
      </trkpt>
      <trkpt lat="49.02033" lon="1.05201">
        <ele>173</ele>
        <time>2014-09-27T13:10:45.000Z</time>
      </trkpt>
      <trkpt lat="49.02039" lon="1.05179">
        <ele>175</ele>
        <time>2014-09-27T13:10:49.000Z</time>
      </trkpt>
      <trkpt lat="49.02039" lon="1.05179">
        <ele>175</ele>
        <time>2014-09-27T13:10:53.000Z</time>
      </trkpt>
      <trkpt lat="49.02039" lon="1.05179">
        <ele>175</ele>
        <time>2014-09-27T13:10:54.000Z</time>
      </trkpt>
      <trkpt lat="49.02039" lon="1.05179">
        <ele>175</ele>
        <time>2014-09-27T13:10:57.000Z</time>
      </trkpt>
      <trkpt lat="49.02039" lon="1.05179">
        <ele>175</ele>
        <time>2014-09-27T13:10:58.000Z</time>
      </trkpt>
      <trkpt lat="49.02176" lon="1.04988">
        <ele>169</ele>
        <time>2014-09-27T13:11:30.000Z</time>
      </trkpt>
      <trkpt lat="49.02176" lon="1.04988">
        <ele>169</ele>
        <time>2014-09-27T13:11:34.000Z</time>
      </trkpt>
      <trkpt lat="49.02209" lon="1.04912">
        <ele>182</ele>
        <time>2014-09-27T13:11:53.000Z</time>
      </trkpt>
      <trkpt lat="49.02209" lon="1.04912">
        <ele>182</ele>
        <time>2014-09-27T13:11:55.000Z</time>
      </trkpt>
      <trkpt lat="49.02209" lon="1.04912">
        <ele>182</ele>
        <time>2014-09-27T13:11:57.000Z</time>
      </trkpt>
      <trkpt lat="49.02209" lon="1.04912">
        <ele>182</ele>
        <time>2014-09-27T13:11:59.000Z</time>
      </trkpt>
      <trkpt lat="49.02209" lon="1.04912">
        <ele>182</ele>
        <time>2014-09-27T13:12:03.000Z</time>
      </trkpt>
      <trkpt lat="49.02209" lon="1.04912">
        <ele>182</ele>
        <time>2014-09-27T13:12:05.000Z</time>
      </trkpt>
      <trkpt lat="49.02209" lon="1.04912">
        <ele>182</ele>
        <time>2014-09-27T13:12:07.000Z</time>
      </trkpt>
      <trkpt lat="49.02246" lon="1.04832">
        <ele>185</ele>
        <time>2014-09-27T13:12:09.000Z</time>
      </trkpt>
      <trkpt lat="49.02267" lon="1.04787">
        <ele>186</ele>
        <time>2014-09-27T13:12:11.000Z</time>
      </trkpt>
      <trkpt lat="49.02281" lon="1.04759">
        <ele>186</ele>
        <time>2014-09-27T13:12:13.000Z</time>
      </trkpt>
      <trkpt lat="49.02291" lon="1.0474">
        <ele>186</ele>
        <time>2014-09-27T13:12:15.000Z</time>
      </trkpt>
      <trkpt lat="49.02298" lon="1.04724">
        <ele>186</ele>
        <time>2014-09-27T13:12:17.000Z</time>
      </trkpt>
      <trkpt lat="49.02311" lon="1.04698">
        <ele>186</ele>
        <time>2014-09-27T13:12:19.000Z</time>
      </trkpt>
      <trkpt lat="49.02311" lon="1.04698">
        <ele>186</ele>
        <time>2014-09-27T13:12:21.000Z</time>
      </trkpt>
      <trkpt lat="49.02323" lon="1.04673">
        <ele>186</ele>
        <time>2014-09-27T13:12:23.000Z</time>
      </trkpt>
      <trkpt lat="49.02323" lon="1.04673">
        <ele>186</ele>
        <time>2014-09-27T13:12:25.000Z</time>
      </trkpt>
      <trkpt lat="49.02337" lon="1.04658">
        <ele>186</ele>
        <time>2014-09-27T13:12:27.000Z</time>
      </trkpt>
      <trkpt lat="49.02337" lon="1.04658">
        <ele>186</ele>
        <time>2014-09-27T13:12:29.000Z</time>
      </trkpt>
      <trkpt lat="49.02356" lon="1.0465">
        <ele>185</ele>
        <time>2014-09-27T13:12:31.000Z</time>
      </trkpt>
      <trkpt lat="49.02375" lon="1.04642">
        <ele>186</ele>
        <time>2014-09-27T13:12:35.000Z</time>
      </trkpt>
      <trkpt lat="49.02386" lon="1.04637">
        <ele>185</ele>
        <time>2014-09-27T13:12:37.000Z</time>
      </trkpt>
      <trkpt lat="49.02398" lon="1.04633">
        <ele>185</ele>
        <time>2014-09-27T13:12:39.000Z</time>
      </trkpt>
      <trkpt lat="49.0241" lon="1.04628">
        <ele>185</ele>
        <time>2014-09-27T13:12:41.000Z</time>
      </trkpt>
      <trkpt lat="49.02422" lon="1.04622">
        <ele>185</ele>
        <time>2014-09-27T13:12:43.000Z</time>
      </trkpt>
      <trkpt lat="49.02433" lon="1.04616">
        <ele>185</ele>
        <time>2014-09-27T13:12:45.000Z</time>
      </trkpt>
      <trkpt lat="49.02443" lon="1.0461">
        <ele>186</ele>
        <time>2014-09-27T13:12:47.000Z</time>
      </trkpt>
      <trkpt lat="49.02454" lon="1.04605">
        <ele>185</ele>
        <time>2014-09-27T13:12:49.000Z</time>
      </trkpt>
      <trkpt lat="49.02465" lon="1.04598">
        <ele>185</ele>
        <time>2014-09-27T13:12:51.000Z</time>
      </trkpt>
      <trkpt lat="49.02482" lon="1.0458">
        <ele>187</ele>
        <time>2014-09-27T13:12:55.000Z</time>
      </trkpt>
      <trkpt lat="49.02482" lon="1.0458">
        <ele>187</ele>
        <time>2014-09-27T13:12:57.000Z</time>
      </trkpt>
      <trkpt lat="49.02491" lon="1.04553">
        <ele>186</ele>
        <time>2014-09-27T13:12:59.000Z</time>
      </trkpt>
      <trkpt lat="49.02491" lon="1.04553">
        <ele>186</ele>
        <time>2014-09-27T13:13:01.000Z</time>
      </trkpt>
      <trkpt lat="49.02491" lon="1.04553">
        <ele>186</ele>
        <time>2014-09-27T13:13:03.000Z</time>
      </trkpt>
      <trkpt lat="49.02491" lon="1.04553">
        <ele>186</ele>
        <time>2014-09-27T13:13:05.000Z</time>
      </trkpt>
      <trkpt lat="49.02491" lon="1.04553">
        <ele>186</ele>
        <time>2014-09-27T13:13:07.000Z</time>
      </trkpt>
      <trkpt lat="49.02491" lon="1.04553">
        <ele>186</ele>
        <time>2014-09-27T13:13:09.000Z</time>
      </trkpt>
      <trkpt lat="49.02491" lon="1.04553">
        <ele>186</ele>
        <time>2014-09-27T13:13:11.000Z</time>
      </trkpt>
      <trkpt lat="49.02491" lon="1.04553">
        <ele>186</ele>
        <time>2014-09-27T13:13:14.000Z</time>
      </trkpt>
      <trkpt lat="49.02539" lon="1.04478">
        <ele>187</ele>
        <time>2014-09-27T13:13:30.000Z</time>
      </trkpt>
      <trkpt lat="49.02559" lon="1.04465">
        <ele>184</ele>
        <time>2014-09-27T13:13:34.000Z</time>
      </trkpt>
      <trkpt lat="49.0258" lon="1.04449">
        <ele>186</ele>
        <time>2014-09-27T13:13:38.000Z</time>
      </trkpt>
      <trkpt lat="49.02594" lon="1.04417">
        <ele>187</ele>
        <time>2014-09-27T13:13:42.000Z</time>
      </trkpt>
      <trkpt lat="49.02594" lon="1.04417">
        <ele>187</ele>
        <time>2014-09-27T13:13:44.000Z</time>
      </trkpt>
      <trkpt lat="49.02594" lon="1.04417">
        <ele>187</ele>
        <time>2014-09-27T13:13:46.000Z</time>
      </trkpt>
      <trkpt lat="49.02594" lon="1.04417">
        <ele>187</ele>
        <time>2014-09-27T13:13:48.000Z</time>
      </trkpt>
      <trkpt lat="49.02594" lon="1.04417">
        <ele>187</ele>
        <time>2014-09-27T13:13:50.000Z</time>
      </trkpt>
      <trkpt lat="49.02594" lon="1.04417">
        <ele>187</ele>
        <time>2014-09-27T13:13:52.000Z</time>
      </trkpt>
      <trkpt lat="49.02594" lon="1.04417">
        <ele>187</ele>
        <time>2014-09-27T13:13:54.000Z</time>
      </trkpt>
      <trkpt lat="49.02594" lon="1.04417">
        <ele>187</ele>
        <time>2014-09-27T13:13:56.000Z</time>
      </trkpt>
      <trkpt lat="49.02594" lon="1.04417">
        <ele>187</ele>
        <time>2014-09-27T13:13:58.000Z</time>
      </trkpt>
      <trkpt lat="49.02647" lon="1.04277">
        <ele>187</ele>
        <time>2014-09-27T13:14:04.000Z</time>
      </trkpt>
      <trkpt lat="49.02652" lon="1.04257">
        <ele>183</ele>
        <time>2014-09-27T13:14:09.000Z</time>
      </trkpt>
      <trkpt lat="49.02665" lon="1.04244">
        <ele>180</ele>
        <time>2014-09-27T13:14:13.000Z</time>
      </trkpt>
      <trkpt lat="49.02665" lon="1.04244">
        <ele>180</ele>
        <time>2014-09-27T13:14:18.000Z</time>
      </trkpt>
      <trkpt lat="49.02665" lon="1.04244">
        <ele>180</ele>
        <time>2014-09-27T13:14:20.000Z</time>
      </trkpt>
      <trkpt lat="49.02665" lon="1.04244">
        <ele>180</ele>
        <time>2014-09-27T13:14:22.000Z</time>
      </trkpt>
      <trkpt lat="49.02688" lon="1.04193">
        <ele>182</ele>
        <time>2014-09-27T13:14:28.000Z</time>
      </trkpt>
      <trkpt lat="49.02688" lon="1.04193">
        <ele>182</ele>
        <time>2014-09-27T13:14:30.000Z</time>
      </trkpt>
      <trkpt lat="49.02688" lon="1.04193">
        <ele>182</ele>
        <time>2014-09-27T13:14:32.000Z</time>
      </trkpt>
      <trkpt lat="49.02688" lon="1.04193">
        <ele>182</ele>
        <time>2014-09-27T13:14:34.000Z</time>
      </trkpt>
      <trkpt lat="49.02688" lon="1.04193">
        <ele>182</ele>
        <time>2014-09-27T13:14:36.000Z</time>
      </trkpt>
      <trkpt lat="49.02676" lon="1.0415">
        <ele>183</ele>
        <time>2014-09-27T13:14:40.000Z</time>
      </trkpt>
      <trkpt lat="49.02664" lon="1.04159">
        <ele>183</ele>
        <time>2014-09-27T13:14:44.000Z</time>
      </trkpt>
      <trkpt lat="49.02648" lon="1.04172">
        <ele>177</ele>
        <time>2014-09-27T13:14:48.000Z</time>
      </trkpt>
      <trkpt lat="49.02639" lon="1.04177">
        <ele>175</ele>
        <time>2014-09-27T13:14:50.000Z</time>
      </trkpt>
      <trkpt lat="49.02623" lon="1.04186">
        <ele>174</ele>
        <time>2014-09-27T13:14:54.000Z</time>
      </trkpt>
      <trkpt lat="49.02614" lon="1.04191">
        <ele>175</ele>
        <time>2014-09-27T13:14:56.000Z</time>
      </trkpt>
      <trkpt lat="49.02604" lon="1.04195">
        <ele>175</ele>
        <time>2014-09-27T13:14:58.000Z</time>
      </trkpt>
      <trkpt lat="49.02604" lon="1.04195">
        <ele>175</ele>
        <time>2014-09-27T13:15:00.000Z</time>
      </trkpt>
      <trkpt lat="49.02604" lon="1.04195">
        <ele>175</ele>
        <time>2014-09-27T13:15:02.000Z</time>
      </trkpt>
      <trkpt lat="49.02604" lon="1.04195">
        <ele>175</ele>
        <time>2014-09-27T13:15:04.000Z</time>
      </trkpt>
      <trkpt lat="49.02582" lon="1.04204">
        <ele>179</ele>
        <time>2014-09-27T13:15:08.000Z</time>
      </trkpt>
      <trkpt lat="49.02567" lon="1.0421">
        <ele>179</ele>
        <time>2014-09-27T13:15:10.000Z</time>
      </trkpt>
      <trkpt lat="49.02555" lon="1.04215">
        <ele>180</ele>
        <time>2014-09-27T13:15:12.000Z</time>
      </trkpt>
      <trkpt lat="49.02544" lon="1.04221">
        <ele>181</ele>
        <time>2014-09-27T13:15:14.000Z</time>
      </trkpt>
      <trkpt lat="49.02536" lon="1.04227">
        <ele>182</ele>
        <time>2014-09-27T13:15:16.000Z</time>
      </trkpt>
      <trkpt lat="49.02518" lon="1.04236">
        <ele>180</ele>
        <time>2014-09-27T13:15:18.000Z</time>
      </trkpt>
      <trkpt lat="49.02509" lon="1.04239">
        <ele>179</ele>
        <time>2014-09-27T13:15:20.000Z</time>
      </trkpt>
      <trkpt lat="49.02491" lon="1.04244">
        <ele>178</ele>
        <time>2014-09-27T13:15:24.000Z</time>
      </trkpt>
      <trkpt lat="49.02491" lon="1.04244">
        <ele>178</ele>
        <time>2014-09-27T13:15:26.000Z</time>
      </trkpt>
      <trkpt lat="49.02473" lon="1.04246">
        <ele>173</ele>
        <time>2014-09-27T13:15:28.000Z</time>
      </trkpt>
      <trkpt lat="49.02473" lon="1.04246">
        <ele>173</ele>
        <time>2014-09-27T13:15:30.000Z</time>
      </trkpt>
      <trkpt lat="49.02473" lon="1.04246">
        <ele>173</ele>
        <time>2014-09-27T13:15:32.000Z</time>
      </trkpt>
      <trkpt lat="49.02473" lon="1.04246">
        <ele>173</ele>
        <time>2014-09-27T13:15:34.000Z</time>
      </trkpt>
      <trkpt lat="49.02473" lon="1.04246">
        <ele>173</ele>
        <time>2014-09-27T13:15:36.000Z</time>
      </trkpt>
      <trkpt lat="49.02426" lon="1.04255">
        <ele>168</ele>
        <time>2014-09-27T13:15:40.000Z</time>
      </trkpt>
      <trkpt lat="49.0241" lon="1.04255">
        <ele>171</ele>
        <time>2014-09-27T13:15:45.000Z</time>
      </trkpt>
      <trkpt lat="49.0241" lon="1.04255">
        <ele>171</ele>
        <time>2014-09-27T13:15:47.000Z</time>
      </trkpt>
      <trkpt lat="49.0236" lon="1.04271">
        <ele>169</ele>
        <time>2014-09-27T13:15:54.000Z</time>
      </trkpt>
      <trkpt lat="49.02346" lon="1.0428">
        <ele>170</ele>
        <time>2014-09-27T13:15:56.000Z</time>
      </trkpt>
      <trkpt lat="49.02333" lon="1.0429">
        <ele>171</ele>
        <time>2014-09-27T13:15:58.000Z</time>
      </trkpt>
      <trkpt lat="49.02319" lon="1.04294">
        <ele>172</ele>
        <time>2014-09-27T13:16:00.000Z</time>
      </trkpt>
      <trkpt lat="49.02306" lon="1.04296">
        <ele>173</ele>
        <time>2014-09-27T13:16:02.000Z</time>
      </trkpt>
      <trkpt lat="49.02296" lon="1.04298">
        <ele>174</ele>
        <time>2014-09-27T13:16:04.000Z</time>
      </trkpt>
      <trkpt lat="49.02285" lon="1.04301">
        <ele>175</ele>
        <time>2014-09-27T13:16:06.000Z</time>
      </trkpt>
      <trkpt lat="49.02273" lon="1.04304">
        <ele>175</ele>
        <time>2014-09-27T13:16:08.000Z</time>
      </trkpt>
      <trkpt lat="49.02262" lon="1.04307">
        <ele>176</ele>
        <time>2014-09-27T13:16:10.000Z</time>
      </trkpt>
      <trkpt lat="49.02251" lon="1.0431">
        <ele>175</ele>
        <time>2014-09-27T13:16:12.000Z</time>
      </trkpt>
      <trkpt lat="49.02239" lon="1.04314">
        <ele>172</ele>
        <time>2014-09-27T13:16:14.000Z</time>
      </trkpt>
      <trkpt lat="49.02227" lon="1.04317">
        <ele>171</ele>
        <time>2014-09-27T13:16:16.000Z</time>
      </trkpt>
      <trkpt lat="49.02215" lon="1.04319">
        <ele>170</ele>
        <time>2014-09-27T13:16:18.000Z</time>
      </trkpt>
      <trkpt lat="49.02204" lon="1.04322">
        <ele>170</ele>
        <time>2014-09-27T13:16:20.000Z</time>
      </trkpt>
      <trkpt lat="49.02192" lon="1.04324">
        <ele>170</ele>
        <time>2014-09-27T13:16:22.000Z</time>
      </trkpt>
      <trkpt lat="49.02179" lon="1.04326">
        <ele>171</ele>
        <time>2014-09-27T13:16:24.000Z</time>
      </trkpt>
      <trkpt lat="49.02166" lon="1.04327">
        <ele>170</ele>
        <time>2014-09-27T13:16:26.000Z</time>
      </trkpt>
      <trkpt lat="49.02154" lon="1.04327">
        <ele>169</ele>
        <time>2014-09-27T13:16:28.000Z</time>
      </trkpt>
      <trkpt lat="49.02142" lon="1.04328">
        <ele>168</ele>
        <time>2014-09-27T13:16:30.000Z</time>
      </trkpt>
      <trkpt lat="49.0213" lon="1.04329">
        <ele>168</ele>
        <time>2014-09-27T13:16:32.000Z</time>
      </trkpt>
      <trkpt lat="49.02117" lon="1.0433">
        <ele>168</ele>
        <time>2014-09-27T13:16:34.000Z</time>
      </trkpt>
      <trkpt lat="49.02105" lon="1.04331">
        <ele>167</ele>
        <time>2014-09-27T13:16:36.000Z</time>
      </trkpt>
      <trkpt lat="49.02091" lon="1.04332">
        <ele>167</ele>
        <time>2014-09-27T13:16:38.000Z</time>
      </trkpt>
      <trkpt lat="49.02076" lon="1.04334">
        <ele>167</ele>
        <time>2014-09-27T13:16:40.000Z</time>
      </trkpt>
      <trkpt lat="49.02062" lon="1.04336">
        <ele>168</ele>
        <time>2014-09-27T13:16:42.000Z</time>
      </trkpt>
      <trkpt lat="49.02062" lon="1.04336">
        <ele>168</ele>
        <time>2014-09-27T13:16:44.000Z</time>
      </trkpt>
      <trkpt lat="49.02039" lon="1.04338">
        <ele>167</ele>
        <time>2014-09-27T13:16:46.000Z</time>
      </trkpt>
      <trkpt lat="49.02028" lon="1.0434">
        <ele>167</ele>
        <time>2014-09-27T13:16:48.000Z</time>
      </trkpt>
      <trkpt lat="49.02016" lon="1.04344">
        <ele>168</ele>
        <time>2014-09-27T13:16:50.000Z</time>
      </trkpt>
      <trkpt lat="49.02003" lon="1.0435">
        <ele>170</ele>
        <time>2014-09-27T13:16:52.000Z</time>
      </trkpt>
      <trkpt lat="49.01979" lon="1.04363">
        <ele>171</ele>
        <time>2014-09-27T13:16:56.000Z</time>
      </trkpt>
      <trkpt lat="49.01968" lon="1.04371">
        <ele>169</ele>
        <time>2014-09-27T13:16:58.000Z</time>
      </trkpt>
      <trkpt lat="49.01956" lon="1.04381">
        <ele>167</ele>
        <time>2014-09-27T13:17:00.000Z</time>
      </trkpt>
      <trkpt lat="49.01944" lon="1.0439">
        <ele>162</ele>
        <time>2014-09-27T13:17:02.000Z</time>
      </trkpt>
      <trkpt lat="49.01931" lon="1.044">
        <ele>158</ele>
        <time>2014-09-27T13:17:04.000Z</time>
      </trkpt>
      <trkpt lat="49.01918" lon="1.0441">
        <ele>156</ele>
        <time>2014-09-27T13:17:06.000Z</time>
      </trkpt>
      <trkpt lat="49.01907" lon="1.04421">
        <ele>156</ele>
        <time>2014-09-27T13:17:08.000Z</time>
      </trkpt>
      <trkpt lat="49.01907" lon="1.04421">
        <ele>156</ele>
        <time>2014-09-27T13:17:10.000Z</time>
      </trkpt>
      <trkpt lat="49.01885" lon="1.04438">
        <ele>155</ele>
        <time>2014-09-27T13:17:12.000Z</time>
      </trkpt>
      <trkpt lat="49.01885" lon="1.04438">
        <ele>155</ele>
        <time>2014-09-27T13:17:14.000Z</time>
      </trkpt>
      <trkpt lat="49.01885" lon="1.04438">
        <ele>155</ele>
        <time>2014-09-27T13:17:16.000Z</time>
      </trkpt>
      <trkpt lat="49.01885" lon="1.04438">
        <ele>155</ele>
        <time>2014-09-27T13:17:18.000Z</time>
      </trkpt>
      <trkpt lat="49.01885" lon="1.04438">
        <ele>155</ele>
        <time>2014-09-27T13:17:20.000Z</time>
      </trkpt>
      <trkpt lat="49.01885" lon="1.04438">
        <ele>155</ele>
        <time>2014-09-27T13:17:22.000Z</time>
      </trkpt>
      <trkpt lat="49.01885" lon="1.04438">
        <ele>155</ele>
        <time>2014-09-27T13:17:24.000Z</time>
      </trkpt>
      <trkpt lat="49.01842" lon="1.04406">
        <ele>157</ele>
        <time>2014-09-27T13:19:40.000Z</time>
      </trkpt>
      <trkpt lat="49.01842" lon="1.04406">
        <ele>157</ele>
        <time>2014-09-27T13:19:44.000Z</time>
      </trkpt>
      <trkpt lat="49.01851" lon="1.04352">
        <ele>167</ele>
        <time>2014-09-27T13:19:48.000Z</time>
      </trkpt>
      <trkpt lat="49.01851" lon="1.04321">
        <ele>171</ele>
        <time>2014-09-27T13:19:52.000Z</time>
      </trkpt>
      <trkpt lat="49.0185" lon="1.04288">
        <ele>171</ele>
        <time>2014-09-27T13:19:56.000Z</time>
      </trkpt>
      <trkpt lat="49.01848" lon="1.04255">
        <ele>168</ele>
        <time>2014-09-27T13:20:00.000Z</time>
      </trkpt>
      <trkpt lat="49.01848" lon="1.04255">
        <ele>168</ele>
        <time>2014-09-27T13:20:02.000Z</time>
      </trkpt>
      <trkpt lat="49.01848" lon="1.04255">
        <ele>168</ele>
        <time>2014-09-27T13:20:04.000Z</time>
      </trkpt>
      <trkpt lat="49.01848" lon="1.04255">
        <ele>168</ele>
        <time>2014-09-27T13:20:06.000Z</time>
      </trkpt>
      <trkpt lat="49.01848" lon="1.04255">
        <ele>168</ele>
        <time>2014-09-27T13:20:13.000Z</time>
      </trkpt>
      <trkpt lat="49.01835" lon="1.04169">
        <ele>166</ele>
        <time>2014-09-27T13:20:17.000Z</time>
      </trkpt>
      <trkpt lat="49.0186" lon="1.04154">
        <ele>164</ele>
        <time>2014-09-27T13:20:21.000Z</time>
      </trkpt>
      <trkpt lat="49.01868" lon="1.0412">
        <ele>160</ele>
        <time>2014-09-27T13:20:25.000Z</time>
      </trkpt>
      <trkpt lat="49.0187" lon="1.04089">
        <ele>165</ele>
        <time>2014-09-27T13:20:29.000Z</time>
      </trkpt>
      <trkpt lat="49.0187" lon="1.04089">
        <ele>165</ele>
        <time>2014-09-27T13:20:33.000Z</time>
      </trkpt>
      <trkpt lat="49.0187" lon="1.04089">
        <ele>165</ele>
        <time>2014-09-27T13:20:35.000Z</time>
      </trkpt>
      <trkpt lat="49.0187" lon="1.04089">
        <ele>165</ele>
        <time>2014-09-27T13:20:37.000Z</time>
      </trkpt>
      <trkpt lat="49.0187" lon="1.04089">
        <ele>165</ele>
        <time>2014-09-27T13:20:39.000Z</time>
      </trkpt>
      <trkpt lat="49.0187" lon="1.04089">
        <ele>165</ele>
        <time>2014-09-27T13:20:41.000Z</time>
      </trkpt>
      <trkpt lat="49.0187" lon="1.04089">
        <ele>165</ele>
        <time>2014-09-27T13:20:43.000Z</time>
      </trkpt>
      <trkpt lat="49.0187" lon="1.04089">
        <ele>165</ele>
        <time>2014-09-27T13:20:45.000Z</time>
      </trkpt>
      <trkpt lat="49.01841" lon="1.04012">
        <ele>169</ele>
        <time>2014-09-27T13:21:24.000Z</time>
      </trkpt>
      <trkpt lat="49.01812" lon="1.04024">
        <ele>164</ele>
        <time>2014-09-27T13:21:29.000Z</time>
      </trkpt>
      <trkpt lat="49.01789" lon="1.04035">
        <ele>159</ele>
        <time>2014-09-27T13:21:33.000Z</time>
      </trkpt>
      <trkpt lat="49.01789" lon="1.04035">
        <ele>159</ele>
        <time>2014-09-27T13:21:35.000Z</time>
      </trkpt>
      <trkpt lat="49.01767" lon="1.04049">
        <ele>156</ele>
        <time>2014-09-27T13:21:37.000Z</time>
      </trkpt>
      <trkpt lat="49.01754" lon="1.04056">
        <ele>156</ele>
        <time>2014-09-27T13:21:39.000Z</time>
      </trkpt>
      <trkpt lat="49.01742" lon="1.04062">
        <ele>157</ele>
        <time>2014-09-27T13:21:41.000Z</time>
      </trkpt>
      <trkpt lat="49.01729" lon="1.04069">
        <ele>157</ele>
        <time>2014-09-27T13:21:43.000Z</time>
      </trkpt>
      <trkpt lat="49.01729" lon="1.04069">
        <ele>157</ele>
        <time>2014-09-27T13:21:45.000Z</time>
      </trkpt>
      <trkpt lat="49.01712" lon="1.04075">
        <ele>157</ele>
        <time>2014-09-27T13:21:47.000Z</time>
      </trkpt>
      <trkpt lat="49.01712" lon="1.04075">
        <ele>157</ele>
        <time>2014-09-27T13:21:49.000Z</time>
      </trkpt>
      <trkpt lat="49.01712" lon="1.04075">
        <ele>157</ele>
        <time>2014-09-27T13:21:51.000Z</time>
      </trkpt>
      <trkpt lat="49.01712" lon="1.04075">
        <ele>157</ele>
        <time>2014-09-27T13:21:53.000Z</time>
      </trkpt>
      <trkpt lat="49.01712" lon="1.04075">
        <ele>157</ele>
        <time>2014-09-27T13:21:55.000Z</time>
      </trkpt>
      <trkpt lat="49.01712" lon="1.04075">
        <ele>157</ele>
        <time>2014-09-27T13:21:57.000Z</time>
      </trkpt>
      <trkpt lat="49.01712" lon="1.04075">
        <ele>157</ele>
        <time>2014-09-27T13:22:01.000Z</time>
      </trkpt>
      <trkpt lat="49.01712" lon="1.04075">
        <ele>157</ele>
        <time>2014-09-27T13:22:05.000Z</time>
      </trkpt>
      <trkpt lat="49.01636" lon="1.04127">
        <ele>164</ele>
        <time>2014-09-27T13:22:07.000Z</time>
      </trkpt>
      <trkpt lat="49.01628" lon="1.04134">
        <ele>165</ele>
        <time>2014-09-27T13:22:09.000Z</time>
      </trkpt>
      <trkpt lat="49.01618" lon="1.04142">
        <ele>166</ele>
        <time>2014-09-27T13:22:11.000Z</time>
      </trkpt>
      <trkpt lat="49.01608" lon="1.0415">
        <ele>166</ele>
        <time>2014-09-27T13:22:13.000Z</time>
      </trkpt>
      <trkpt lat="49.01598" lon="1.04158">
        <ele>165</ele>
        <time>2014-09-27T13:22:15.000Z</time>
      </trkpt>
      <trkpt lat="49.01588" lon="1.04166">
        <ele>164</ele>
        <time>2014-09-27T13:22:17.000Z</time>
      </trkpt>
      <trkpt lat="49.01588" lon="1.04166">
        <ele>164</ele>
        <time>2014-09-27T13:22:19.000Z</time>
      </trkpt>
      <trkpt lat="49.01572" lon="1.04182">
        <ele>163</ele>
        <time>2014-09-27T13:22:21.000Z</time>
      </trkpt>
      <trkpt lat="49.01564" lon="1.0419">
        <ele>162</ele>
        <time>2014-09-27T13:22:23.000Z</time>
      </trkpt>
      <trkpt lat="49.01564" lon="1.0419">
        <ele>162</ele>
        <time>2014-09-27T13:22:29.000Z</time>
      </trkpt>
      <trkpt lat="49.01564" lon="1.0419">
        <ele>162</ele>
        <time>2014-09-27T13:22:31.000Z</time>
      </trkpt>
      <trkpt lat="49.01564" lon="1.0419">
        <ele>162</ele>
        <time>2014-09-27T13:22:33.000Z</time>
      </trkpt>
      <trkpt lat="49.01564" lon="1.0419">
        <ele>162</ele>
        <time>2014-09-27T13:22:35.000Z</time>
      </trkpt>
      <trkpt lat="49.01564" lon="1.0419">
        <ele>162</ele>
        <time>2014-09-27T13:22:37.000Z</time>
      </trkpt>
      <trkpt lat="49.01564" lon="1.0419">
        <ele>162</ele>
        <time>2014-09-27T13:22:47.000Z</time>
      </trkpt>
      <trkpt lat="49.01445" lon="1.04297">
        <ele>165</ele>
        <time>2014-09-27T13:22:51.000Z</time>
      </trkpt>
      <trkpt lat="49.01434" lon="1.04295">
        <ele>166</ele>
        <time>2014-09-27T13:22:53.000Z</time>
      </trkpt>
      <trkpt lat="49.01422" lon="1.04291">
        <ele>166</ele>
        <time>2014-09-27T13:22:55.000Z</time>
      </trkpt>
      <trkpt lat="49.01411" lon="1.04286">
        <ele>166</ele>
        <time>2014-09-27T13:22:57.000Z</time>
      </trkpt>
      <trkpt lat="49.01399" lon="1.04281">
        <ele>167</ele>
        <time>2014-09-27T13:22:59.000Z</time>
      </trkpt>
      <trkpt lat="49.01389" lon="1.04277">
        <ele>168</ele>
        <time>2014-09-27T13:23:01.000Z</time>
      </trkpt>
      <trkpt lat="49.01389" lon="1.04277">
        <ele>168</ele>
        <time>2014-09-27T13:23:03.000Z</time>
      </trkpt>
      <trkpt lat="49.01389" lon="1.04277">
        <ele>168</ele>
        <time>2014-09-27T13:23:05.000Z</time>
      </trkpt>
      <trkpt lat="49.01389" lon="1.04277">
        <ele>168</ele>
        <time>2014-09-27T13:23:07.000Z</time>
      </trkpt>
      <trkpt lat="49.01389" lon="1.04277">
        <ele>168</ele>
        <time>2014-09-27T13:23:09.000Z</time>
      </trkpt>
      <trkpt lat="49.01389" lon="1.04277">
        <ele>168</ele>
        <time>2014-09-27T13:23:11.000Z</time>
      </trkpt>
      <trkpt lat="49.01389" lon="1.04277">
        <ele>168</ele>
        <time>2014-09-27T13:23:13.000Z</time>
      </trkpt>
      <trkpt lat="49.01389" lon="1.04277">
        <ele>168</ele>
        <time>2014-09-27T13:23:17.000Z</time>
      </trkpt>
      <trkpt lat="49.01389" lon="1.04277">
        <ele>168</ele>
        <time>2014-09-27T13:23:19.000Z</time>
      </trkpt>
      <trkpt lat="49.01389" lon="1.04277">
        <ele>168</ele>
        <time>2014-09-27T13:23:21.000Z</time>
      </trkpt>
      <trkpt lat="49.01389" lon="1.04277">
        <ele>168</ele>
        <time>2014-09-27T13:23:23.000Z</time>
      </trkpt>
      <trkpt lat="49.01389" lon="1.04277">
        <ele>168</ele>
        <time>2014-09-27T13:23:25.000Z</time>
      </trkpt>
      <trkpt lat="49.01389" lon="1.04277">
        <ele>168</ele>
        <time>2014-09-27T13:23:27.000Z</time>
      </trkpt>
      <trkpt lat="49.01389" lon="1.04277">
        <ele>168</ele>
        <time>2014-09-27T13:23:29.000Z</time>
      </trkpt>
      <trkpt lat="49.01331" lon="1.04257">
        <ele>172</ele>
        <time>2014-09-27T13:23:33.000Z</time>
      </trkpt>
      <trkpt lat="49.01297" lon="1.04245">
        <ele>171</ele>
        <time>2014-09-27T13:23:35.000Z</time>
      </trkpt>
      <trkpt lat="49.01273" lon="1.04238">
        <ele>171</ele>
        <time>2014-09-27T13:23:37.000Z</time>
      </trkpt>
      <trkpt lat="49.01254" lon="1.04235">
        <ele>170</ele>
        <time>2014-09-27T13:23:39.000Z</time>
      </trkpt>
      <trkpt lat="49.01239" lon="1.04233">
        <ele>170</ele>
        <time>2014-09-27T13:23:41.000Z</time>
      </trkpt>
      <trkpt lat="49.01208" lon="1.04235">
        <ele>170</ele>
        <time>2014-09-27T13:23:43.000Z</time>
      </trkpt>
      <trkpt lat="49.01194" lon="1.04241">
        <ele>172</ele>
        <time>2014-09-27T13:23:45.000Z</time>
      </trkpt>
      <trkpt lat="49.01181" lon="1.04245">
        <ele>173</ele>
        <time>2014-09-27T13:23:47.000Z</time>
      </trkpt>
      <trkpt lat="49.01167" lon="1.04248">
        <ele>172</ele>
        <time>2014-09-27T13:23:49.000Z</time>
      </trkpt>
      <trkpt lat="49.01154" lon="1.04251">
        <ele>170</ele>
        <time>2014-09-27T13:23:51.000Z</time>
      </trkpt>
      <trkpt lat="49.01139" lon="1.04253">
        <ele>168</ele>
        <time>2014-09-27T13:23:53.000Z</time>
      </trkpt>
      <trkpt lat="49.01125" lon="1.04255">
        <ele>169</ele>
        <time>2014-09-27T13:23:55.000Z</time>
      </trkpt>
      <trkpt lat="49.0111" lon="1.04256">
        <ele>169</ele>
        <time>2014-09-27T13:23:57.000Z</time>
      </trkpt>
      <trkpt lat="49.01097" lon="1.04257">
        <ele>168</ele>
        <time>2014-09-27T13:23:59.000Z</time>
      </trkpt>
      <trkpt lat="49.01084" lon="1.04257">
        <ele>168</ele>
        <time>2014-09-27T13:24:01.000Z</time>
      </trkpt>
      <trkpt lat="49.01071" lon="1.04258">
        <ele>167</ele>
        <time>2014-09-27T13:24:03.000Z</time>
      </trkpt>
      <trkpt lat="49.01059" lon="1.04259">
        <ele>167</ele>
        <time>2014-09-27T13:24:05.000Z</time>
      </trkpt>
      <trkpt lat="49.01048" lon="1.04261">
        <ele>167</ele>
        <time>2014-09-27T13:24:07.000Z</time>
      </trkpt>
      <trkpt lat="49.01048" lon="1.04261">
        <ele>167</ele>
        <time>2014-09-27T13:24:09.000Z</time>
      </trkpt>
      <trkpt lat="49.01048" lon="1.04261">
        <ele>167</ele>
        <time>2014-09-27T13:24:11.000Z</time>
      </trkpt>
      <trkpt lat="49.01048" lon="1.04261">
        <ele>167</ele>
        <time>2014-09-27T13:24:13.000Z</time>
      </trkpt>
      <trkpt lat="49.01048" lon="1.04261">
        <ele>167</ele>
        <time>2014-09-27T13:24:15.000Z</time>
      </trkpt>
      <trkpt lat="49.01048" lon="1.04261">
        <ele>167</ele>
        <time>2014-09-27T13:24:17.000Z</time>
      </trkpt>
      <trkpt lat="49.01048" lon="1.04261">
        <ele>167</ele>
        <time>2014-09-27T13:24:19.000Z</time>
      </trkpt>
      <trkpt lat="49.01044" lon="1.04327">
        <ele>163</ele>
        <time>2014-09-27T13:24:25.000Z</time>
      </trkpt>
      <trkpt lat="49.01049" lon="1.04342">
        <ele>163</ele>
        <time>2014-09-27T13:24:27.000Z</time>
      </trkpt>
      <trkpt lat="49.01056" lon="1.04359">
        <ele>163</ele>
        <time>2014-09-27T13:24:29.000Z</time>
      </trkpt>
      <trkpt lat="49.01061" lon="1.04377">
        <ele>163</ele>
        <time>2014-09-27T13:24:31.000Z</time>
      </trkpt>
      <trkpt lat="49.01066" lon="1.04393">
        <ele>164</ele>
        <time>2014-09-27T13:24:33.000Z</time>
      </trkpt>
      <trkpt lat="49.01071" lon="1.04407">
        <ele>163</ele>
        <time>2014-09-27T13:24:35.000Z</time>
      </trkpt>
      <trkpt lat="49.01071" lon="1.04407">
        <ele>163</ele>
        <time>2014-09-27T13:24:37.000Z</time>
      </trkpt>
      <trkpt lat="49.01071" lon="1.04407">
        <ele>163</ele>
        <time>2014-09-27T13:24:39.000Z</time>
      </trkpt>
      <trkpt lat="49.01071" lon="1.04407">
        <ele>163</ele>
        <time>2014-09-27T13:24:41.000Z</time>
      </trkpt>
      <trkpt lat="49.01071" lon="1.04407">
        <ele>163</ele>
        <time>2014-09-27T13:24:44.000Z</time>
      </trkpt>
      <trkpt lat="49.01077" lon="1.04415">
        <ele>165</ele>
        <time>2014-09-27T13:25:00.000Z</time>
      </trkpt>
      <trkpt lat="49.01071" lon="1.04397">
        <ele>164</ele>
        <time>2014-09-27T13:25:03.000Z</time>
      </trkpt>
      <trkpt lat="49.01062" lon="1.04372">
        <ele>167</ele>
        <time>2014-09-27T13:25:07.000Z</time>
      </trkpt>
      <trkpt lat="49.01062" lon="1.04372">
        <ele>167</ele>
        <time>2014-09-27T13:25:09.000Z</time>
      </trkpt>
      <trkpt lat="49.01062" lon="1.04372">
        <ele>167</ele>
        <time>2014-09-27T13:25:11.000Z</time>
      </trkpt>
      <trkpt lat="49.01062" lon="1.04372">
        <ele>167</ele>
        <time>2014-09-27T13:25:13.000Z</time>
      </trkpt>
      <trkpt lat="49.01062" lon="1.04372">
        <ele>167</ele>
        <time>2014-09-27T13:25:15.000Z</time>
      </trkpt>
      <trkpt lat="49.01062" lon="1.04372">
        <ele>167</ele>
        <time>2014-09-27T13:25:17.000Z</time>
      </trkpt>
      <trkpt lat="49.01062" lon="1.04372">
        <ele>167</ele>
        <time>2014-09-27T13:25:19.000Z</time>
      </trkpt>
      <trkpt lat="49.01026" lon="1.04287">
        <ele>165</ele>
        <time>2014-09-27T13:25:25.000Z</time>
      </trkpt>
      <trkpt lat="49.01026" lon="1.04287">
        <ele>165</ele>
        <time>2014-09-27T13:25:29.000Z</time>
      </trkpt>
      <trkpt lat="49.01026" lon="1.04287">
        <ele>165</ele>
        <time>2014-09-27T13:25:31.000Z</time>
      </trkpt>
      <trkpt lat="49.01026" lon="1.04287">
        <ele>165</ele>
        <time>2014-09-27T13:25:33.000Z</time>
      </trkpt>
      <trkpt lat="49.01006" lon="1.04216">
        <ele>165</ele>
        <time>2014-09-27T13:25:54.000Z</time>
      </trkpt>
      <trkpt lat="49.01006" lon="1.04216">
        <ele>165</ele>
        <time>2014-09-27T13:25:57.000Z</time>
      </trkpt>
      <trkpt lat="49.01001" lon="1.04182">
        <ele>168</ele>
        <time>2014-09-27T13:25:59.000Z</time>
      </trkpt>
      <trkpt lat="49.00993" lon="1.04159">
        <ele>165</ele>
        <time>2014-09-27T13:26:03.000Z</time>
      </trkpt>
      <trkpt lat="49.00988" lon="1.04146">
        <ele>164</ele>
        <time>2014-09-27T13:26:05.000Z</time>
      </trkpt>
      <trkpt lat="49.00983" lon="1.04133">
        <ele>163</ele>
        <time>2014-09-27T13:26:07.000Z</time>
      </trkpt>
      <trkpt lat="49.00979" lon="1.0412">
        <ele>163</ele>
        <time>2014-09-27T13:26:09.000Z</time>
      </trkpt>
      <trkpt lat="49.0097" lon="1.04088">
        <ele>166</ele>
        <time>2014-09-27T13:26:13.000Z</time>
      </trkpt>
      <trkpt lat="49.00962" lon="1.04056">
        <ele>168</ele>
        <time>2014-09-27T13:26:17.000Z</time>
      </trkpt>
      <trkpt lat="49.00959" lon="1.0404">
        <ele>169</ele>
        <time>2014-09-27T13:26:19.000Z</time>
      </trkpt>
      <trkpt lat="49.00955" lon="1.04023">
        <ele>168</ele>
        <time>2014-09-27T13:26:21.000Z</time>
      </trkpt>
      <trkpt lat="49.00955" lon="1.04023">
        <ele>168</ele>
        <time>2014-09-27T13:26:23.000Z</time>
      </trkpt>
      <trkpt lat="49.00946" lon="1.03992">
        <ele>167</ele>
        <time>2014-09-27T13:26:25.000Z</time>
      </trkpt>
      <trkpt lat="49.00942" lon="1.03977">
        <ele>168</ele>
        <time>2014-09-27T13:26:27.000Z</time>
      </trkpt>
      <trkpt lat="49.00938" lon="1.03961">
        <ele>170</ele>
        <time>2014-09-27T13:26:29.000Z</time>
      </trkpt>
      <trkpt lat="49.00934" lon="1.03945">
        <ele>172</ele>
        <time>2014-09-27T13:26:31.000Z</time>
      </trkpt>
      <trkpt lat="49.00929" lon="1.03928">
        <ele>173</ele>
        <time>2014-09-27T13:26:33.000Z</time>
      </trkpt>
      <trkpt lat="49.00925" lon="1.03911">
        <ele>174</ele>
        <time>2014-09-27T13:26:35.000Z</time>
      </trkpt>
      <trkpt lat="49.00919" lon="1.03896">
        <ele>174</ele>
        <time>2014-09-27T13:26:37.000Z</time>
      </trkpt>
      <trkpt lat="49.00914" lon="1.03882">
        <ele>174</ele>
        <time>2014-09-27T13:26:39.000Z</time>
      </trkpt>
      <trkpt lat="49.00914" lon="1.03882">
        <ele>174</ele>
        <time>2014-09-27T13:26:41.000Z</time>
      </trkpt>
      <trkpt lat="49.00914" lon="1.03882">
        <ele>174</ele>
        <time>2014-09-27T13:26:43.000Z</time>
      </trkpt>
      <trkpt lat="49.00914" lon="1.03882">
        <ele>174</ele>
        <time>2014-09-27T13:26:45.000Z</time>
      </trkpt>
      <trkpt lat="49.00914" lon="1.03882">
        <ele>174</ele>
        <time>2014-09-27T13:26:47.000Z</time>
      </trkpt>
      <trkpt lat="49.00914" lon="1.03882">
        <ele>174</ele>
        <time>2014-09-27T13:26:49.000Z</time>
      </trkpt>
      <trkpt lat="49.00914" lon="1.03882">
        <ele>174</ele>
        <time>2014-09-27T13:26:51.000Z</time>
      </trkpt>
      <trkpt lat="49.00914" lon="1.03882">
        <ele>174</ele>
        <time>2014-09-27T13:26:53.000Z</time>
      </trkpt>
      <trkpt lat="49.00879" lon="1.03771">
        <ele>172</ele>
        <time>2014-09-27T13:26:57.000Z</time>
      </trkpt>
      <trkpt lat="49.00874" lon="1.03758">
        <ele>171</ele>
        <time>2014-09-27T13:26:59.000Z</time>
      </trkpt>
      <trkpt lat="49.00866" lon="1.03742">
        <ele>170</ele>
        <time>2014-09-27T13:27:01.000Z</time>
      </trkpt>
      <trkpt lat="49.00859" lon="1.03727">
        <ele>169</ele>
        <time>2014-09-27T13:27:03.000Z</time>
      </trkpt>
      <trkpt lat="49.00851" lon="1.03711">
        <ele>169</ele>
        <time>2014-09-27T13:27:05.000Z</time>
      </trkpt>
      <trkpt lat="49.00843" lon="1.03693">
        <ele>169</ele>
        <time>2014-09-27T13:27:07.000Z</time>
      </trkpt>
      <trkpt lat="49.00835" lon="1.03675">
        <ele>169</ele>
        <time>2014-09-27T13:27:09.000Z</time>
      </trkpt>
      <trkpt lat="49.00827" lon="1.03656">
        <ele>171</ele>
        <time>2014-09-27T13:27:11.000Z</time>
      </trkpt>
      <trkpt lat="49.00824" lon="1.03639">
        <ele>170</ele>
        <time>2014-09-27T13:27:13.000Z</time>
      </trkpt>
      <trkpt lat="49.00822" lon="1.03623">
        <ele>170</ele>
        <time>2014-09-27T13:27:15.000Z</time>
      </trkpt>
      <trkpt lat="49.00822" lon="1.03623">
        <ele>170</ele>
        <time>2014-09-27T13:27:17.000Z</time>
      </trkpt>
      <trkpt lat="49.00821" lon="1.03591">
        <ele>170</ele>
        <time>2014-09-27T13:27:19.000Z</time>
      </trkpt>
      <trkpt lat="49.00821" lon="1.03575">
        <ele>169</ele>
        <time>2014-09-27T13:27:21.000Z</time>
      </trkpt>
      <trkpt lat="49.00821" lon="1.03558">
        <ele>167</ele>
        <time>2014-09-27T13:27:23.000Z</time>
      </trkpt>
      <trkpt lat="49.00822" lon="1.03538">
        <ele>167</ele>
        <time>2014-09-27T13:27:25.000Z</time>
      </trkpt>
      <trkpt lat="49.00824" lon="1.0352">
        <ele>167</ele>
        <time>2014-09-27T13:27:27.000Z</time>
      </trkpt>
      <trkpt lat="49.00825" lon="1.03501">
        <ele>168</ele>
        <time>2014-09-27T13:27:29.000Z</time>
      </trkpt>
      <trkpt lat="49.00827" lon="1.03484">
        <ele>168</ele>
        <time>2014-09-27T13:27:31.000Z</time>
      </trkpt>
      <trkpt lat="49.00829" lon="1.03465">
        <ele>168</ele>
        <time>2014-09-27T13:27:33.000Z</time>
      </trkpt>
      <trkpt lat="49.00831" lon="1.03446">
        <ele>169</ele>
        <time>2014-09-27T13:27:35.000Z</time>
      </trkpt>
      <trkpt lat="49.00832" lon="1.03431">
        <ele>170</ele>
        <time>2014-09-27T13:27:37.000Z</time>
      </trkpt>
      <trkpt lat="49.00833" lon="1.03417">
        <ele>172</ele>
        <time>2014-09-27T13:27:39.000Z</time>
      </trkpt>
      <trkpt lat="49.00833" lon="1.03417">
        <ele>172</ele>
        <time>2014-09-27T13:27:41.000Z</time>
      </trkpt>
      <trkpt lat="49.00833" lon="1.03417">
        <ele>172</ele>
        <time>2014-09-27T13:27:43.000Z</time>
      </trkpt>
      <trkpt lat="49.00833" lon="1.03417">
        <ele>172</ele>
        <time>2014-09-27T13:27:45.000Z</time>
      </trkpt>
      <trkpt lat="49.00833" lon="1.03417">
        <ele>172</ele>
        <time>2014-09-27T13:27:47.000Z</time>
      </trkpt>
      <trkpt lat="49.00833" lon="1.03417">
        <ele>172</ele>
        <time>2014-09-27T13:27:49.000Z</time>
      </trkpt>
      <trkpt lat="49.00833" lon="1.03417">
        <ele>172</ele>
        <time>2014-09-27T13:27:51.000Z</time>
      </trkpt>
      <trkpt lat="49.00833" lon="1.03417">
        <ele>172</ele>
        <time>2014-09-27T13:27:53.000Z</time>
      </trkpt>
      <trkpt lat="49.00798" lon="1.03329">
        <ele>172</ele>
        <time>2014-09-27T13:27:59.000Z</time>
      </trkpt>
      <trkpt lat="49.00782" lon="1.0331">
        <ele>176</ele>
        <time>2014-09-27T13:28:03.000Z</time>
      </trkpt>
      <trkpt lat="49.00766" lon="1.0329">
        <ele>179</ele>
        <time>2014-09-27T13:28:07.000Z</time>
      </trkpt>
      <trkpt lat="49.00749" lon="1.0327">
        <ele>176</ele>
        <time>2014-09-27T13:28:11.000Z</time>
      </trkpt>
      <trkpt lat="49.00749" lon="1.0327">
        <ele>176</ele>
        <time>2014-09-27T13:28:13.000Z</time>
      </trkpt>
      <trkpt lat="49.00732" lon="1.03253">
        <ele>175</ele>
        <time>2014-09-27T13:28:15.000Z</time>
      </trkpt>
      <trkpt lat="49.00711" lon="1.03236">
        <ele>172</ele>
        <time>2014-09-27T13:28:19.000Z</time>
      </trkpt>
      <trkpt lat="49.00702" lon="1.03224">
        <ele>172</ele>
        <time>2014-09-27T13:28:21.000Z</time>
      </trkpt>
      <trkpt lat="49.00693" lon="1.03214">
        <ele>173</ele>
        <time>2014-09-27T13:28:23.000Z</time>
      </trkpt>
      <trkpt lat="49.00684" lon="1.03203">
        <ele>173</ele>
        <time>2014-09-27T13:28:25.000Z</time>
      </trkpt>
      <trkpt lat="49.00675" lon="1.03195">
        <ele>173</ele>
        <time>2014-09-27T13:28:27.000Z</time>
      </trkpt>
      <trkpt lat="49.00666" lon="1.03187">
        <ele>172</ele>
        <time>2014-09-27T13:28:29.000Z</time>
      </trkpt>
      <trkpt lat="49.00666" lon="1.03187">
        <ele>172</ele>
        <time>2014-09-27T13:28:31.000Z</time>
      </trkpt>
      <trkpt lat="49.00666" lon="1.03187">
        <ele>172</ele>
        <time>2014-09-27T13:28:33.000Z</time>
      </trkpt>
      <trkpt lat="49.00643" lon="1.03165">
        <ele>175</ele>
        <time>2014-09-27T13:28:39.000Z</time>
      </trkpt>
      <trkpt lat="49.00628" lon="1.0315">
        <ele>175</ele>
        <time>2014-09-27T13:28:41.000Z</time>
      </trkpt>
      <trkpt lat="49.00615" lon="1.03138">
        <ele>174</ele>
        <time>2014-09-27T13:28:43.000Z</time>
      </trkpt>
      <trkpt lat="49.00603" lon="1.03128">
        <ele>174</ele>
        <time>2014-09-27T13:28:45.000Z</time>
      </trkpt>
      <trkpt lat="49.00592" lon="1.03119">
        <ele>172</ele>
        <time>2014-09-27T13:28:47.000Z</time>
      </trkpt>
      <trkpt lat="49.00571" lon="1.03101">
        <ele>172</ele>
        <time>2014-09-27T13:28:49.000Z</time>
      </trkpt>
      <trkpt lat="49.00551" lon="1.03084">
        <ele>173</ele>
        <time>2014-09-27T13:28:53.000Z</time>
      </trkpt>
      <trkpt lat="49.00551" lon="1.03084">
        <ele>173</ele>
        <time>2014-09-27T13:28:55.000Z</time>
      </trkpt>
      <trkpt lat="49.00531" lon="1.03064">
        <ele>173</ele>
        <time>2014-09-27T13:28:57.000Z</time>
      </trkpt>
      <trkpt lat="49.00531" lon="1.03064">
        <ele>173</ele>
        <time>2014-09-27T13:28:59.000Z</time>
      </trkpt>
      <trkpt lat="49.00514" lon="1.03043">
        <ele>171</ele>
        <time>2014-09-27T13:29:01.000Z</time>
      </trkpt>
      <trkpt lat="49.00514" lon="1.03043">
        <ele>171</ele>
        <time>2014-09-27T13:29:03.000Z</time>
      </trkpt>
      <trkpt lat="49.00514" lon="1.03043">
        <ele>171</ele>
        <time>2014-09-27T13:29:05.000Z</time>
      </trkpt>
      <trkpt lat="49.00486" lon="1.03015">
        <ele>174</ele>
        <time>2014-09-27T13:29:07.000Z</time>
      </trkpt>
      <trkpt lat="49.00465" lon="1.02994">
        <ele>176</ele>
        <time>2014-09-27T13:29:11.000Z</time>
      </trkpt>
      <trkpt lat="49.00446" lon="1.02977">
        <ele>177</ele>
        <time>2014-09-27T13:29:14.000Z</time>
      </trkpt>
      <trkpt lat="49.00433" lon="1.02964">
        <ele>177</ele>
        <time>2014-09-27T13:29:16.000Z</time>
      </trkpt>
      <trkpt lat="49.00419" lon="1.02949">
        <ele>177</ele>
        <time>2014-09-27T13:29:18.000Z</time>
      </trkpt>
      <trkpt lat="49.00406" lon="1.02935">
        <ele>176</ele>
        <time>2014-09-27T13:29:20.000Z</time>
      </trkpt>
      <trkpt lat="49.00394" lon="1.02919">
        <ele>178</ele>
        <time>2014-09-27T13:29:22.000Z</time>
      </trkpt>
      <trkpt lat="49.00382" lon="1.02903">
        <ele>176</ele>
        <time>2014-09-27T13:29:24.000Z</time>
      </trkpt>
      <trkpt lat="49.00373" lon="1.02886">
        <ele>171</ele>
        <time>2014-09-27T13:29:26.000Z</time>
      </trkpt>
      <trkpt lat="49.00364" lon="1.0287">
        <ele>167</ele>
        <time>2014-09-27T13:29:28.000Z</time>
      </trkpt>
      <trkpt lat="49.00352" lon="1.02862">
        <ele>164</ele>
        <time>2014-09-27T13:29:30.000Z</time>
      </trkpt>
      <trkpt lat="49.00352" lon="1.02862">
        <ele>164</ele>
        <time>2014-09-27T13:29:32.000Z</time>
      </trkpt>
      <trkpt lat="49.00331" lon="1.02848">
        <ele>170</ele>
        <time>2014-09-27T13:29:34.000Z</time>
      </trkpt>
      <trkpt lat="49.00319" lon="1.02836">
        <ele>170</ele>
        <time>2014-09-27T13:29:36.000Z</time>
      </trkpt>
      <trkpt lat="49.00319" lon="1.02836">
        <ele>170</ele>
        <time>2014-09-27T13:29:40.000Z</time>
      </trkpt>
      <trkpt lat="49.00291" lon="1.02812">
        <ele>175</ele>
        <time>2014-09-27T13:29:42.000Z</time>
      </trkpt>
      <trkpt lat="49.00291" lon="1.02812">
        <ele>175</ele>
        <time>2014-09-27T13:29:44.000Z</time>
      </trkpt>
      <trkpt lat="49.00291" lon="1.02812">
        <ele>175</ele>
        <time>2014-09-27T13:29:47.000Z</time>
      </trkpt>
      <trkpt lat="49.00291" lon="1.02812">
        <ele>175</ele>
        <time>2014-09-27T13:29:49.000Z</time>
      </trkpt>
      <trkpt lat="49.00291" lon="1.02812">
        <ele>175</ele>
        <time>2014-09-27T13:29:51.000Z</time>
      </trkpt>
      <trkpt lat="49.00217" lon="1.02731">
        <ele>179</ele>
        <time>2014-09-27T13:30:01.000Z</time>
      </trkpt>
      <trkpt lat="49.00204" lon="1.02725">
        <ele>172</ele>
        <time>2014-09-27T13:30:03.000Z</time>
      </trkpt>
      <trkpt lat="49.00183" lon="1.02721">
        <ele>164</ele>
        <time>2014-09-27T13:30:07.000Z</time>
      </trkpt>
      <trkpt lat="49.00183" lon="1.02721">
        <ele>164</ele>
        <time>2014-09-27T13:30:09.000Z</time>
      </trkpt>
      <trkpt lat="49.00183" lon="1.02721">
        <ele>164</ele>
        <time>2014-09-27T13:30:11.000Z</time>
      </trkpt>
      <trkpt lat="49.00183" lon="1.02721">
        <ele>164</ele>
        <time>2014-09-27T13:30:13.000Z</time>
      </trkpt>
      <trkpt lat="49.00183" lon="1.02721">
        <ele>164</ele>
        <time>2014-09-27T13:30:15.000Z</time>
      </trkpt>
      <trkpt lat="49.00183" lon="1.02721">
        <ele>164</ele>
        <time>2014-09-27T13:30:17.000Z</time>
      </trkpt>
      <trkpt lat="49.00183" lon="1.02721">
        <ele>164</ele>
        <time>2014-09-27T13:30:19.000Z</time>
      </trkpt>
      <trkpt lat="49.00183" lon="1.02721">
        <ele>164</ele>
        <time>2014-09-27T13:30:21.000Z</time>
      </trkpt>
      <trkpt lat="49.00183" lon="1.02721">
        <ele>164</ele>
        <time>2014-09-27T13:30:23.000Z</time>
      </trkpt>
      <trkpt lat="49.00097" lon="1.02697">
        <ele>161</ele>
        <time>2014-09-27T13:30:27.000Z</time>
      </trkpt>
      <trkpt lat="49.00089" lon="1.02694">
        <ele>160</ele>
        <time>2014-09-27T13:30:29.000Z</time>
      </trkpt>
      <trkpt lat="49.00072" lon="1.02685">
        <ele>160</ele>
        <time>2014-09-27T13:30:33.000Z</time>
      </trkpt>
      <trkpt lat="49.00072" lon="1.02685">
        <ele>160</ele>
        <time>2014-09-27T13:30:35.000Z</time>
      </trkpt>
      <trkpt lat="49.00056" lon="1.02674">
        <ele>164</ele>
        <time>2014-09-27T13:30:37.000Z</time>
      </trkpt>
      <trkpt lat="49.00047" lon="1.02668">
        <ele>165</ele>
        <time>2014-09-27T13:30:39.000Z</time>
      </trkpt>
      <trkpt lat="49.00032" lon="1.02659">
        <ele>167</ele>
        <time>2014-09-27T13:30:43.000Z</time>
      </trkpt>
      <trkpt lat="49.00032" lon="1.02659">
        <ele>167</ele>
        <time>2014-09-27T13:30:45.000Z</time>
      </trkpt>
      <trkpt lat="49.0002" lon="1.02653">
        <ele>167</ele>
        <time>2014-09-27T13:30:49.000Z</time>
      </trkpt>
      <trkpt lat="49.0001" lon="1.02648">
        <ele>167</ele>
        <time>2014-09-27T13:30:51.000Z</time>
      </trkpt>
      <trkpt lat="49" lon="1.02643">
        <ele>166</ele>
        <time>2014-09-27T13:30:53.000Z</time>
      </trkpt>
      <trkpt lat="48.99991" lon="1.02639">
        <ele>165</ele>
        <time>2014-09-27T13:30:55.000Z</time>
      </trkpt>
      <trkpt lat="48.99982" lon="1.02636">
        <ele>165</ele>
        <time>2014-09-27T13:30:57.000Z</time>
      </trkpt>
      <trkpt lat="48.99982" lon="1.02636">
        <ele>165</ele>
        <time>2014-09-27T13:30:59.000Z</time>
      </trkpt>
      <trkpt lat="48.99982" lon="1.02636">
        <ele>165</ele>
        <time>2014-09-27T13:31:01.000Z</time>
      </trkpt>
      <trkpt lat="48.99982" lon="1.02636">
        <ele>165</ele>
        <time>2014-09-27T13:31:03.000Z</time>
      </trkpt>
      <trkpt lat="48.99982" lon="1.02636">
        <ele>165</ele>
        <time>2014-09-27T13:31:05.000Z</time>
      </trkpt>
      <trkpt lat="48.99982" lon="1.02636">
        <ele>165</ele>
        <time>2014-09-27T13:31:07.000Z</time>
      </trkpt>
      <trkpt lat="48.99982" lon="1.02636">
        <ele>165</ele>
        <time>2014-09-27T13:31:09.000Z</time>
      </trkpt>
      <trkpt lat="48.99982" lon="1.02636">
        <ele>165</ele>
        <time>2014-09-27T13:31:11.000Z</time>
      </trkpt>
      <trkpt lat="48.99917" lon="1.02623">
        <ele>167</ele>
        <time>2014-09-27T13:31:13.000Z</time>
      </trkpt>
      <trkpt lat="48.99917" lon="1.02623">
        <ele>167</ele>
        <time>2014-09-27T13:31:17.000Z</time>
      </trkpt>
      <trkpt lat="48.99917" lon="1.02623">
        <ele>167</ele>
        <time>2014-09-27T13:31:19.000Z</time>
      </trkpt>
      <trkpt lat="48.99905" lon="1.02644">
        <ele>169</ele>
        <time>2014-09-27T13:31:21.000Z</time>
      </trkpt>
      <trkpt lat="48.99897" lon="1.02665">
        <ele>168</ele>
        <time>2014-09-27T13:31:25.000Z</time>
      </trkpt>
      <trkpt lat="48.99882" lon="1.02681">
        <ele>168</ele>
        <time>2014-09-27T13:31:29.000Z</time>
      </trkpt>
      <trkpt lat="48.99874" lon="1.02689">
        <ele>168</ele>
        <time>2014-09-27T13:31:31.000Z</time>
      </trkpt>
      <trkpt lat="48.99866" lon="1.02696">
        <ele>168</ele>
        <time>2014-09-27T13:31:33.000Z</time>
      </trkpt>
      <trkpt lat="48.99866" lon="1.02696">
        <ele>168</ele>
        <time>2014-09-27T13:31:35.000Z</time>
      </trkpt>
      <trkpt lat="48.99866" lon="1.02696">
        <ele>168</ele>
        <time>2014-09-27T13:31:37.000Z</time>
      </trkpt>
      <trkpt lat="48.99866" lon="1.02696">
        <ele>168</ele>
        <time>2014-09-27T13:31:39.000Z</time>
      </trkpt>
      <trkpt lat="48.99826" lon="1.0274">
        <ele>169</ele>
        <time>2014-09-27T13:31:43.000Z</time>
      </trkpt>
      <trkpt lat="48.99818" lon="1.02749">
        <ele>169</ele>
        <time>2014-09-27T13:31:45.000Z</time>
      </trkpt>
      <trkpt lat="48.99808" lon="1.0276">
        <ele>169</ele>
        <time>2014-09-27T13:31:47.000Z</time>
      </trkpt>
      <trkpt lat="48.998" lon="1.0277">
        <ele>169</ele>
        <time>2014-09-27T13:31:49.000Z</time>
      </trkpt>
      <trkpt lat="48.99793" lon="1.02778">
        <ele>169</ele>
        <time>2014-09-27T13:31:51.000Z</time>
      </trkpt>
      <trkpt lat="48.99785" lon="1.02787">
        <ele>169</ele>
        <time>2014-09-27T13:31:53.000Z</time>
      </trkpt>
      <trkpt lat="48.99776" lon="1.02795">
        <ele>168</ele>
        <time>2014-09-27T13:31:55.000Z</time>
      </trkpt>
      <trkpt lat="48.99768" lon="1.02804">
        <ele>167</ele>
        <time>2014-09-27T13:31:57.000Z</time>
      </trkpt>
      <trkpt lat="48.9975" lon="1.02824">
        <ele>169</ele>
        <time>2014-09-27T13:32:01.000Z</time>
      </trkpt>
      <trkpt lat="48.9975" lon="1.02824">
        <ele>169</ele>
        <time>2014-09-27T13:32:04.000Z</time>
      </trkpt>
      <trkpt lat="48.9975" lon="1.02824">
        <ele>169</ele>
        <time>2014-09-27T13:32:06.000Z</time>
      </trkpt>
      <trkpt lat="48.9975" lon="1.02824">
        <ele>169</ele>
        <time>2014-09-27T13:32:08.000Z</time>
      </trkpt>
      <trkpt lat="48.9975" lon="1.02824">
        <ele>169</ele>
        <time>2014-09-27T13:32:12.000Z</time>
      </trkpt>
      <trkpt lat="48.99651" lon="1.02873">
        <ele>171</ele>
        <time>2014-09-27T13:33:19.000Z</time>
      </trkpt>
      <trkpt lat="48.99631" lon="1.0287">
        <ele>172</ele>
        <time>2014-09-27T13:33:24.000Z</time>
      </trkpt>
      <trkpt lat="48.99611" lon="1.02867">
        <ele>172</ele>
        <time>2014-09-27T13:33:28.000Z</time>
      </trkpt>
      <trkpt lat="48.99593" lon="1.02864">
        <ele>172</ele>
        <time>2014-09-27T13:33:33.000Z</time>
      </trkpt>
      <trkpt lat="48.99593" lon="1.02864">
        <ele>172</ele>
        <time>2014-09-27T13:33:35.000Z</time>
      </trkpt>
      <trkpt lat="48.99593" lon="1.02864">
        <ele>172</ele>
        <time>2014-09-27T13:33:37.000Z</time>
      </trkpt>
      <trkpt lat="48.9956" lon="1.02836">
        <ele>167</ele>
        <time>2014-09-27T13:33:43.000Z</time>
      </trkpt>
      <trkpt lat="48.99545" lon="1.02837">
        <ele>165</ele>
        <time>2014-09-27T13:33:47.000Z</time>
      </trkpt>
      <trkpt lat="48.99545" lon="1.02837">
        <ele>165</ele>
        <time>2014-09-27T13:33:49.000Z</time>
      </trkpt>
      <trkpt lat="48.99529" lon="1.02837">
        <ele>166</ele>
        <time>2014-09-27T13:33:51.000Z</time>
      </trkpt>
      <trkpt lat="48.99514" lon="1.02833">
        <ele>167</ele>
        <time>2014-09-27T13:33:55.000Z</time>
      </trkpt>
      <trkpt lat="48.99514" lon="1.02833">
        <ele>167</ele>
        <time>2014-09-27T13:33:57.000Z</time>
      </trkpt>
      <trkpt lat="48.99514" lon="1.02833">
        <ele>167</ele>
        <time>2014-09-27T13:33:59.000Z</time>
      </trkpt>
      <trkpt lat="48.99514" lon="1.02833">
        <ele>167</ele>
        <time>2014-09-27T13:34:01.000Z</time>
      </trkpt>
      <trkpt lat="48.99477" lon="1.02822">
        <ele>164</ele>
        <time>2014-09-27T13:34:05.000Z</time>
      </trkpt>
      <trkpt lat="48.99468" lon="1.02818">
        <ele>165</ele>
        <time>2014-09-27T13:34:07.000Z</time>
      </trkpt>
      <trkpt lat="48.9945" lon="1.02811">
        <ele>166</ele>
        <time>2014-09-27T13:34:11.000Z</time>
      </trkpt>
      <trkpt lat="48.9945" lon="1.02811">
        <ele>166</ele>
        <time>2014-09-27T13:34:13.000Z</time>
      </trkpt>
      <trkpt lat="48.99432" lon="1.02806">
        <ele>169</ele>
        <time>2014-09-27T13:34:15.000Z</time>
      </trkpt>
      <trkpt lat="48.99415" lon="1.02801">
        <ele>170</ele>
        <time>2014-09-27T13:34:19.000Z</time>
      </trkpt>
      <trkpt lat="48.99395" lon="1.02794">
        <ele>169</ele>
        <time>2014-09-27T13:34:23.000Z</time>
      </trkpt>
      <trkpt lat="48.99386" lon="1.02793">
        <ele>169</ele>
        <time>2014-09-27T13:34:25.000Z</time>
      </trkpt>
      <trkpt lat="48.99386" lon="1.02793">
        <ele>169</ele>
        <time>2014-09-27T13:34:27.000Z</time>
      </trkpt>
      <trkpt lat="48.99379" lon="1.02813">
        <ele>173</ele>
        <time>2014-09-27T13:34:29.000Z</time>
      </trkpt>
      <trkpt lat="48.99381" lon="1.0283">
        <ele>174</ele>
        <time>2014-09-27T13:34:31.000Z</time>
      </trkpt>
      <trkpt lat="48.99383" lon="1.02849">
        <ele>176</ele>
        <time>2014-09-27T13:34:33.000Z</time>
      </trkpt>
      <trkpt lat="48.99382" lon="1.02875">
        <ele>177</ele>
        <time>2014-09-27T13:34:37.000Z</time>
      </trkpt>
      <trkpt lat="48.99382" lon="1.02875">
        <ele>177</ele>
        <time>2014-09-27T13:34:39.000Z</time>
      </trkpt>
      <trkpt lat="48.99382" lon="1.02875">
        <ele>177</ele>
        <time>2014-09-27T13:34:41.000Z</time>
      </trkpt>
      <trkpt lat="48.99382" lon="1.02875">
        <ele>177</ele>
        <time>2014-09-27T13:34:43.000Z</time>
      </trkpt>
      <trkpt lat="48.99382" lon="1.02875">
        <ele>177</ele>
        <time>2014-09-27T13:34:45.000Z</time>
      </trkpt>
      <trkpt lat="48.99348" lon="1.029">
        <ele>169</ele>
        <time>2014-09-27T13:34:51.000Z</time>
      </trkpt>
      <trkpt lat="48.99348" lon="1.029">
        <ele>169</ele>
        <time>2014-09-27T13:34:53.000Z</time>
      </trkpt>
      <trkpt lat="48.99335" lon="1.02893">
        <ele>168</ele>
        <time>2014-09-27T13:34:55.000Z</time>
      </trkpt>
      <trkpt lat="48.99335" lon="1.02893">
        <ele>168</ele>
        <time>2014-09-27T13:34:57.000Z</time>
      </trkpt>
      <trkpt lat="48.99335" lon="1.02893">
        <ele>168</ele>
        <time>2014-09-27T13:34:59.000Z</time>
      </trkpt>
      <trkpt lat="48.99335" lon="1.02893">
        <ele>168</ele>
        <time>2014-09-27T13:35:01.000Z</time>
      </trkpt>
      <trkpt lat="48.99335" lon="1.02893">
        <ele>168</ele>
        <time>2014-09-27T13:35:03.000Z</time>
      </trkpt>
      <trkpt lat="48.99335" lon="1.02893">
        <ele>168</ele>
        <time>2014-09-27T13:35:05.000Z</time>
      </trkpt>
      <trkpt lat="48.99338" lon="1.02883">
        <ele>171</ele>
        <time>2014-09-27T13:35:45.000Z</time>
      </trkpt>
      <trkpt lat="48.9937" lon="1.02876">
        <ele>172</ele>
        <time>2014-09-27T13:35:50.000Z</time>
      </trkpt>
      <trkpt lat="48.9937" lon="1.02876">
        <ele>172</ele>
        <time>2014-09-27T13:35:52.000Z</time>
      </trkpt>
      <trkpt lat="48.9937" lon="1.02876">
        <ele>172</ele>
        <time>2014-09-27T13:35:54.000Z</time>
      </trkpt>
      <trkpt lat="48.9937" lon="1.02876">
        <ele>172</ele>
        <time>2014-09-27T13:35:56.000Z</time>
      </trkpt>
      <trkpt lat="48.9937" lon="1.02876">
        <ele>172</ele>
        <time>2014-09-27T13:35:58.000Z</time>
      </trkpt>
      <trkpt lat="48.9937" lon="1.02876">
        <ele>172</ele>
        <time>2014-09-27T13:36:00.000Z</time>
      </trkpt>
      <trkpt lat="48.9937" lon="1.02876">
        <ele>172</ele>
        <time>2014-09-27T13:36:02.000Z</time>
      </trkpt>
      <trkpt lat="48.9937" lon="1.02876">
        <ele>172</ele>
        <time>2014-09-27T13:36:04.000Z</time>
      </trkpt>
      <trkpt lat="48.9937" lon="1.02876">
        <ele>172</ele>
        <time>2014-09-27T13:36:06.000Z</time>
      </trkpt>
      <trkpt lat="48.9937" lon="1.02876">
        <ele>172</ele>
        <time>2014-09-27T13:36:08.000Z</time>
      </trkpt>
      <trkpt lat="48.99389" lon="1.02795">
        <ele>171</ele>
        <time>2014-09-27T13:36:14.000Z</time>
      </trkpt>
      <trkpt lat="48.99389" lon="1.02795">
        <ele>171</ele>
        <time>2014-09-27T13:36:16.000Z</time>
      </trkpt>
      <trkpt lat="48.99416" lon="1.02811">
        <ele>172</ele>
        <time>2014-09-27T13:36:24.000Z</time>
      </trkpt>
      <trkpt lat="48.99438" lon="1.02821">
        <ele>176</ele>
        <time>2014-09-27T13:36:28.000Z</time>
      </trkpt>
      <trkpt lat="48.99456" lon="1.0283">
        <ele>176</ele>
        <time>2014-09-27T13:36:33.000Z</time>
      </trkpt>
      <trkpt lat="48.99478" lon="1.02839">
        <ele>177</ele>
        <time>2014-09-27T13:36:37.000Z</time>
      </trkpt>
      <trkpt lat="48.99491" lon="1.02845">
        <ele>176</ele>
        <time>2014-09-27T13:36:39.000Z</time>
      </trkpt>
      <trkpt lat="48.99504" lon="1.02852">
        <ele>179</ele>
        <time>2014-09-27T13:36:41.000Z</time>
      </trkpt>
      <trkpt lat="48.99519" lon="1.02862">
        <ele>182</ele>
        <time>2014-09-27T13:36:43.000Z</time>
      </trkpt>
      <trkpt lat="48.99532" lon="1.02871">
        <ele>182</ele>
        <time>2014-09-27T13:36:45.000Z</time>
      </trkpt>
      <trkpt lat="48.99544" lon="1.02881">
        <ele>181</ele>
        <time>2014-09-27T13:36:47.000Z</time>
      </trkpt>
      <trkpt lat="48.99556" lon="1.02896">
        <ele>182</ele>
        <time>2014-09-27T13:36:49.000Z</time>
      </trkpt>
      <trkpt lat="48.99555" lon="1.02921">
        <ele>185</ele>
        <time>2014-09-27T13:36:52.000Z</time>
      </trkpt>
      <trkpt lat="48.99548" lon="1.02939">
        <ele>186</ele>
        <time>2014-09-27T13:36:54.000Z</time>
      </trkpt>
      <trkpt lat="48.99548" lon="1.02939">
        <ele>186</ele>
        <time>2014-09-27T13:36:56.000Z</time>
      </trkpt>
      <trkpt lat="48.99548" lon="1.02939">
        <ele>186</ele>
        <time>2014-09-27T13:36:58.000Z</time>
      </trkpt>
      <trkpt lat="48.99548" lon="1.02939">
        <ele>186</ele>
        <time>2014-09-27T13:37:00.000Z</time>
      </trkpt>
      <trkpt lat="48.99548" lon="1.02939">
        <ele>186</ele>
        <time>2014-09-27T13:37:02.000Z</time>
      </trkpt>
      <trkpt lat="48.99548" lon="1.02939">
        <ele>186</ele>
        <time>2014-09-27T13:37:04.000Z</time>
      </trkpt>
      <trkpt lat="48.99548" lon="1.02939">
        <ele>186</ele>
        <time>2014-09-27T13:37:06.000Z</time>
      </trkpt>
      <trkpt lat="48.99548" lon="1.02939">
        <ele>186</ele>
        <time>2014-09-27T13:37:08.000Z</time>
      </trkpt>
      <trkpt lat="48.99548" lon="1.02939">
        <ele>186</ele>
        <time>2014-09-27T13:37:10.000Z</time>
      </trkpt>
      <trkpt lat="48.99548" lon="1.03105">
        <ele>177</ele>
        <time>2014-09-27T13:37:14.000Z</time>
      </trkpt>
      <trkpt lat="48.99553" lon="1.03125">
        <ele>176</ele>
        <time>2014-09-27T13:37:16.000Z</time>
      </trkpt>
      <trkpt lat="48.99557" lon="1.03145">
        <ele>176</ele>
        <time>2014-09-27T13:37:18.000Z</time>
      </trkpt>
      <trkpt lat="48.99562" lon="1.03166">
        <ele>175</ele>
        <time>2014-09-27T13:37:20.000Z</time>
      </trkpt>
      <trkpt lat="48.99564" lon="1.0319">
        <ele>172</ele>
        <time>2014-09-27T13:37:22.000Z</time>
      </trkpt>
      <trkpt lat="48.99564" lon="1.03216">
        <ele>170</ele>
        <time>2014-09-27T13:37:24.000Z</time>
      </trkpt>
      <trkpt lat="48.99566" lon="1.03242">
        <ele>170</ele>
        <time>2014-09-27T13:37:26.000Z</time>
      </trkpt>
      <trkpt lat="48.99566" lon="1.03269">
        <ele>165</ele>
        <time>2014-09-27T13:37:28.000Z</time>
      </trkpt>
      <trkpt lat="48.99566" lon="1.03293">
        <ele>160</ele>
        <time>2014-09-27T13:37:30.000Z</time>
      </trkpt>
      <trkpt lat="48.99566" lon="1.03319">
        <ele>158</ele>
        <time>2014-09-27T13:37:32.000Z</time>
      </trkpt>
      <trkpt lat="48.99566" lon="1.03348">
        <ele>156</ele>
        <time>2014-09-27T13:37:34.000Z</time>
      </trkpt>
      <trkpt lat="48.99566" lon="1.03377">
        <ele>156</ele>
        <time>2014-09-27T13:37:36.000Z</time>
      </trkpt>
      <trkpt lat="48.99565" lon="1.03404">
        <ele>153</ele>
        <time>2014-09-27T13:37:38.000Z</time>
      </trkpt>
      <trkpt lat="48.99559" lon="1.03458">
        <ele>151</ele>
        <time>2014-09-27T13:37:41.000Z</time>
      </trkpt>
      <trkpt lat="48.99554" lon="1.03493">
        <ele>153</ele>
        <time>2014-09-27T13:37:43.000Z</time>
      </trkpt>
      <trkpt lat="48.99547" lon="1.03527">
        <ele>152</ele>
        <time>2014-09-27T13:37:45.000Z</time>
      </trkpt>
      <trkpt lat="48.99538" lon="1.03559">
        <ele>151</ele>
        <time>2014-09-27T13:37:47.000Z</time>
      </trkpt>
      <trkpt lat="48.99531" lon="1.03589">
        <ele>151</ele>
        <time>2014-09-27T13:37:49.000Z</time>
      </trkpt>
      <trkpt lat="48.99521" lon="1.0362">
        <ele>153</ele>
        <time>2014-09-27T13:37:51.000Z</time>
      </trkpt>
      <trkpt lat="48.99512" lon="1.03649">
        <ele>154</ele>
        <time>2014-09-27T13:37:53.000Z</time>
      </trkpt>
      <trkpt lat="48.99504" lon="1.03679">
        <ele>154</ele>
        <time>2014-09-27T13:37:55.000Z</time>
      </trkpt>
      <trkpt lat="48.99495" lon="1.03707">
        <ele>153</ele>
        <time>2014-09-27T13:37:57.000Z</time>
      </trkpt>
      <trkpt lat="48.99484" lon="1.03736">
        <ele>154</ele>
        <time>2014-09-27T13:37:59.000Z</time>
      </trkpt>
      <trkpt lat="48.99473" lon="1.03757">
        <ele>154</ele>
        <time>2014-09-27T13:38:01.000Z</time>
      </trkpt>
      <trkpt lat="48.99459" lon="1.03777">
        <ele>153</ele>
        <time>2014-09-27T13:38:03.000Z</time>
      </trkpt>
      <trkpt lat="48.99445" lon="1.03801">
        <ele>150</ele>
        <time>2014-09-27T13:38:05.000Z</time>
      </trkpt>
      <trkpt lat="48.9943" lon="1.0382">
        <ele>147</ele>
        <time>2014-09-27T13:38:07.000Z</time>
      </trkpt>
      <trkpt lat="48.99422" lon="1.03843">
        <ele>144</ele>
        <time>2014-09-27T13:38:09.000Z</time>
      </trkpt>
      <trkpt lat="48.99417" lon="1.03868">
        <ele>140</ele>
        <time>2014-09-27T13:38:11.000Z</time>
      </trkpt>
      <trkpt lat="48.99419" lon="1.03894">
        <ele>137</ele>
        <time>2014-09-27T13:38:13.000Z</time>
      </trkpt>
      <trkpt lat="48.99419" lon="1.03921">
        <ele>135</ele>
        <time>2014-09-27T13:38:15.000Z</time>
      </trkpt>
      <trkpt lat="48.99418" lon="1.03948">
        <ele>133</ele>
        <time>2014-09-27T13:38:17.000Z</time>
      </trkpt>
      <trkpt lat="48.99418" lon="1.03975">
        <ele>130</ele>
        <time>2014-09-27T13:38:19.000Z</time>
      </trkpt>
      <trkpt lat="48.99417" lon="1.04003">
        <ele>127</ele>
        <time>2014-09-27T13:38:21.000Z</time>
      </trkpt>
      <trkpt lat="48.99417" lon="1.0403">
        <ele>126</ele>
        <time>2014-09-27T13:38:23.000Z</time>
      </trkpt>
      <trkpt lat="48.99413" lon="1.04054">
        <ele>125</ele>
        <time>2014-09-27T13:38:25.000Z</time>
      </trkpt>
      <trkpt lat="48.99402" lon="1.04068">
        <ele>124</ele>
        <time>2014-09-27T13:38:27.000Z</time>
      </trkpt>
      <trkpt lat="48.99402" lon="1.04068">
        <ele>124</ele>
        <time>2014-09-27T13:38:29.000Z</time>
      </trkpt>
      <trkpt lat="48.99382" lon="1.04088">
        <ele>120</ele>
        <time>2014-09-27T13:38:31.000Z</time>
      </trkpt>
      <trkpt lat="48.9937" lon="1.04098">
        <ele>121</ele>
        <time>2014-09-27T13:38:33.000Z</time>
      </trkpt>
      <trkpt lat="48.9937" lon="1.04098">
        <ele>121</ele>
        <time>2014-09-27T13:38:35.000Z</time>
      </trkpt>
      <trkpt lat="48.9937" lon="1.04098">
        <ele>121</ele>
        <time>2014-09-27T13:38:37.000Z</time>
      </trkpt>
      <trkpt lat="48.9937" lon="1.04098">
        <ele>121</ele>
        <time>2014-09-27T13:38:40.000Z</time>
      </trkpt>
      <trkpt lat="48.99383" lon="1.04098">
        <ele>124</ele>
        <time>2014-09-27T13:39:35.000Z</time>
      </trkpt>
      <trkpt lat="48.99383" lon="1.04098">
        <ele>124</ele>
        <time>2014-09-27T13:39:40.000Z</time>
      </trkpt>
      <trkpt lat="48.99424" lon="1.04117">
        <ele>126</ele>
        <time>2014-09-27T13:39:42.000Z</time>
      </trkpt>
      <trkpt lat="48.99438" lon="1.04122">
        <ele>126</ele>
        <time>2014-09-27T13:39:44.000Z</time>
      </trkpt>
      <trkpt lat="48.99451" lon="1.04127">
        <ele>126</ele>
        <time>2014-09-27T13:39:46.000Z</time>
      </trkpt>
      <trkpt lat="48.99466" lon="1.04132">
        <ele>125</ele>
        <time>2014-09-27T13:39:48.000Z</time>
      </trkpt>
      <trkpt lat="48.99466" lon="1.04132">
        <ele>125</ele>
        <time>2014-09-27T13:39:50.000Z</time>
      </trkpt>
      <trkpt lat="48.99466" lon="1.04132">
        <ele>125</ele>
        <time>2014-09-27T13:39:54.000Z</time>
      </trkpt>
      <trkpt lat="48.99466" lon="1.04132">
        <ele>125</ele>
        <time>2014-09-27T13:39:56.000Z</time>
      </trkpt>
      <trkpt lat="48.99529" lon="1.0415">
        <ele>126</ele>
        <time>2014-09-27T13:40:00.000Z</time>
      </trkpt>
      <trkpt lat="48.9955" lon="1.04159">
        <ele>125</ele>
        <time>2014-09-27T13:40:04.000Z</time>
      </trkpt>
      <trkpt lat="48.99566" lon="1.04166">
        <ele>125</ele>
        <time>2014-09-27T13:40:08.000Z</time>
      </trkpt>
      <trkpt lat="48.99566" lon="1.04166">
        <ele>125</ele>
        <time>2014-09-27T13:40:10.000Z</time>
      </trkpt>
      <trkpt lat="48.99595" lon="1.04181">
        <ele>128</ele>
        <time>2014-09-27T13:40:14.000Z</time>
      </trkpt>
      <trkpt lat="48.99612" lon="1.04198">
        <ele>132</ele>
        <time>2014-09-27T13:40:18.000Z</time>
      </trkpt>
      <trkpt lat="48.99612" lon="1.04198">
        <ele>132</ele>
        <time>2014-09-27T13:40:20.000Z</time>
      </trkpt>
      <trkpt lat="48.99612" lon="1.04198">
        <ele>132</ele>
        <time>2014-09-27T13:40:22.000Z</time>
      </trkpt>
      <trkpt lat="48.99612" lon="1.04198">
        <ele>132</ele>
        <time>2014-09-27T13:40:24.000Z</time>
      </trkpt>
      <trkpt lat="48.99649" lon="1.04279">
        <ele>132</ele>
        <time>2014-09-27T13:40:30.000Z</time>
      </trkpt>
      <trkpt lat="48.99653" lon="1.04295">
        <ele>132</ele>
        <time>2014-09-27T13:40:32.000Z</time>
      </trkpt>
      <trkpt lat="48.99661" lon="1.04323">
        <ele>131</ele>
        <time>2014-09-27T13:40:36.000Z</time>
      </trkpt>
      <trkpt lat="48.99661" lon="1.04323">
        <ele>131</ele>
        <time>2014-09-27T13:40:38.000Z</time>
      </trkpt>
      <trkpt lat="48.99672" lon="1.04352">
        <ele>131</ele>
        <time>2014-09-27T13:40:40.000Z</time>
      </trkpt>
      <trkpt lat="48.99679" lon="1.04371">
        <ele>129</ele>
        <time>2014-09-27T13:40:42.000Z</time>
      </trkpt>
      <trkpt lat="48.99686" lon="1.04389">
        <ele>127</ele>
        <time>2014-09-27T13:40:44.000Z</time>
      </trkpt>
      <trkpt lat="48.99699" lon="1.04421">
        <ele>125</ele>
        <time>2014-09-27T13:40:48.000Z</time>
      </trkpt>
      <trkpt lat="48.99706" lon="1.04438">
        <ele>124</ele>
        <time>2014-09-27T13:40:50.000Z</time>
      </trkpt>
      <trkpt lat="48.99713" lon="1.04455">
        <ele>124</ele>
        <time>2014-09-27T13:40:52.000Z</time>
      </trkpt>
      <trkpt lat="48.9972" lon="1.04471">
        <ele>125</ele>
        <time>2014-09-27T13:40:54.000Z</time>
      </trkpt>
      <trkpt lat="48.99726" lon="1.04489">
        <ele>125</ele>
        <time>2014-09-27T13:40:56.000Z</time>
      </trkpt>
      <trkpt lat="48.99735" lon="1.04519">
        <ele>127</ele>
        <time>2014-09-27T13:41:00.000Z</time>
      </trkpt>
      <trkpt lat="48.99735" lon="1.04519">
        <ele>127</ele>
        <time>2014-09-27T13:41:02.000Z</time>
      </trkpt>
      <trkpt lat="48.99746" lon="1.04548">
        <ele>129</ele>
        <time>2014-09-27T13:41:04.000Z</time>
      </trkpt>
      <trkpt lat="48.99746" lon="1.04548">
        <ele>129</ele>
        <time>2014-09-27T13:41:06.000Z</time>
      </trkpt>
      <trkpt lat="48.99759" lon="1.04581">
        <ele>130</ele>
        <time>2014-09-27T13:41:08.000Z</time>
      </trkpt>
      <trkpt lat="48.99766" lon="1.04598">
        <ele>130</ele>
        <time>2014-09-27T13:41:10.000Z</time>
      </trkpt>
      <trkpt lat="48.99766" lon="1.04598">
        <ele>130</ele>
        <time>2014-09-27T13:41:12.000Z</time>
      </trkpt>
      <trkpt lat="48.9978" lon="1.04628">
        <ele>129</ele>
        <time>2014-09-27T13:41:14.000Z</time>
      </trkpt>
      <trkpt lat="48.9978" lon="1.04628">
        <ele>129</ele>
        <time>2014-09-27T13:41:16.000Z</time>
      </trkpt>
      <trkpt lat="48.9978" lon="1.04628">
        <ele>129</ele>
        <time>2014-09-27T13:41:18.000Z</time>
      </trkpt>
      <trkpt lat="48.9978" lon="1.04628">
        <ele>129</ele>
        <time>2014-09-27T13:41:20.000Z</time>
      </trkpt>
      <trkpt lat="48.9978" lon="1.04628">
        <ele>129</ele>
        <time>2014-09-27T13:41:22.000Z</time>
      </trkpt>
      <trkpt lat="48.9978" lon="1.04628">
        <ele>129</ele>
        <time>2014-09-27T13:41:24.000Z</time>
      </trkpt>
      <trkpt lat="48.99813" lon="1.0472">
        <ele>122</ele>
        <time>2014-09-27T13:41:30.000Z</time>
      </trkpt>
      <trkpt lat="48.99817" lon="1.04731">
        <ele>126</ele>
        <time>2014-09-27T13:41:34.000Z</time>
      </trkpt>
      <trkpt lat="48.99821" lon="1.04742">
        <ele>127</ele>
        <time>2014-09-27T13:41:36.000Z</time>
      </trkpt>
      <trkpt lat="48.99821" lon="1.04742">
        <ele>127</ele>
        <time>2014-09-27T13:41:38.000Z</time>
      </trkpt>
      <trkpt lat="48.99821" lon="1.04742">
        <ele>127</ele>
        <time>2014-09-27T13:41:40.000Z</time>
      </trkpt>
      <trkpt lat="48.99821" lon="1.04742">
        <ele>127</ele>
        <time>2014-09-27T13:41:42.000Z</time>
      </trkpt>
      <trkpt lat="48.99821" lon="1.04742">
        <ele>127</ele>
        <time>2014-09-27T13:41:44.000Z</time>
      </trkpt>
      <trkpt lat="48.99821" lon="1.04742">
        <ele>127</ele>
        <time>2014-09-27T13:41:46.000Z</time>
      </trkpt>
      <trkpt lat="48.99821" lon="1.04742">
        <ele>127</ele>
        <time>2014-09-27T13:41:48.000Z</time>
      </trkpt>
      <trkpt lat="48.99821" lon="1.04742">
        <ele>127</ele>
        <time>2014-09-27T13:41:50.000Z</time>
      </trkpt>
      <trkpt lat="48.99841" lon="1.048">
        <ele>128</ele>
        <time>2014-09-27T13:41:55.000Z</time>
      </trkpt>
      <trkpt lat="48.99853" lon="1.04834">
        <ele>128</ele>
        <time>2014-09-27T13:41:57.000Z</time>
      </trkpt>
      <trkpt lat="48.99861" lon="1.04857">
        <ele>128</ele>
        <time>2014-09-27T13:41:59.000Z</time>
      </trkpt>
      <trkpt lat="48.99866" lon="1.04875">
        <ele>126</ele>
        <time>2014-09-27T13:42:01.000Z</time>
      </trkpt>
      <trkpt lat="48.99871" lon="1.04889">
        <ele>126</ele>
        <time>2014-09-27T13:42:03.000Z</time>
      </trkpt>
      <trkpt lat="48.99877" lon="1.04917">
        <ele>123</ele>
        <time>2014-09-27T13:42:05.000Z</time>
      </trkpt>
      <trkpt lat="48.99877" lon="1.04917">
        <ele>123</ele>
        <time>2014-09-27T13:42:10.000Z</time>
      </trkpt>
      <trkpt lat="48.99877" lon="1.04917">
        <ele>123</ele>
        <time>2014-09-27T13:42:12.000Z</time>
      </trkpt>
      <trkpt lat="48.99895" lon="1.04978">
        <ele>125</ele>
        <time>2014-09-27T13:42:14.000Z</time>
      </trkpt>
      <trkpt lat="48.999" lon="1.04998">
        <ele>125</ele>
        <time>2014-09-27T13:42:16.000Z</time>
      </trkpt>
      <trkpt lat="48.99904" lon="1.05017">
        <ele>126</ele>
        <time>2014-09-27T13:42:18.000Z</time>
      </trkpt>
      <trkpt lat="48.9991" lon="1.05036">
        <ele>128</ele>
        <time>2014-09-27T13:42:20.000Z</time>
      </trkpt>
      <trkpt lat="48.99916" lon="1.05055">
        <ele>129</ele>
        <time>2014-09-27T13:42:22.000Z</time>
      </trkpt>
      <trkpt lat="48.99922" lon="1.05074">
        <ele>129</ele>
        <time>2014-09-27T13:42:24.000Z</time>
      </trkpt>
      <trkpt lat="48.99927" lon="1.05094">
        <ele>130</ele>
        <time>2014-09-27T13:42:26.000Z</time>
      </trkpt>
      <trkpt lat="48.99932" lon="1.05114">
        <ele>131</ele>
        <time>2014-09-27T13:42:28.000Z</time>
      </trkpt>
      <trkpt lat="48.99936" lon="1.05136">
        <ele>132</ele>
        <time>2014-09-27T13:42:30.000Z</time>
      </trkpt>
      <trkpt lat="48.9994" lon="1.05157">
        <ele>132</ele>
        <time>2014-09-27T13:42:32.000Z</time>
      </trkpt>
      <trkpt lat="48.9994" lon="1.05157">
        <ele>132</ele>
        <time>2014-09-27T13:42:34.000Z</time>
      </trkpt>
      <trkpt lat="48.99947" lon="1.05195">
        <ele>131</ele>
        <time>2014-09-27T13:42:36.000Z</time>
      </trkpt>
      <trkpt lat="48.99947" lon="1.05195">
        <ele>131</ele>
        <time>2014-09-27T13:42:38.000Z</time>
      </trkpt>
      <trkpt lat="48.99955" lon="1.0523">
        <ele>130</ele>
        <time>2014-09-27T13:42:40.000Z</time>
      </trkpt>
      <trkpt lat="48.9996" lon="1.05248">
        <ele>130</ele>
        <time>2014-09-27T13:42:42.000Z</time>
      </trkpt>
      <trkpt lat="48.99968" lon="1.05285">
        <ele>136</ele>
        <time>2014-09-27T13:42:46.000Z</time>
      </trkpt>
      <trkpt lat="48.99972" lon="1.05304">
        <ele>136</ele>
        <time>2014-09-27T13:42:48.000Z</time>
      </trkpt>
      <trkpt lat="48.99975" lon="1.05323">
        <ele>135</ele>
        <time>2014-09-27T13:42:50.000Z</time>
      </trkpt>
      <trkpt lat="48.99977" lon="1.05341">
        <ele>133</ele>
        <time>2014-09-27T13:42:52.000Z</time>
      </trkpt>
      <trkpt lat="48.99977" lon="1.05341">
        <ele>133</ele>
        <time>2014-09-27T13:42:54.000Z</time>
      </trkpt>
      <trkpt lat="48.99979" lon="1.05376">
        <ele>131</ele>
        <time>2014-09-27T13:42:56.000Z</time>
      </trkpt>
      <trkpt lat="48.99979" lon="1.05376">
        <ele>131</ele>
        <time>2014-09-27T13:42:58.000Z</time>
      </trkpt>
      <trkpt lat="48.99981" lon="1.05407">
        <ele>132</ele>
        <time>2014-09-27T13:43:00.000Z</time>
      </trkpt>
      <trkpt lat="48.99984" lon="1.05444">
        <ele>133</ele>
        <time>2014-09-27T13:43:04.000Z</time>
      </trkpt>
      <trkpt lat="48.99986" lon="1.05467">
        <ele>132</ele>
        <time>2014-09-27T13:43:06.000Z</time>
      </trkpt>
      <trkpt lat="48.99988" lon="1.05487">
        <ele>128</ele>
        <time>2014-09-27T13:43:08.000Z</time>
      </trkpt>
      <trkpt lat="48.9999" lon="1.05506">
        <ele>126</ele>
        <time>2014-09-27T13:43:10.000Z</time>
      </trkpt>
      <trkpt lat="48.9999" lon="1.05526">
        <ele>123</ele>
        <time>2014-09-27T13:43:12.000Z</time>
      </trkpt>
      <trkpt lat="48.99987" lon="1.05563">
        <ele>127</ele>
        <time>2014-09-27T13:43:16.000Z</time>
      </trkpt>
      <trkpt lat="48.99984" lon="1.05583">
        <ele>129</ele>
        <time>2014-09-27T13:43:18.000Z</time>
      </trkpt>
      <trkpt lat="48.99984" lon="1.05583">
        <ele>129</ele>
        <time>2014-09-27T13:43:20.000Z</time>
      </trkpt>
      <trkpt lat="48.99981" lon="1.0562">
        <ele>129</ele>
        <time>2014-09-27T13:43:22.000Z</time>
      </trkpt>
      <trkpt lat="48.9998" lon="1.05641">
        <ele>127</ele>
        <time>2014-09-27T13:43:24.000Z</time>
      </trkpt>
      <trkpt lat="48.99979" lon="1.05661">
        <ele>126</ele>
        <time>2014-09-27T13:43:26.000Z</time>
      </trkpt>
      <trkpt lat="48.99979" lon="1.05681">
        <ele>125</ele>
        <time>2014-09-27T13:43:28.000Z</time>
      </trkpt>
      <trkpt lat="48.99978" lon="1.05702">
        <ele>123</ele>
        <time>2014-09-27T13:43:30.000Z</time>
      </trkpt>
      <trkpt lat="48.99977" lon="1.05722">
        <ele>121</ele>
        <time>2014-09-27T13:43:32.000Z</time>
      </trkpt>
      <trkpt lat="48.99977" lon="1.05722">
        <ele>121</ele>
        <time>2014-09-27T13:43:34.000Z</time>
      </trkpt>
      <trkpt lat="48.99974" lon="1.05757">
        <ele>117</ele>
        <time>2014-09-27T13:43:36.000Z</time>
      </trkpt>
      <trkpt lat="48.99974" lon="1.05757">
        <ele>117</ele>
        <time>2014-09-27T13:43:38.000Z</time>
      </trkpt>
      <trkpt lat="48.99974" lon="1.05757">
        <ele>117</ele>
        <time>2014-09-27T13:43:40.000Z</time>
      </trkpt>
      <trkpt lat="48.99974" lon="1.05757">
        <ele>117</ele>
        <time>2014-09-27T13:43:42.000Z</time>
      </trkpt>
      <trkpt lat="48.99966" lon="1.05825">
        <ele>113</ele>
        <time>2014-09-27T13:43:44.000Z</time>
      </trkpt>
      <trkpt lat="48.99964" lon="1.05859">
        <ele>115</ele>
        <time>2014-09-27T13:43:48.000Z</time>
      </trkpt>
      <trkpt lat="48.9996" lon="1.0588">
        <ele>115</ele>
        <time>2014-09-27T13:43:50.000Z</time>
      </trkpt>
      <trkpt lat="48.99957" lon="1.05901">
        <ele>116</ele>
        <time>2014-09-27T13:43:52.000Z</time>
      </trkpt>
      <trkpt lat="48.99957" lon="1.05901">
        <ele>116</ele>
        <time>2014-09-27T13:43:54.000Z</time>
      </trkpt>
      <trkpt lat="48.99953" lon="1.05938">
        <ele>115</ele>
        <time>2014-09-27T13:43:56.000Z</time>
      </trkpt>
      <trkpt lat="48.99953" lon="1.05938">
        <ele>115</ele>
        <time>2014-09-27T13:43:58.000Z</time>
      </trkpt>
      <trkpt lat="48.99953" lon="1.05938">
        <ele>115</ele>
        <time>2014-09-27T13:44:00.000Z</time>
      </trkpt>
      <trkpt lat="48.99943" lon="1.06022">
        <ele>110</ele>
        <time>2014-09-27T13:44:06.000Z</time>
      </trkpt>
      <trkpt lat="48.9994" lon="1.06039">
        <ele>111</ele>
        <time>2014-09-27T13:44:08.000Z</time>
      </trkpt>
      <trkpt lat="48.99937" lon="1.06055">
        <ele>112</ele>
        <time>2014-09-27T13:44:10.000Z</time>
      </trkpt>
      <trkpt lat="48.99933" lon="1.06073">
        <ele>111</ele>
        <time>2014-09-27T13:44:12.000Z</time>
      </trkpt>
      <trkpt lat="48.99929" lon="1.06108">
        <ele>111</ele>
        <time>2014-09-27T13:44:16.000Z</time>
      </trkpt>
      <trkpt lat="48.99929" lon="1.06108">
        <ele>111</ele>
        <time>2014-09-27T13:44:18.000Z</time>
      </trkpt>
      <trkpt lat="48.99923" lon="1.06145">
        <ele>109</ele>
        <time>2014-09-27T13:44:20.000Z</time>
      </trkpt>
      <trkpt lat="48.99919" lon="1.06166">
        <ele>110</ele>
        <time>2014-09-27T13:44:22.000Z</time>
      </trkpt>
      <trkpt lat="48.99915" lon="1.06185">
        <ele>110</ele>
        <time>2014-09-27T13:44:24.000Z</time>
      </trkpt>
      <trkpt lat="48.9991" lon="1.06204">
        <ele>110</ele>
        <time>2014-09-27T13:44:26.000Z</time>
      </trkpt>
      <trkpt lat="48.9991" lon="1.06204">
        <ele>110</ele>
        <time>2014-09-27T13:44:28.000Z</time>
      </trkpt>
      <trkpt lat="48.99904" lon="1.06235">
        <ele>110</ele>
        <time>2014-09-27T13:44:30.000Z</time>
      </trkpt>
      <trkpt lat="48.99904" lon="1.06235">
        <ele>110</ele>
        <time>2014-09-27T13:44:32.000Z</time>
      </trkpt>
      <trkpt lat="48.99899" lon="1.06262">
        <ele>113</ele>
        <time>2014-09-27T13:44:34.000Z</time>
      </trkpt>
      <trkpt lat="48.99899" lon="1.06262">
        <ele>113</ele>
        <time>2014-09-27T13:44:36.000Z</time>
      </trkpt>
      <trkpt lat="48.99891" lon="1.06293">
        <ele>113</ele>
        <time>2014-09-27T13:44:38.000Z</time>
      </trkpt>
      <trkpt lat="48.99883" lon="1.06325">
        <ele>119</ele>
        <time>2014-09-27T13:44:42.000Z</time>
      </trkpt>
      <trkpt lat="48.99876" lon="1.06357">
        <ele>124</ele>
        <time>2014-09-27T13:44:46.000Z</time>
      </trkpt>
      <trkpt lat="48.99876" lon="1.06357">
        <ele>124</ele>
        <time>2014-09-27T13:44:50.000Z</time>
      </trkpt>
      <trkpt lat="48.99876" lon="1.06357">
        <ele>124</ele>
        <time>2014-09-27T13:44:52.000Z</time>
      </trkpt>
      <trkpt lat="48.99868" lon="1.06399">
        <ele>121</ele>
        <time>2014-09-27T13:44:56.000Z</time>
      </trkpt>
      <trkpt lat="48.99862" lon="1.06429">
        <ele>120</ele>
        <time>2014-09-27T13:44:58.000Z</time>
      </trkpt>
      <trkpt lat="48.99857" lon="1.06453">
        <ele>120</ele>
        <time>2014-09-27T13:45:00.000Z</time>
      </trkpt>
      <trkpt lat="48.99853" lon="1.06473">
        <ele>120</ele>
        <time>2014-09-27T13:45:02.000Z</time>
      </trkpt>
      <trkpt lat="48.99849" lon="1.06492">
        <ele>117</ele>
        <time>2014-09-27T13:45:04.000Z</time>
      </trkpt>
      <trkpt lat="48.9984" lon="1.06528">
        <ele>115</ele>
        <time>2014-09-27T13:45:06.000Z</time>
      </trkpt>
      <trkpt lat="48.9984" lon="1.06528">
        <ele>115</ele>
        <time>2014-09-27T13:45:08.000Z</time>
      </trkpt>
      <trkpt lat="48.99836" lon="1.06565">
        <ele>113</ele>
        <time>2014-09-27T13:45:10.000Z</time>
      </trkpt>
      <trkpt lat="48.99819" lon="1.0699">
        <ele>169</ele>
        <time>2014-09-27T13:45:52.000Z</time>
      </trkpt>
      <trkpt lat="48.99825" lon="1.07016">
        <ele>155</ele>
        <time>2014-09-27T13:45:54.000Z</time>
      </trkpt>
      <trkpt lat="48.99826" lon="1.07038">
        <ele>146</ele>
        <time>2014-09-27T13:45:56.000Z</time>
      </trkpt>
      <trkpt lat="48.99831" lon="1.07081">
        <ele>132</ele>
        <time>2014-09-27T13:45:59.000Z</time>
      </trkpt>
      <trkpt lat="48.9983" lon="1.07105">
        <ele>127</ele>
        <time>2014-09-27T13:46:01.000Z</time>
      </trkpt>
      <trkpt lat="48.9983" lon="1.07129">
        <ele>121</ele>
        <time>2014-09-27T13:46:03.000Z</time>
      </trkpt>
      <trkpt lat="48.99831" lon="1.07152">
        <ele>119</ele>
        <time>2014-09-27T13:46:05.000Z</time>
      </trkpt>
      <trkpt lat="48.99832" lon="1.07174">
        <ele>115</ele>
        <time>2014-09-27T13:46:07.000Z</time>
      </trkpt>
      <trkpt lat="48.99833" lon="1.07194">
        <ele>112</ele>
        <time>2014-09-27T13:46:09.000Z</time>
      </trkpt>
      <trkpt lat="48.99833" lon="1.07215">
        <ele>111</ele>
        <time>2014-09-27T13:46:11.000Z</time>
      </trkpt>
      <trkpt lat="48.99833" lon="1.07215">
        <ele>111</ele>
        <time>2014-09-27T13:46:13.000Z</time>
      </trkpt>
      <trkpt lat="48.99839" lon="1.07251">
        <ele>108</ele>
        <time>2014-09-27T13:46:15.000Z</time>
      </trkpt>
      <trkpt lat="48.99839" lon="1.07251">
        <ele>108</ele>
        <time>2014-09-27T13:46:19.000Z</time>
      </trkpt>
      <trkpt lat="48.99839" lon="1.07251">
        <ele>108</ele>
        <time>2014-09-27T13:46:22.000Z</time>
      </trkpt>
      <trkpt lat="48.99839" lon="1.07251">
        <ele>108</ele>
        <time>2014-09-27T13:46:27.000Z</time>
      </trkpt>
      <trkpt lat="48.99839" lon="1.07251">
        <ele>108</ele>
        <time>2014-09-27T13:46:29.000Z</time>
      </trkpt>
      <trkpt lat="48.99839" lon="1.07251">
        <ele>108</ele>
        <time>2014-09-27T13:46:31.000Z</time>
      </trkpt>
      <trkpt lat="48.99839" lon="1.07251">
        <ele>108</ele>
        <time>2014-09-27T13:46:33.000Z</time>
      </trkpt>
      <trkpt lat="48.99839" lon="1.07251">
        <ele>108</ele>
        <time>2014-09-27T13:46:35.000Z</time>
      </trkpt>
      <trkpt lat="48.99836" lon="1.07416">
        <ele>116</ele>
        <time>2014-09-27T13:46:41.000Z</time>
      </trkpt>
      <trkpt lat="48.99834" lon="1.07444">
        <ele>118</ele>
        <time>2014-09-27T13:46:45.000Z</time>
      </trkpt>
      <trkpt lat="48.99834" lon="1.07472">
        <ele>117</ele>
        <time>2014-09-27T13:46:49.000Z</time>
      </trkpt>
      <trkpt lat="48.99834" lon="1.0749">
        <ele>117</ele>
        <time>2014-09-27T13:46:51.000Z</time>
      </trkpt>
      <trkpt lat="48.99833" lon="1.07508">
        <ele>117</ele>
        <time>2014-09-27T13:46:53.000Z</time>
      </trkpt>
      <trkpt lat="48.99833" lon="1.07525">
        <ele>116</ele>
        <time>2014-09-27T13:46:55.000Z</time>
      </trkpt>
      <trkpt lat="48.99833" lon="1.07558">
        <ele>116</ele>
        <time>2014-09-27T13:46:59.000Z</time>
      </trkpt>
      <trkpt lat="48.99833" lon="1.07558">
        <ele>116</ele>
        <time>2014-09-27T13:47:01.000Z</time>
      </trkpt>
      <trkpt lat="48.99834" lon="1.07588">
        <ele>115</ele>
        <time>2014-09-27T13:47:03.000Z</time>
      </trkpt>
      <trkpt lat="48.99834" lon="1.07588">
        <ele>115</ele>
        <time>2014-09-27T13:47:05.000Z</time>
      </trkpt>
      <trkpt lat="48.99837" lon="1.07652">
        <ele>114</ele>
        <time>2014-09-27T13:47:11.000Z</time>
      </trkpt>
      <trkpt lat="48.9984" lon="1.07689">
        <ele>114</ele>
        <time>2014-09-27T13:47:16.000Z</time>
      </trkpt>
      <trkpt lat="48.9984" lon="1.07689">
        <ele>114</ele>
        <time>2014-09-27T13:47:20.000Z</time>
      </trkpt>
      <trkpt lat="48.99839" lon="1.07774">
        <ele>111</ele>
        <time>2014-09-27T13:47:26.000Z</time>
      </trkpt>
      <trkpt lat="48.99844" lon="1.07798">
        <ele>113</ele>
        <time>2014-09-27T13:47:29.000Z</time>
      </trkpt>
      <trkpt lat="48.99844" lon="1.07798">
        <ele>113</ele>
        <time>2014-09-27T13:47:31.000Z</time>
      </trkpt>
      <trkpt lat="48.99851" lon="1.07827">
        <ele>117</ele>
        <time>2014-09-27T13:47:33.000Z</time>
      </trkpt>
      <trkpt lat="48.99853" lon="1.07843">
        <ele>118</ele>
        <time>2014-09-27T13:47:35.000Z</time>
      </trkpt>
      <trkpt lat="48.99855" lon="1.0786">
        <ele>120</ele>
        <time>2014-09-27T13:47:37.000Z</time>
      </trkpt>
      <trkpt lat="48.99857" lon="1.07877">
        <ele>121</ele>
        <time>2014-09-27T13:47:39.000Z</time>
      </trkpt>
      <trkpt lat="48.99859" lon="1.07893">
        <ele>121</ele>
        <time>2014-09-27T13:47:41.000Z</time>
      </trkpt>
      <trkpt lat="48.99859" lon="1.07893">
        <ele>121</ele>
        <time>2014-09-27T13:47:43.000Z</time>
      </trkpt>
      <trkpt lat="48.99859" lon="1.07893">
        <ele>121</ele>
        <time>2014-09-27T13:47:45.000Z</time>
      </trkpt>
      <trkpt lat="48.99859" lon="1.07893">
        <ele>121</ele>
        <time>2014-09-27T13:47:47.000Z</time>
      </trkpt>
      <trkpt lat="48.99859" lon="1.07893">
        <ele>121</ele>
        <time>2014-09-27T13:47:49.000Z</time>
      </trkpt>
      <trkpt lat="48.99859" lon="1.07893">
        <ele>121</ele>
        <time>2014-09-27T13:47:51.000Z</time>
      </trkpt>
      <trkpt lat="48.99859" lon="1.07893">
        <ele>121</ele>
        <time>2014-09-27T13:47:53.000Z</time>
      </trkpt>
      <trkpt lat="48.99859" lon="1.07893">
        <ele>121</ele>
        <time>2014-09-27T13:47:55.000Z</time>
      </trkpt>
      <trkpt lat="48.99866" lon="1.07964">
        <ele>126</ele>
        <time>2014-09-27T13:48:01.000Z</time>
      </trkpt>
      <trkpt lat="48.9987" lon="1.08008">
        <ele>125</ele>
        <time>2014-09-27T13:48:03.000Z</time>
      </trkpt>
      <trkpt lat="48.99874" lon="1.08037">
        <ele>126</ele>
        <time>2014-09-27T13:48:05.000Z</time>
      </trkpt>
      <trkpt lat="48.99876" lon="1.08062">
        <ele>125</ele>
        <time>2014-09-27T13:48:07.000Z</time>
      </trkpt>
      <trkpt lat="48.99876" lon="1.08062">
        <ele>125</ele>
        <time>2014-09-27T13:48:09.000Z</time>
      </trkpt>
      <trkpt lat="48.9988" lon="1.08088">
        <ele>122</ele>
        <time>2014-09-27T13:48:11.000Z</time>
      </trkpt>
      <trkpt lat="48.99883" lon="1.08107">
        <ele>122</ele>
        <time>2014-09-27T13:48:13.000Z</time>
      </trkpt>
      <trkpt lat="48.99886" lon="1.08125">
        <ele>121</ele>
        <time>2014-09-27T13:48:15.000Z</time>
      </trkpt>
      <trkpt lat="48.99889" lon="1.08141">
        <ele>122</ele>
        <time>2014-09-27T13:48:17.000Z</time>
      </trkpt>
      <trkpt lat="48.99891" lon="1.08157">
        <ele>122</ele>
        <time>2014-09-27T13:48:19.000Z</time>
      </trkpt>
      <trkpt lat="48.99895" lon="1.0819">
        <ele>121</ele>
        <time>2014-09-27T13:48:21.000Z</time>
      </trkpt>
      <trkpt lat="48.999" lon="1.08225">
        <ele>117</ele>
        <time>2014-09-27T13:48:25.000Z</time>
      </trkpt>
      <trkpt lat="48.99902" lon="1.08242">
        <ele>117</ele>
        <time>2014-09-27T13:48:27.000Z</time>
      </trkpt>
      <trkpt lat="48.99902" lon="1.08242">
        <ele>117</ele>
        <time>2014-09-27T13:48:29.000Z</time>
      </trkpt>
      <trkpt lat="48.99902" lon="1.08242">
        <ele>117</ele>
        <time>2014-09-27T13:48:31.000Z</time>
      </trkpt>
      <trkpt lat="48.99902" lon="1.08242">
        <ele>117</ele>
        <time>2014-09-27T13:48:33.000Z</time>
      </trkpt>
      <trkpt lat="48.99902" lon="1.08242">
        <ele>117</ele>
        <time>2014-09-27T13:48:35.000Z</time>
      </trkpt>
      <trkpt lat="48.99902" lon="1.08242">
        <ele>117</ele>
        <time>2014-09-27T13:48:37.000Z</time>
      </trkpt>
      <trkpt lat="48.99915" lon="1.08319">
        <ele>121</ele>
        <time>2014-09-27T13:48:53.000Z</time>
      </trkpt>
      <trkpt lat="48.99921" lon="1.08352">
        <ele>125</ele>
        <time>2014-09-27T13:48:57.000Z</time>
      </trkpt>
      <trkpt lat="48.99928" lon="1.0839">
        <ele>128</ele>
        <time>2014-09-27T13:49:01.000Z</time>
      </trkpt>
      <trkpt lat="48.99932" lon="1.08412">
        <ele>128</ele>
        <time>2014-09-27T13:49:03.000Z</time>
      </trkpt>
      <trkpt lat="48.99934" lon="1.08433">
        <ele>129</ele>
        <time>2014-09-27T13:49:05.000Z</time>
      </trkpt>
      <trkpt lat="48.99938" lon="1.08452">
        <ele>128</ele>
        <time>2014-09-27T13:49:07.000Z</time>
      </trkpt>
      <trkpt lat="48.99942" lon="1.08473">
        <ele>127</ele>
        <time>2014-09-27T13:49:09.000Z</time>
      </trkpt>
      <trkpt lat="48.99941" lon="1.08497">
        <ele>125</ele>
        <time>2014-09-27T13:49:11.000Z</time>
      </trkpt>
      <trkpt lat="48.99943" lon="1.08518">
        <ele>124</ele>
        <time>2014-09-27T13:49:13.000Z</time>
      </trkpt>
      <trkpt lat="48.99943" lon="1.08518">
        <ele>124</ele>
        <time>2014-09-27T13:49:15.000Z</time>
      </trkpt>
      <trkpt lat="48.99947" lon="1.08556">
        <ele>120</ele>
        <time>2014-09-27T13:49:17.000Z</time>
      </trkpt>
      <trkpt lat="48.99947" lon="1.08556">
        <ele>120</ele>
        <time>2014-09-27T13:49:19.000Z</time>
      </trkpt>
      <trkpt lat="48.99953" lon="1.08586">
        <ele>117</ele>
        <time>2014-09-27T13:49:21.000Z</time>
      </trkpt>
      <trkpt lat="48.99953" lon="1.08586">
        <ele>117</ele>
        <time>2014-09-27T13:49:23.000Z</time>
      </trkpt>
      <trkpt lat="48.99953" lon="1.08586">
        <ele>117</ele>
        <time>2014-09-27T13:49:25.000Z</time>
      </trkpt>
      <trkpt lat="48.99953" lon="1.08586">
        <ele>117</ele>
        <time>2014-09-27T13:49:27.000Z</time>
      </trkpt>
      <trkpt lat="48.99953" lon="1.08586">
        <ele>117</ele>
        <time>2014-09-27T13:49:29.000Z</time>
      </trkpt>
      <trkpt lat="48.99953" lon="1.08586">
        <ele>117</ele>
        <time>2014-09-27T13:49:31.000Z</time>
      </trkpt>
      <trkpt lat="48.99953" lon="1.08586">
        <ele>117</ele>
        <time>2014-09-27T13:49:33.000Z</time>
      </trkpt>
      <trkpt lat="48.99953" lon="1.08586">
        <ele>117</ele>
        <time>2014-09-27T13:49:35.000Z</time>
      </trkpt>
      <trkpt lat="48.99982" lon="1.08733">
        <ele>111</ele>
        <time>2014-09-27T13:49:41.000Z</time>
      </trkpt>
      <trkpt lat="48.99983" lon="1.08748">
        <ele>112</ele>
        <time>2014-09-27T13:49:43.000Z</time>
      </trkpt>
      <trkpt lat="48.99984" lon="1.08762">
        <ele>113</ele>
        <time>2014-09-27T13:49:45.000Z</time>
      </trkpt>
      <trkpt lat="48.99984" lon="1.08762">
        <ele>113</ele>
        <time>2014-09-27T13:49:47.000Z</time>
      </trkpt>
      <trkpt lat="48.99984" lon="1.08762">
        <ele>113</ele>
        <time>2014-09-27T13:49:49.000Z</time>
      </trkpt>
      <trkpt lat="48.99984" lon="1.08762">
        <ele>113</ele>
        <time>2014-09-27T13:49:51.000Z</time>
      </trkpt>
      <trkpt lat="48.99984" lon="1.08762">
        <ele>113</ele>
        <time>2014-09-27T13:49:53.000Z</time>
      </trkpt>
      <trkpt lat="48.99984" lon="1.08762">
        <ele>113</ele>
        <time>2014-09-27T13:49:55.000Z</time>
      </trkpt>
      <trkpt lat="48.99984" lon="1.08762">
        <ele>113</ele>
        <time>2014-09-27T13:49:57.000Z</time>
      </trkpt>
      <trkpt lat="48.99984" lon="1.08762">
        <ele>113</ele>
        <time>2014-09-27T13:49:59.000Z</time>
      </trkpt>
      <trkpt lat="48.99996" lon="1.08898">
        <ele>105</ele>
        <time>2014-09-27T13:50:05.000Z</time>
      </trkpt>
      <trkpt lat="48.99996" lon="1.08927">
        <ele>107</ele>
        <time>2014-09-27T13:50:09.000Z</time>
      </trkpt>
      <trkpt lat="48.99996" lon="1.08941">
        <ele>106</ele>
        <time>2014-09-27T13:50:11.000Z</time>
      </trkpt>
      <trkpt lat="48.99997" lon="1.0897">
        <ele>103</ele>
        <time>2014-09-27T13:50:15.000Z</time>
      </trkpt>
      <trkpt lat="48.99998" lon="1.08986">
        <ele>102</ele>
        <time>2014-09-27T13:50:17.000Z</time>
      </trkpt>
      <trkpt lat="48.99998" lon="1.09018">
        <ele>104</ele>
        <time>2014-09-27T13:50:21.000Z</time>
      </trkpt>
      <trkpt lat="48.99999" lon="1.09035">
        <ele>105</ele>
        <time>2014-09-27T13:50:23.000Z</time>
      </trkpt>
      <trkpt lat="48.99999" lon="1.09071">
        <ele>107</ele>
        <time>2014-09-27T13:50:27.000Z</time>
      </trkpt>
      <trkpt lat="48.99998" lon="1.09104">
        <ele>108</ele>
        <time>2014-09-27T13:50:31.000Z</time>
      </trkpt>
      <trkpt lat="48.99998" lon="1.09104">
        <ele>108</ele>
        <time>2014-09-27T13:50:33.000Z</time>
      </trkpt>
      <trkpt lat="48.99999" lon="1.09134">
        <ele>108</ele>
        <time>2014-09-27T13:50:35.000Z</time>
      </trkpt>
      <trkpt lat="48.99999" lon="1.09134">
        <ele>108</ele>
        <time>2014-09-27T13:50:37.000Z</time>
      </trkpt>
      <trkpt lat="48.99999" lon="1.09134">
        <ele>108</ele>
        <time>2014-09-27T13:50:39.000Z</time>
      </trkpt>
      <trkpt lat="48.99999" lon="1.09134">
        <ele>108</ele>
        <time>2014-09-27T13:50:41.000Z</time>
      </trkpt>
      <trkpt lat="48.99999" lon="1.09134">
        <ele>108</ele>
        <time>2014-09-27T13:50:43.000Z</time>
      </trkpt>
      <trkpt lat="48.99999" lon="1.09134">
        <ele>108</ele>
        <time>2014-09-27T13:50:45.000Z</time>
      </trkpt>
      <trkpt lat="48.99999" lon="1.09134">
        <ele>108</ele>
        <time>2014-09-27T13:50:47.000Z</time>
      </trkpt>
      <trkpt lat="49.00004" lon="1.09193">
        <ele>109</ele>
        <time>2014-09-27T13:50:51.000Z</time>
      </trkpt>
      <trkpt lat="49.00007" lon="1.0923">
        <ele>109</ele>
        <time>2014-09-27T13:50:53.000Z</time>
      </trkpt>
      <trkpt lat="49.0001" lon="1.09256">
        <ele>110</ele>
        <time>2014-09-27T13:50:55.000Z</time>
      </trkpt>
      <trkpt lat="49.00012" lon="1.09277">
        <ele>109</ele>
        <time>2014-09-27T13:50:57.000Z</time>
      </trkpt>
      <trkpt lat="49.00014" lon="1.09295">
        <ele>107</ele>
        <time>2014-09-27T13:50:59.000Z</time>
      </trkpt>
      <trkpt lat="49.00014" lon="1.09295">
        <ele>107</ele>
        <time>2014-09-27T13:51:01.000Z</time>
      </trkpt>
      <trkpt lat="49.00014" lon="1.09295">
        <ele>107</ele>
        <time>2014-09-27T13:51:03.000Z</time>
      </trkpt>
      <trkpt lat="49.00014" lon="1.09295">
        <ele>107</ele>
        <time>2014-09-27T13:51:05.000Z</time>
      </trkpt>
      <trkpt lat="49.00014" lon="1.09295">
        <ele>107</ele>
        <time>2014-09-27T13:51:07.000Z</time>
      </trkpt>
      <trkpt lat="49.00014" lon="1.09295">
        <ele>107</ele>
        <time>2014-09-27T13:51:09.000Z</time>
      </trkpt>
      <trkpt lat="49.00014" lon="1.09295">
        <ele>107</ele>
        <time>2014-09-27T13:51:11.000Z</time>
      </trkpt>
      <trkpt lat="49.00014" lon="1.09295">
        <ele>107</ele>
        <time>2014-09-27T13:51:13.000Z</time>
      </trkpt>
      <trkpt lat="49.00014" lon="1.09295">
        <ele>107</ele>
        <time>2014-09-27T13:51:15.000Z</time>
      </trkpt>
      <trkpt lat="49.00014" lon="1.09295">
        <ele>107</ele>
        <time>2014-09-27T13:51:17.000Z</time>
      </trkpt>
      <trkpt lat="49.00014" lon="1.09295">
        <ele>107</ele>
        <time>2014-09-27T13:51:19.000Z</time>
      </trkpt>
      <trkpt lat="49.00049" lon="1.09461">
        <ele>114</ele>
        <time>2014-09-27T13:51:23.000Z</time>
      </trkpt>
      <trkpt lat="49.00055" lon="1.09485">
        <ele>112</ele>
        <time>2014-09-27T13:51:27.000Z</time>
      </trkpt>
      <trkpt lat="49.00055" lon="1.09485">
        <ele>112</ele>
        <time>2014-09-27T13:51:29.000Z</time>
      </trkpt>
      <trkpt lat="49.00055" lon="1.09485">
        <ele>112</ele>
        <time>2014-09-27T13:51:31.000Z</time>
      </trkpt>
      <trkpt lat="49.00055" lon="1.09485">
        <ele>112</ele>
        <time>2014-09-27T13:51:33.000Z</time>
      </trkpt>
      <trkpt lat="49.00055" lon="1.09485">
        <ele>112</ele>
        <time>2014-09-27T13:51:35.000Z</time>
      </trkpt>
      <trkpt lat="49.00055" lon="1.09485">
        <ele>112</ele>
        <time>2014-09-27T13:51:37.000Z</time>
      </trkpt>
      <trkpt lat="49.00081" lon="1.09563">
        <ele>119</ele>
        <time>2014-09-27T13:51:41.000Z</time>
      </trkpt>
      <trkpt lat="49.00086" lon="1.09575">
        <ele>119</ele>
        <time>2014-09-27T13:51:43.000Z</time>
      </trkpt>
      <trkpt lat="49.00092" lon="1.09587">
        <ele>118</ele>
        <time>2014-09-27T13:51:45.000Z</time>
      </trkpt>
      <trkpt lat="49.00098" lon="1.096">
        <ele>118</ele>
        <time>2014-09-27T13:51:47.000Z</time>
      </trkpt>
      <trkpt lat="49.00109" lon="1.09623">
        <ele>125</ele>
        <time>2014-09-27T13:51:51.000Z</time>
      </trkpt>
      <trkpt lat="49.00109" lon="1.09623">
        <ele>125</ele>
        <time>2014-09-27T13:51:53.000Z</time>
      </trkpt>
      <trkpt lat="49.00127" lon="1.09666">
        <ele>122</ele>
        <time>2014-09-27T13:51:59.000Z</time>
      </trkpt>
      <trkpt lat="49.00138" lon="1.0969">
        <ele>122</ele>
        <time>2014-09-27T13:52:03.000Z</time>
      </trkpt>
      <trkpt lat="49.00138" lon="1.0969">
        <ele>122</ele>
        <time>2014-09-27T13:52:05.000Z</time>
      </trkpt>
      <trkpt lat="49.00148" lon="1.09714">
        <ele>121</ele>
        <time>2014-09-27T13:52:07.000Z</time>
      </trkpt>
      <trkpt lat="49.00148" lon="1.09714">
        <ele>121</ele>
        <time>2014-09-27T13:52:09.000Z</time>
      </trkpt>
      <trkpt lat="49.00148" lon="1.09714">
        <ele>121</ele>
        <time>2014-09-27T13:52:11.000Z</time>
      </trkpt>
      <trkpt lat="49.00148" lon="1.09714">
        <ele>121</ele>
        <time>2014-09-27T13:52:13.000Z</time>
      </trkpt>
      <trkpt lat="49.00148" lon="1.09714">
        <ele>121</ele>
        <time>2014-09-27T13:52:15.000Z</time>
      </trkpt>
      <trkpt lat="49.00183" lon="1.09772">
        <ele>115</ele>
        <time>2014-09-27T13:52:19.000Z</time>
      </trkpt>
      <trkpt lat="49.00188" lon="1.09784">
        <ele>116</ele>
        <time>2014-09-27T13:52:23.000Z</time>
      </trkpt>
      <trkpt lat="49.00193" lon="1.09796">
        <ele>116</ele>
        <time>2014-09-27T13:52:25.000Z</time>
      </trkpt>
      <trkpt lat="49.00198" lon="1.09807">
        <ele>116</ele>
        <time>2014-09-27T13:52:28.000Z</time>
      </trkpt>
      <trkpt lat="49.00198" lon="1.09807">
        <ele>116</ele>
        <time>2014-09-27T13:52:31.000Z</time>
      </trkpt>
      <trkpt lat="49.00198" lon="1.09807">
        <ele>116</ele>
        <time>2014-09-27T13:52:33.000Z</time>
      </trkpt>
      <trkpt lat="49.00198" lon="1.09807">
        <ele>116</ele>
        <time>2014-09-27T13:52:35.000Z</time>
      </trkpt>
      <trkpt lat="49.00222" lon="1.09838">
        <ele>120</ele>
        <time>2014-09-27T13:52:39.000Z</time>
      </trkpt>
      <trkpt lat="49.00239" lon="1.09858">
        <ele>119</ele>
        <time>2014-09-27T13:52:41.000Z</time>
      </trkpt>
      <trkpt lat="49.00251" lon="1.09872">
        <ele>119</ele>
        <time>2014-09-27T13:52:43.000Z</time>
      </trkpt>
      <trkpt lat="49.00261" lon="1.09885">
        <ele>118</ele>
        <time>2014-09-27T13:52:45.000Z</time>
      </trkpt>
      <trkpt lat="49.0027" lon="1.09896">
        <ele>118</ele>
        <time>2014-09-27T13:52:47.000Z</time>
      </trkpt>
      <trkpt lat="49.00285" lon="1.09916">
        <ele>118</ele>
        <time>2014-09-27T13:52:49.000Z</time>
      </trkpt>
      <trkpt lat="49.00285" lon="1.09916">
        <ele>118</ele>
        <time>2014-09-27T13:52:51.000Z</time>
      </trkpt>
      <trkpt lat="49.00285" lon="1.09916">
        <ele>118</ele>
        <time>2014-09-27T13:52:53.000Z</time>
      </trkpt>
      <trkpt lat="49.00285" lon="1.09916">
        <ele>118</ele>
        <time>2014-09-27T13:52:55.000Z</time>
      </trkpt>
      <trkpt lat="49.00285" lon="1.09916">
        <ele>118</ele>
        <time>2014-09-27T13:52:57.000Z</time>
      </trkpt>
      <trkpt lat="49.00285" lon="1.09916">
        <ele>118</ele>
        <time>2014-09-27T13:53:00.000Z</time>
      </trkpt>
      <trkpt lat="49.00343" lon="1.09993">
        <ele>120</ele>
        <time>2014-09-27T13:53:05.000Z</time>
      </trkpt>
      <trkpt lat="49.00351" lon="1.10006">
        <ele>120</ele>
        <time>2014-09-27T13:53:07.000Z</time>
      </trkpt>
      <trkpt lat="49.00366" lon="1.10032">
        <ele>119</ele>
        <time>2014-09-27T13:53:11.000Z</time>
      </trkpt>
      <trkpt lat="49.00383" lon="1.10053">
        <ele>119</ele>
        <time>2014-09-27T13:53:15.000Z</time>
      </trkpt>
      <trkpt lat="49.00404" lon="1.10078">
        <ele>115</ele>
        <time>2014-09-27T13:53:19.000Z</time>
      </trkpt>
      <trkpt lat="49.00415" lon="1.10092">
        <ele>114</ele>
        <time>2014-09-27T13:53:21.000Z</time>
      </trkpt>
      <trkpt lat="49.00425" lon="1.10106">
        <ele>113</ele>
        <time>2014-09-27T13:53:23.000Z</time>
      </trkpt>
      <trkpt lat="49.00425" lon="1.10106">
        <ele>113</ele>
        <time>2014-09-27T13:53:25.000Z</time>
      </trkpt>
      <trkpt lat="49.0044" lon="1.10127">
        <ele>111</ele>
        <time>2014-09-27T13:53:27.000Z</time>
      </trkpt>
      <trkpt lat="49.0044" lon="1.10127">
        <ele>111</ele>
        <time>2014-09-27T13:53:29.000Z</time>
      </trkpt>
      <trkpt lat="49.00455" lon="1.10153">
        <ele>112</ele>
        <time>2014-09-27T13:53:31.000Z</time>
      </trkpt>
      <trkpt lat="49.00455" lon="1.10153">
        <ele>112</ele>
        <time>2014-09-27T13:53:33.000Z</time>
      </trkpt>
      <trkpt lat="49.00455" lon="1.10153">
        <ele>112</ele>
        <time>2014-09-27T13:53:35.000Z</time>
      </trkpt>
      <trkpt lat="49.00455" lon="1.10153">
        <ele>112</ele>
        <time>2014-09-27T13:53:37.000Z</time>
      </trkpt>
      <trkpt lat="49.00455" lon="1.10153">
        <ele>112</ele>
        <time>2014-09-27T13:53:39.000Z</time>
      </trkpt>
      <trkpt lat="49.00455" lon="1.10153">
        <ele>112</ele>
        <time>2014-09-27T13:53:41.000Z</time>
      </trkpt>
      <trkpt lat="49.00455" lon="1.10153">
        <ele>112</ele>
        <time>2014-09-27T13:53:44.000Z</time>
      </trkpt>
      <trkpt lat="49.00455" lon="1.10153">
        <ele>112</ele>
        <time>2014-09-27T13:53:47.000Z</time>
      </trkpt>
      <trkpt lat="49.00455" lon="1.10153">
        <ele>112</ele>
        <time>2014-09-27T13:53:49.000Z</time>
      </trkpt>
      <trkpt lat="49.00455" lon="1.10153">
        <ele>112</ele>
        <time>2014-09-27T13:53:51.000Z</time>
      </trkpt>
      <trkpt lat="49.00455" lon="1.10153">
        <ele>112</ele>
        <time>2014-09-27T13:53:53.000Z</time>
      </trkpt>
      <trkpt lat="49.00554" lon="1.10279">
        <ele>110</ele>
        <time>2014-09-27T13:53:59.000Z</time>
      </trkpt>
      <trkpt lat="49.00574" lon="1.10295">
        <ele>109</ele>
        <time>2014-09-27T13:54:03.000Z</time>
      </trkpt>
      <trkpt lat="49.00594" lon="1.10314">
        <ele>111</ele>
        <time>2014-09-27T13:54:07.000Z</time>
      </trkpt>
      <trkpt lat="49.00613" lon="1.10331">
        <ele>109</ele>
        <time>2014-09-27T13:54:11.000Z</time>
      </trkpt>
      <trkpt lat="49.00613" lon="1.10331">
        <ele>109</ele>
        <time>2014-09-27T13:54:13.000Z</time>
      </trkpt>
      <trkpt lat="49.00613" lon="1.10331">
        <ele>109</ele>
        <time>2014-09-27T13:54:15.000Z</time>
      </trkpt>
      <trkpt lat="49.00653" lon="1.10363">
        <ele>109</ele>
        <time>2014-09-27T13:54:19.000Z</time>
      </trkpt>
      <trkpt lat="49.00664" lon="1.1037">
        <ele>109</ele>
        <time>2014-09-27T13:54:21.000Z</time>
      </trkpt>
      <trkpt lat="49.00676" lon="1.10377">
        <ele>107</ele>
        <time>2014-09-27T13:54:23.000Z</time>
      </trkpt>
      <trkpt lat="49.00688" lon="1.10384">
        <ele>106</ele>
        <time>2014-09-27T13:54:25.000Z</time>
      </trkpt>
      <trkpt lat="49.00701" lon="1.1039">
        <ele>104</ele>
        <time>2014-09-27T13:54:27.000Z</time>
      </trkpt>
      <trkpt lat="49.00713" lon="1.10395">
        <ele>100</ele>
        <time>2014-09-27T13:54:31.000Z</time>
      </trkpt>
      <trkpt lat="49.00726" lon="1.10401">
        <ele>101</ele>
        <time>2014-09-27T13:54:33.000Z</time>
      </trkpt>
      <trkpt lat="49.00738" lon="1.10406">
        <ele>102</ele>
        <time>2014-09-27T13:54:35.000Z</time>
      </trkpt>
      <trkpt lat="49.0075" lon="1.10411">
        <ele>104</ele>
        <time>2014-09-27T13:54:37.000Z</time>
      </trkpt>
      <trkpt lat="49.00762" lon="1.10417">
        <ele>105</ele>
        <time>2014-09-27T13:54:39.000Z</time>
      </trkpt>
      <trkpt lat="49.00787" lon="1.10429">
        <ele>106</ele>
        <time>2014-09-27T13:54:41.000Z</time>
      </trkpt>
      <trkpt lat="49.00798" lon="1.10435">
        <ele>106</ele>
        <time>2014-09-27T13:54:43.000Z</time>
      </trkpt>
      <trkpt lat="49.0081" lon="1.10441">
        <ele>107</ele>
        <time>2014-09-27T13:54:45.000Z</time>
      </trkpt>
      <trkpt lat="49.0081" lon="1.10441">
        <ele>107</ele>
        <time>2014-09-27T13:54:47.000Z</time>
      </trkpt>
      <trkpt lat="49.00831" lon="1.10452">
        <ele>109</ele>
        <time>2014-09-27T13:54:49.000Z</time>
      </trkpt>
      <trkpt lat="49.0084" lon="1.10457">
        <ele>110</ele>
        <time>2014-09-27T13:54:51.000Z</time>
      </trkpt>
      <trkpt lat="49.0085" lon="1.10461">
        <ele>111</ele>
        <time>2014-09-27T13:54:53.000Z</time>
      </trkpt>
      <trkpt lat="49.0086" lon="1.10465">
        <ele>112</ele>
        <time>2014-09-27T13:54:55.000Z</time>
      </trkpt>
      <trkpt lat="49.00885" lon="1.10474">
        <ele>115</ele>
        <time>2014-09-27T13:54:59.000Z</time>
      </trkpt>
      <trkpt lat="49.00909" lon="1.10485">
        <ele>113</ele>
        <time>2014-09-27T13:55:03.000Z</time>
      </trkpt>
      <trkpt lat="49.00909" lon="1.10485">
        <ele>113</ele>
        <time>2014-09-27T13:55:05.000Z</time>
      </trkpt>
      <trkpt lat="49.0093" lon="1.10499">
        <ele>112</ele>
        <time>2014-09-27T13:55:07.000Z</time>
      </trkpt>
      <trkpt lat="49.0093" lon="1.10499">
        <ele>112</ele>
        <time>2014-09-27T13:55:09.000Z</time>
      </trkpt>
      <trkpt lat="49.0093" lon="1.10499">
        <ele>112</ele>
        <time>2014-09-27T13:55:11.000Z</time>
      </trkpt>
      <trkpt lat="49.0093" lon="1.10499">
        <ele>112</ele>
        <time>2014-09-27T13:55:13.000Z</time>
      </trkpt>
      <trkpt lat="49.0093" lon="1.10499">
        <ele>112</ele>
        <time>2014-09-27T13:55:15.000Z</time>
      </trkpt>
      <trkpt lat="49.0093" lon="1.10499">
        <ele>112</ele>
        <time>2014-09-27T13:55:17.000Z</time>
      </trkpt>
      <trkpt lat="49.0093" lon="1.10499">
        <ele>112</ele>
        <time>2014-09-27T13:55:19.000Z</time>
      </trkpt>
      <trkpt lat="49.01002" lon="1.10535">
        <ele>107</ele>
        <time>2014-09-27T13:55:23.000Z</time>
      </trkpt>
      <trkpt lat="49.0102" lon="1.10546">
        <ele>102</ele>
        <time>2014-09-27T13:55:27.000Z</time>
      </trkpt>
      <trkpt lat="49.01038" lon="1.10555">
        <ele>97</ele>
        <time>2014-09-27T13:55:31.000Z</time>
      </trkpt>
      <trkpt lat="49.01038" lon="1.10555">
        <ele>97</ele>
        <time>2014-09-27T13:55:33.000Z</time>
      </trkpt>
      <trkpt lat="49.01038" lon="1.10555">
        <ele>97</ele>
        <time>2014-09-27T13:55:35.000Z</time>
      </trkpt>
      <trkpt lat="49.01038" lon="1.10555">
        <ele>97</ele>
        <time>2014-09-27T13:55:37.000Z</time>
      </trkpt>
      <trkpt lat="49.01038" lon="1.10555">
        <ele>97</ele>
        <time>2014-09-27T13:55:39.000Z</time>
      </trkpt>
      <trkpt lat="49.01089" lon="1.10581">
        <ele>109</ele>
        <time>2014-09-27T13:55:43.000Z</time>
      </trkpt>
      <trkpt lat="49.01108" lon="1.10589">
        <ele>111</ele>
        <time>2014-09-27T13:55:47.000Z</time>
      </trkpt>
      <trkpt lat="49.01126" lon="1.10597">
        <ele>110</ele>
        <time>2014-09-27T13:55:51.000Z</time>
      </trkpt>
      <trkpt lat="49.01126" lon="1.10597">
        <ele>110</ele>
        <time>2014-09-27T13:55:53.000Z</time>
      </trkpt>
      <trkpt lat="49.01146" lon="1.10611">
        <ele>111</ele>
        <time>2014-09-27T13:55:55.000Z</time>
      </trkpt>
      <trkpt lat="49.01167" lon="1.10625">
        <ele>112</ele>
        <time>2014-09-27T13:55:59.000Z</time>
      </trkpt>
      <trkpt lat="49.01167" lon="1.10625">
        <ele>112</ele>
        <time>2014-09-27T13:56:03.000Z</time>
      </trkpt>
      <trkpt lat="49.01167" lon="1.10625">
        <ele>112</ele>
        <time>2014-09-27T13:56:05.000Z</time>
      </trkpt>
      <trkpt lat="49.01167" lon="1.10625">
        <ele>112</ele>
        <time>2014-09-27T13:56:07.000Z</time>
      </trkpt>
      <trkpt lat="49.01238" lon="1.10659">
        <ele>117</ele>
        <time>2014-09-27T13:56:13.000Z</time>
      </trkpt>
      <trkpt lat="49.01257" lon="1.10666">
        <ele>115</ele>
        <time>2014-09-27T13:56:17.000Z</time>
      </trkpt>
      <trkpt lat="49.01266" lon="1.10671">
        <ele>114</ele>
        <time>2014-09-27T13:56:19.000Z</time>
      </trkpt>
      <trkpt lat="49.01266" lon="1.10671">
        <ele>114</ele>
        <time>2014-09-27T13:56:21.000Z</time>
      </trkpt>
      <trkpt lat="49.01266" lon="1.10671">
        <ele>114</ele>
        <time>2014-09-27T13:56:23.000Z</time>
      </trkpt>
      <trkpt lat="49.01266" lon="1.10671">
        <ele>114</ele>
        <time>2014-09-27T13:56:25.000Z</time>
      </trkpt>
      <trkpt lat="49.01266" lon="1.10671">
        <ele>114</ele>
        <time>2014-09-27T13:56:27.000Z</time>
      </trkpt>
      <trkpt lat="49.01297" lon="1.10689">
        <ele>112</ele>
        <time>2014-09-27T13:56:34.000Z</time>
      </trkpt>
      <trkpt lat="49.01315" lon="1.10703">
        <ele>115</ele>
        <time>2014-09-27T13:56:36.000Z</time>
      </trkpt>
      <trkpt lat="49.01329" lon="1.10716">
        <ele>116</ele>
        <time>2014-09-27T13:56:38.000Z</time>
      </trkpt>
      <trkpt lat="49.01339" lon="1.10727">
        <ele>116</ele>
        <time>2014-09-27T13:56:40.000Z</time>
      </trkpt>
      <trkpt lat="49.01347" lon="1.10737">
        <ele>117</ele>
        <time>2014-09-27T13:56:42.000Z</time>
      </trkpt>
      <trkpt lat="49.01347" lon="1.10737">
        <ele>117</ele>
        <time>2014-09-27T13:56:44.000Z</time>
      </trkpt>
      <trkpt lat="49.01347" lon="1.10737">
        <ele>117</ele>
        <time>2014-09-27T13:56:46.000Z</time>
      </trkpt>
      <trkpt lat="49.01347" lon="1.10737">
        <ele>117</ele>
        <time>2014-09-27T13:56:48.000Z</time>
      </trkpt>
      <trkpt lat="49.01347" lon="1.10737">
        <ele>117</ele>
        <time>2014-09-27T13:56:50.000Z</time>
      </trkpt>
      <trkpt lat="49.01347" lon="1.10737">
        <ele>117</ele>
        <time>2014-09-27T13:56:52.000Z</time>
      </trkpt>
      <trkpt lat="49.01347" lon="1.10737">
        <ele>117</ele>
        <time>2014-09-27T13:56:54.000Z</time>
      </trkpt>
      <trkpt lat="49.01347" lon="1.10737">
        <ele>117</ele>
        <time>2014-09-27T13:56:56.000Z</time>
      </trkpt>
      <trkpt lat="49.01347" lon="1.10737">
        <ele>117</ele>
        <time>2014-09-27T13:56:58.000Z</time>
      </trkpt>
      <trkpt lat="49.01347" lon="1.10737">
        <ele>117</ele>
        <time>2014-09-27T13:57:00.000Z</time>
      </trkpt>
      <trkpt lat="49.01445" lon="1.10782">
        <ele>117</ele>
        <time>2014-09-27T13:57:08.000Z</time>
      </trkpt>
      <trkpt lat="49.01456" lon="1.10775">
        <ele>118</ele>
        <time>2014-09-27T13:57:12.000Z</time>
      </trkpt>
      <trkpt lat="49.01471" lon="1.10779">
        <ele>119</ele>
        <time>2014-09-27T13:57:18.000Z</time>
      </trkpt>
      <trkpt lat="49.01471" lon="1.10779">
        <ele>119</ele>
        <time>2014-09-27T13:57:20.000Z</time>
      </trkpt>
      <trkpt lat="49.01471" lon="1.10779">
        <ele>119</ele>
        <time>2014-09-27T13:57:22.000Z</time>
      </trkpt>
      <trkpt lat="49.01471" lon="1.10779">
        <ele>119</ele>
        <time>2014-09-27T13:57:24.000Z</time>
      </trkpt>
      <trkpt lat="49.01503" lon="1.10828">
        <ele>125</ele>
        <time>2014-09-27T13:57:29.000Z</time>
      </trkpt>
      <trkpt lat="49.01509" lon="1.10848">
        <ele>128</ele>
        <time>2014-09-27T13:57:31.000Z</time>
      </trkpt>
      <trkpt lat="49.01517" lon="1.10868">
        <ele>131</ele>
        <time>2014-09-27T13:57:33.000Z</time>
      </trkpt>
      <trkpt lat="49.01524" lon="1.10889">
        <ele>132</ele>
        <time>2014-09-27T13:57:35.000Z</time>
      </trkpt>
      <trkpt lat="49.0153" lon="1.10908">
        <ele>130</ele>
        <time>2014-09-27T13:57:37.000Z</time>
      </trkpt>
      <trkpt lat="49.01535" lon="1.10927">
        <ele>129</ele>
        <time>2014-09-27T13:57:39.000Z</time>
      </trkpt>
      <trkpt lat="49.01542" lon="1.10948">
        <ele>128</ele>
        <time>2014-09-27T13:57:41.000Z</time>
      </trkpt>
      <trkpt lat="49.01548" lon="1.10964">
        <ele>127</ele>
        <time>2014-09-27T13:57:43.000Z</time>
      </trkpt>
      <trkpt lat="49.01548" lon="1.10964">
        <ele>127</ele>
        <time>2014-09-27T13:57:45.000Z</time>
      </trkpt>
      <trkpt lat="49.01548" lon="1.10964">
        <ele>127</ele>
        <time>2014-09-27T13:57:48.000Z</time>
      </trkpt>
      <trkpt lat="49.01548" lon="1.10964">
        <ele>127</ele>
        <time>2014-09-27T13:57:50.000Z</time>
      </trkpt>
      <trkpt lat="49.01548" lon="1.10964">
        <ele>127</ele>
        <time>2014-09-27T13:57:52.000Z</time>
      </trkpt>
      <trkpt lat="49.01548" lon="1.10964">
        <ele>127</ele>
        <time>2014-09-27T13:57:54.000Z</time>
      </trkpt>
      <trkpt lat="49.01548" lon="1.10964">
        <ele>127</ele>
        <time>2014-09-27T13:57:56.000Z</time>
      </trkpt>
      <trkpt lat="49.0159" lon="1.11002">
        <ele>113</ele>
        <time>2014-09-27T13:58:06.000Z</time>
      </trkpt>
      <trkpt lat="49.0159" lon="1.11002">
        <ele>113</ele>
        <time>2014-09-27T13:58:08.000Z</time>
      </trkpt>
      <trkpt lat="49.0159" lon="1.11002">
        <ele>113</ele>
        <time>2014-09-27T13:58:11.000Z</time>
      </trkpt>
      <trkpt lat="49.01606" lon="1.10938">
        <ele>112</ele>
        <time>2014-09-27T13:58:16.000Z</time>
      </trkpt>
      <trkpt lat="49.01616" lon="1.1092">
        <ele>112</ele>
        <time>2014-09-27T13:58:20.000Z</time>
      </trkpt>
      <trkpt lat="49.0163" lon="1.10903">
        <ele>112</ele>
        <time>2014-09-27T13:58:25.000Z</time>
      </trkpt>
      <trkpt lat="49.01645" lon="1.10887">
        <ele>113</ele>
        <time>2014-09-27T13:58:29.000Z</time>
      </trkpt>
      <trkpt lat="49.01645" lon="1.10887">
        <ele>113</ele>
        <time>2014-09-27T13:58:34.000Z</time>
      </trkpt>
      <trkpt lat="49.01645" lon="1.10887">
        <ele>113</ele>
        <time>2014-09-27T13:58:36.000Z</time>
      </trkpt>
      <trkpt lat="49.01645" lon="1.10887">
        <ele>113</ele>
        <time>2014-09-27T13:58:38.000Z</time>
      </trkpt>
      <trkpt lat="49.01645" lon="1.10887">
        <ele>113</ele>
        <time>2014-09-27T13:58:40.000Z</time>
      </trkpt>
      <trkpt lat="49.01682" lon="1.10875">
        <ele>112</ele>
        <time>2014-09-27T13:58:44.000Z</time>
      </trkpt>
      <trkpt lat="49.01682" lon="1.10875">
        <ele>112</ele>
        <time>2014-09-27T13:58:46.000Z</time>
      </trkpt>
      <trkpt lat="49.01694" lon="1.1088">
        <ele>112</ele>
        <time>2014-09-27T13:58:48.000Z</time>
      </trkpt>
      <trkpt lat="49.01714" lon="1.10877">
        <ele>113</ele>
        <time>2014-09-27T13:58:54.000Z</time>
      </trkpt>
      <trkpt lat="49.01727" lon="1.10869">
        <ele>114</ele>
        <time>2014-09-27T13:58:58.000Z</time>
      </trkpt>
      <trkpt lat="49.0174" lon="1.10861">
        <ele>116</ele>
        <time>2014-09-27T13:59:02.000Z</time>
      </trkpt>
      <trkpt lat="49.01753" lon="1.10847">
        <ele>117</ele>
        <time>2014-09-27T13:59:08.000Z</time>
      </trkpt>
      <trkpt lat="49.01753" lon="1.10847">
        <ele>117</ele>
        <time>2014-09-27T13:59:12.000Z</time>
      </trkpt>
      <trkpt lat="49.01753" lon="1.10847">
        <ele>117</ele>
        <time>2014-09-27T13:59:14.000Z</time>
      </trkpt>
      <trkpt lat="49.01753" lon="1.10847">
        <ele>117</ele>
        <time>2014-09-27T13:59:16.000Z</time>
      </trkpt>
      <trkpt lat="49.01772" lon="1.10782">
        <ele>122</ele>
        <time>2014-09-27T13:59:22.000Z</time>
      </trkpt>
      <trkpt lat="49.01774" lon="1.10759">
        <ele>124</ele>
        <time>2014-09-27T13:59:26.000Z</time>
      </trkpt>
      <trkpt lat="49.01774" lon="1.10759">
        <ele>124</ele>
        <time>2014-09-27T13:59:30.000Z</time>
      </trkpt>
      <trkpt lat="49.01773" lon="1.10732">
        <ele>126</ele>
        <time>2014-09-27T13:59:32.000Z</time>
      </trkpt>
      <trkpt lat="49.01773" lon="1.10732">
        <ele>126</ele>
        <time>2014-09-27T13:59:35.000Z</time>
      </trkpt>
      <trkpt lat="49.01773" lon="1.10732">
        <ele>126</ele>
        <time>2014-09-27T13:59:38.000Z</time>
      </trkpt>
      <trkpt lat="49.01773" lon="1.10732">
        <ele>126</ele>
        <time>2014-09-27T13:59:40.000Z</time>
      </trkpt>
      <trkpt lat="49.01773" lon="1.10732">
        <ele>126</ele>
        <time>2014-09-27T13:59:42.000Z</time>
      </trkpt>
      <trkpt lat="49.01773" lon="1.10732">
        <ele>126</ele>
        <time>2014-09-27T13:59:44.000Z</time>
      </trkpt>
      <trkpt lat="49.01768" lon="1.10694">
        <ele>127</ele>
        <time>2014-09-27T13:59:49.000Z</time>
      </trkpt>
      <trkpt lat="49.01764" lon="1.1067">
        <ele>128</ele>
        <time>2014-09-27T13:59:51.000Z</time>
      </trkpt>
      <trkpt lat="49.01761" lon="1.10654">
        <ele>128</ele>
        <time>2014-09-27T13:59:53.000Z</time>
      </trkpt>
      <trkpt lat="49.01759" lon="1.10641">
        <ele>128</ele>
        <time>2014-09-27T13:59:55.000Z</time>
      </trkpt>
      <trkpt lat="49.01759" lon="1.10641">
        <ele>128</ele>
        <time>2014-09-27T13:59:57.000Z</time>
      </trkpt>
      <trkpt lat="49.01759" lon="1.10641">
        <ele>128</ele>
        <time>2014-09-27T13:59:59.000Z</time>
      </trkpt>
      <trkpt lat="49.01759" lon="1.10641">
        <ele>128</ele>
        <time>2014-09-27T14:00:01.000Z</time>
      </trkpt>
      <trkpt lat="49.01754" lon="1.10617">
        <ele>130</ele>
        <time>2014-09-27T14:00:03.000Z</time>
      </trkpt>
      <trkpt lat="49.0175" lon="1.106">
        <ele>130</ele>
        <time>2014-09-27T14:00:05.000Z</time>
      </trkpt>
      <trkpt lat="49.0175" lon="1.106">
        <ele>130</ele>
        <time>2014-09-27T14:00:07.000Z</time>
      </trkpt>
      <trkpt lat="49.0175" lon="1.106">
        <ele>130</ele>
        <time>2014-09-27T14:00:09.000Z</time>
      </trkpt>
      <trkpt lat="49.0175" lon="1.106">
        <ele>130</ele>
        <time>2014-09-27T14:00:11.000Z</time>
      </trkpt>
      <trkpt lat="49.0175" lon="1.106">
        <ele>130</ele>
        <time>2014-09-27T14:00:19.000Z</time>
      </trkpt>
      <trkpt lat="49.0175" lon="1.106">
        <ele>130</ele>
        <time>2014-09-27T14:00:21.000Z</time>
      </trkpt>
      <trkpt lat="49.0175" lon="1.106">
        <ele>130</ele>
        <time>2014-09-27T14:00:23.000Z</time>
      </trkpt>
      <trkpt lat="49.0175" lon="1.106">
        <ele>130</ele>
        <time>2014-09-27T14:00:25.000Z</time>
      </trkpt>
      <trkpt lat="49.0175" lon="1.106">
        <ele>130</ele>
        <time>2014-09-27T14:00:27.000Z</time>
      </trkpt>
      <trkpt lat="49.01737" lon="1.10542">
        <ele>132</ele>
        <time>2014-09-27T14:00:31.000Z</time>
      </trkpt>
      <trkpt lat="49.0173" lon="1.10509">
        <ele>133</ele>
        <time>2014-09-27T14:00:33.000Z</time>
      </trkpt>
      <trkpt lat="49.01725" lon="1.10489">
        <ele>133</ele>
        <time>2014-09-27T14:00:35.000Z</time>
      </trkpt>
      <trkpt lat="49.01723" lon="1.10476">
        <ele>133</ele>
        <time>2014-09-27T14:00:37.000Z</time>
      </trkpt>
      <trkpt lat="49.0172" lon="1.10466">
        <ele>134</ele>
        <time>2014-09-27T14:00:39.000Z</time>
      </trkpt>
      <trkpt lat="49.0172" lon="1.10466">
        <ele>134</ele>
        <time>2014-09-27T14:00:41.000Z</time>
      </trkpt>
      <trkpt lat="49.0172" lon="1.10466">
        <ele>134</ele>
        <time>2014-09-27T14:00:43.000Z</time>
      </trkpt>
      <trkpt lat="49.0172" lon="1.10466">
        <ele>134</ele>
        <time>2014-09-27T14:00:45.000Z</time>
      </trkpt>
      <trkpt lat="49.01716" lon="1.10394">
        <ele>141</ele>
        <time>2014-09-27T14:02:35.000Z</time>
      </trkpt>
      <trkpt lat="49.01716" lon="1.10394">
        <ele>141</ele>
        <time>2014-09-27T14:02:38.000Z</time>
      </trkpt>
      <trkpt lat="49.01712" lon="1.10366">
        <ele>143</ele>
        <time>2014-09-27T14:02:40.000Z</time>
      </trkpt>
      <trkpt lat="49.0171" lon="1.10352">
        <ele>143</ele>
        <time>2014-09-27T14:02:43.000Z</time>
      </trkpt>
      <trkpt lat="49.01707" lon="1.10326">
        <ele>148</ele>
        <time>2014-09-27T14:02:46.000Z</time>
      </trkpt>
      <trkpt lat="49.01704" lon="1.10299">
        <ele>149</ele>
        <time>2014-09-27T14:02:50.000Z</time>
      </trkpt>
      <trkpt lat="49.01702" lon="1.10266">
        <ele>147</ele>
        <time>2014-09-27T14:02:54.000Z</time>
      </trkpt>
      <trkpt lat="49.017" lon="1.10231">
        <ele>145</ele>
        <time>2014-09-27T14:02:58.000Z</time>
      </trkpt>
      <trkpt lat="49.01701" lon="1.10197">
        <ele>144</ele>
        <time>2014-09-27T14:03:02.000Z</time>
      </trkpt>
      <trkpt lat="49.01704" lon="1.10162">
        <ele>143</ele>
        <time>2014-09-27T14:03:06.000Z</time>
      </trkpt>
      <trkpt lat="49.01708" lon="1.10132">
        <ele>143</ele>
        <time>2014-09-27T14:03:10.000Z</time>
      </trkpt>
      <trkpt lat="49.01711" lon="1.10118">
        <ele>145</ele>
        <time>2014-09-27T14:03:12.000Z</time>
      </trkpt>
      <trkpt lat="49.01711" lon="1.10118">
        <ele>145</ele>
        <time>2014-09-27T14:03:14.000Z</time>
      </trkpt>
      <trkpt lat="49.01711" lon="1.10118">
        <ele>145</ele>
        <time>2014-09-27T14:03:16.000Z</time>
      </trkpt>
      <trkpt lat="49.01711" lon="1.10118">
        <ele>145</ele>
        <time>2014-09-27T14:03:19.000Z</time>
      </trkpt>
      <trkpt lat="49.01711" lon="1.10118">
        <ele>145</ele>
        <time>2014-09-27T14:03:21.000Z</time>
      </trkpt>
      <trkpt lat="49.01711" lon="1.10118">
        <ele>145</ele>
        <time>2014-09-27T14:03:23.000Z</time>
      </trkpt>
      <trkpt lat="49.01711" lon="1.10118">
        <ele>145</ele>
        <time>2014-09-27T14:03:25.000Z</time>
      </trkpt>
      <trkpt lat="49.01711" lon="1.10118">
        <ele>145</ele>
        <time>2014-09-27T14:03:27.000Z</time>
      </trkpt>
      <trkpt lat="49.01711" lon="1.10118">
        <ele>145</ele>
        <time>2014-09-27T14:03:29.000Z</time>
      </trkpt>
      <trkpt lat="49.01711" lon="1.10118">
        <ele>145</ele>
        <time>2014-09-27T14:03:31.000Z</time>
      </trkpt>
      <trkpt lat="49.01711" lon="1.10118">
        <ele>145</ele>
        <time>2014-09-27T14:03:33.000Z</time>
      </trkpt>
      <trkpt lat="49.01711" lon="1.10118">
        <ele>145</ele>
        <time>2014-09-27T14:03:35.000Z</time>
      </trkpt>
      <trkpt lat="49.01711" lon="1.10118">
        <ele>145</ele>
        <time>2014-09-27T14:03:37.000Z</time>
      </trkpt>
      <trkpt lat="49.01711" lon="1.10118">
        <ele>145</ele>
        <time>2014-09-27T14:03:39.000Z</time>
      </trkpt>
      <trkpt lat="49.01711" lon="1.10118">
        <ele>145</ele>
        <time>2014-09-27T14:03:41.000Z</time>
      </trkpt>
      <trkpt lat="49.01711" lon="1.10118">
        <ele>145</ele>
        <time>2014-09-27T14:03:43.000Z</time>
      </trkpt>
      <trkpt lat="49.01711" lon="1.10118">
        <ele>145</ele>
        <time>2014-09-27T14:03:45.000Z</time>
      </trkpt>
      <trkpt lat="49.01711" lon="1.10118">
        <ele>145</ele>
        <time>2014-09-27T14:03:47.000Z</time>
      </trkpt>
      <trkpt lat="49.01711" lon="1.10118">
        <ele>145</ele>
        <time>2014-09-27T14:03:49.000Z</time>
      </trkpt>
      <trkpt lat="49.01711" lon="1.10118">
        <ele>145</ele>
        <time>2014-09-27T14:03:51.000Z</time>
      </trkpt>
      <trkpt lat="49.01711" lon="1.10118">
        <ele>145</ele>
        <time>2014-09-27T14:03:53.000Z</time>
      </trkpt>
      <trkpt lat="49.01711" lon="1.10118">
        <ele>145</ele>
        <time>2014-09-27T14:03:55.000Z</time>
      </trkpt>
      <trkpt lat="49.01711" lon="1.10118">
        <ele>145</ele>
        <time>2014-09-27T14:03:58.000Z</time>
      </trkpt>
      <trkpt lat="49.01711" lon="1.10118">
        <ele>145</ele>
        <time>2014-09-27T14:04:00.000Z</time>
      </trkpt>
      <trkpt lat="49.01711" lon="1.10118">
        <ele>145</ele>
        <time>2014-09-27T14:04:02.000Z</time>
      </trkpt>
      <trkpt lat="49.01711" lon="1.10118">
        <ele>145</ele>
        <time>2014-09-27T14:04:04.000Z</time>
      </trkpt>
      <trkpt lat="49.01711" lon="1.10118">
        <ele>145</ele>
        <time>2014-09-27T14:04:06.000Z</time>
      </trkpt>
      <trkpt lat="49.01708" lon="1.09958">
        <ele>158</ele>
        <time>2014-09-27T14:04:10.000Z</time>
      </trkpt>
      <trkpt lat="49.01704" lon="1.09871">
        <ele>160</ele>
        <time>2014-09-27T14:04:12.000Z</time>
      </trkpt>
      <trkpt lat="49.01699" lon="1.09821">
        <ele>162</ele>
        <time>2014-09-27T14:04:14.000Z</time>
      </trkpt>
      <trkpt lat="49.01696" lon="1.09788">
        <ele>164</ele>
        <time>2014-09-27T14:04:16.000Z</time>
      </trkpt>
      <trkpt lat="49.01693" lon="1.09765">
        <ele>165</ele>
        <time>2014-09-27T14:04:18.000Z</time>
      </trkpt>
      <trkpt lat="49.01684" lon="1.09722">
        <ele>164</ele>
        <time>2014-09-27T14:04:21.000Z</time>
      </trkpt>
      <trkpt lat="49.01675" lon="1.09693">
        <ele>162</ele>
        <time>2014-09-27T14:04:25.000Z</time>
      </trkpt>
      <trkpt lat="49.01667" lon="1.09667">
        <ele>161</ele>
        <time>2014-09-27T14:04:29.000Z</time>
      </trkpt>
      <trkpt lat="49.01667" lon="1.09667">
        <ele>161</ele>
        <time>2014-09-27T14:04:31.000Z</time>
      </trkpt>
      <trkpt lat="49.01661" lon="1.09644">
        <ele>164</ele>
        <time>2014-09-27T14:04:33.000Z</time>
      </trkpt>
      <trkpt lat="49.01661" lon="1.09644">
        <ele>164</ele>
        <time>2014-09-27T14:04:35.000Z</time>
      </trkpt>
      <trkpt lat="49.01661" lon="1.09644">
        <ele>164</ele>
        <time>2014-09-27T14:04:37.000Z</time>
      </trkpt>
      <trkpt lat="49.01661" lon="1.09644">
        <ele>164</ele>
        <time>2014-09-27T14:04:42.000Z</time>
      </trkpt>
      <trkpt lat="49.01661" lon="1.09644">
        <ele>164</ele>
        <time>2014-09-27T14:04:45.000Z</time>
      </trkpt>
      <trkpt lat="49.01661" lon="1.09644">
        <ele>164</ele>
        <time>2014-09-27T14:04:47.000Z</time>
      </trkpt>
      <trkpt lat="49.01661" lon="1.09644">
        <ele>164</ele>
        <time>2014-09-27T14:04:50.000Z</time>
      </trkpt>
      <trkpt lat="49.01661" lon="1.09644">
        <ele>164</ele>
        <time>2014-09-27T14:04:53.000Z</time>
      </trkpt>
      <trkpt lat="49.01632" lon="1.09502">
        <ele>161</ele>
        <time>2014-09-27T14:04:55.000Z</time>
      </trkpt>
      <trkpt lat="49.01632" lon="1.09482">
        <ele>160</ele>
        <time>2014-09-27T14:04:57.000Z</time>
      </trkpt>
      <trkpt lat="49.01633" lon="1.09461">
        <ele>158</ele>
        <time>2014-09-27T14:04:59.000Z</time>
      </trkpt>
      <trkpt lat="49.01634" lon="1.09441">
        <ele>157</ele>
        <time>2014-09-27T14:05:01.000Z</time>
      </trkpt>
      <trkpt lat="49.01634" lon="1.0942">
        <ele>156</ele>
        <time>2014-09-27T14:05:03.000Z</time>
      </trkpt>
      <trkpt lat="49.01635" lon="1.094">
        <ele>157</ele>
        <time>2014-09-27T14:05:05.000Z</time>
      </trkpt>
      <trkpt lat="49.01634" lon="1.0938">
        <ele>159</ele>
        <time>2014-09-27T14:05:07.000Z</time>
      </trkpt>
      <trkpt lat="49.01634" lon="1.09359">
        <ele>162</ele>
        <time>2014-09-27T14:05:09.000Z</time>
      </trkpt>
      <trkpt lat="49.01633" lon="1.09339">
        <ele>165</ele>
        <time>2014-09-27T14:05:11.000Z</time>
      </trkpt>
      <trkpt lat="49.01633" lon="1.09318">
        <ele>165</ele>
        <time>2014-09-27T14:05:13.000Z</time>
      </trkpt>
      <trkpt lat="49.01633" lon="1.09297">
        <ele>169</ele>
        <time>2014-09-27T14:05:15.000Z</time>
      </trkpt>
      <trkpt lat="49.01633" lon="1.09297">
        <ele>169</ele>
        <time>2014-09-27T14:05:17.000Z</time>
      </trkpt>
      <trkpt lat="49.01631" lon="1.09259">
        <ele>173</ele>
        <time>2014-09-27T14:05:19.000Z</time>
      </trkpt>
      <trkpt lat="49.0163" lon="1.09239">
        <ele>173</ele>
        <time>2014-09-27T14:05:21.000Z</time>
      </trkpt>
      <trkpt lat="49.01627" lon="1.09219">
        <ele>172</ele>
        <time>2014-09-27T14:05:23.000Z</time>
      </trkpt>
      <trkpt lat="49.01625" lon="1.09198">
        <ele>171</ele>
        <time>2014-09-27T14:05:25.000Z</time>
      </trkpt>
      <trkpt lat="49.01623" lon="1.09176">
        <ele>172</ele>
        <time>2014-09-27T14:05:27.000Z</time>
      </trkpt>
      <trkpt lat="49.0162" lon="1.09154">
        <ele>171</ele>
        <time>2014-09-27T14:05:29.000Z</time>
      </trkpt>
      <trkpt lat="49.01617" lon="1.09132">
        <ele>170</ele>
        <time>2014-09-27T14:05:31.000Z</time>
      </trkpt>
      <trkpt lat="49.01615" lon="1.09111">
        <ele>169</ele>
        <time>2014-09-27T14:05:33.000Z</time>
      </trkpt>
      <trkpt lat="49.01612" lon="1.09092">
        <ele>167</ele>
        <time>2014-09-27T14:05:35.000Z</time>
      </trkpt>
      <trkpt lat="49.01611" lon="1.09078">
        <ele>164</ele>
        <time>2014-09-27T14:05:37.000Z</time>
      </trkpt>
      <trkpt lat="49.01611" lon="1.09078">
        <ele>164</ele>
        <time>2014-09-27T14:05:39.000Z</time>
      </trkpt>
      <trkpt lat="49.01611" lon="1.09078">
        <ele>164</ele>
        <time>2014-09-27T14:05:41.000Z</time>
      </trkpt>
    </trkseg>
  </trk>
</gpx>